Provisional Data: Long Run near Gaines, PA


Please select a monitoring station.
Please select start date.
Please select start date.

Toggle Unit: C/F Toggle Unit: C/F
Sample Time Temperature (C) Temperature (F) Specific Conductivity (mS/cm) pH   Turbidity (NTU+) DO (mg/L)
12/23/2021 12:00:00 AM 2.04 35.672 0.083 7.15 3.97 13.08
12/23/2021 12:15:00 AM 2.03 35.654 0.083 7.15 3.94 13.1
12/23/2021 12:30:00 AM 2.01 35.618 0.083 7.13 3.91 13.1
12/23/2021 12:45:00 AM 1.99 35.582 0.083 7.14 3.9 13.11
12/23/2021 1:00:00 AM 1.97 35.546 0.083 7.15 3.87 13.11
12/23/2021 1:15:00 AM 1.95 35.51 0.083 7.16 3.87 13.12
12/23/2021 1:30:00 AM 1.93 35.474 0.083 7.16 3.93 13.13
12/23/2021 1:45:00 AM 1.92 35.456 0.083 7.15 3.89 13.14
12/23/2021 2:00:00 AM 1.9 35.42 0.083 7.14 3.88 13.15
12/23/2021 2:15:00 AM 1.86 35.348 0.083 7.15 3.86 13.16
12/23/2021 2:30:00 AM 1.82 35.276 0.083 7.14 3.88 13.17
12/23/2021 2:45:00 AM 1.78 35.204 0.083 7.15 3.86 13.18
12/23/2021 3:00:00 AM 1.75 35.15 0.083 7.15 3.85 13.2
12/23/2021 3:15:00 AM 1.71 35.078 0.083 7.14 3.81 13.21
12/23/2021 3:30:00 AM 1.69 35.042 0.083 7.14 3.86 13.23
12/23/2021 3:45:00 AM 1.67 35.006 0.083 7.15 3.86 13.24
12/23/2021 4:00:00 AM 1.65 34.97 0.083 7.15 3.84 13.25
12/23/2021 4:15:00 AM 1.64 34.952 0.083 7.15 3.88 13.25
12/23/2021 4:30:00 AM 1.63 34.934 0.083 7.16 3.88 13.26
12/23/2021 4:45:00 AM 1.62 34.916 0.083 7.16 3.86 13.27
12/23/2021 5:00:00 AM 1.6 34.88 0.083 7.16 3.86 13.27
12/23/2021 5:15:00 AM 1.59 34.862 0.083 7.16 3.87 13.28
12/23/2021 5:30:00 AM 1.58 34.844 0.083 7.14 3.91 13.28
12/23/2021 5:45:00 AM 1.58 34.844 0.082 7.15 3.85 13.29
12/23/2021 6:00:00 AM 1.58 34.844 0.082 7.16 3.88 13.3
12/23/2021 6:15:00 AM 1.59 34.862 0.082 7.12 3.83 13.3
12/23/2021 6:30:00 AM 1.59 34.862 0.082 7.15 3.92 13.3
12/23/2021 6:45:00 AM 1.6 34.88 0.082 7.15 3.86 13.3
12/23/2021 7:00:00 AM 1.6 34.88 0.082 7.15 3.87 13.31
12/23/2021 7:15:00 AM 1.6 34.88 0.082 7.14 3.9 13.31
12/23/2021 7:30:00 AM 1.61 34.898 0.082 7.16 3.83 13.31
12/23/2021 7:45:00 AM 1.61 34.898 0.082 7.15 3.84 13.32
12/23/2021 8:00:00 AM 1.61 34.898 0.082 7.16 3.87 13.34
12/23/2021 8:15:00 AM 1.63 34.934 0.082 7.17 3.88 13.38
12/23/2021 8:30:00 AM 1.64 34.952 0.082 7.18 3.89 13.42
12/23/2021 8:45:00 AM 1.65 34.97 0.082 7.15 3.84 13.48
12/23/2021 9:00:00 AM 1.68 35.024 0.082 7.23 3.85 13.53
12/23/2021 9:15:00 AM 1.71 35.078 0.082 7.23 3.84 13.59
12/23/2021 9:30:00 AM 1.74 35.132 0.082 7.24 3.81 13.64
12/23/2021 9:45:00 AM 1.8 35.24 0.082 7.27 3.78 13.67
12/23/2021 10:00:00 AM 1.85 35.33 0.081 7.27 3.83 13.69
12/23/2021 10:15:00 AM 1.9 35.42 0.081 7.29 3.82 13.68
12/23/2021 10:30:00 AM 1.93 35.474 0.081 7.31 3.84 13.68
12/23/2021 10:45:00 AM 1.99 35.582 0.081 7.31 3.8 13.68
12/23/2021 11:00:00 AM 2.11 35.798 0.081 7.32 3.82 13.67
12/23/2021 11:15:00 AM 2.24 36.032 0.081 7.34 3.82 13.65
12/23/2021 11:30:00 AM 2.32 36.176 0.081 7.34 3.76 13.62
12/23/2021 11:45:00 AM 2.34 36.212 0.081 7.34 3.79 13.6
12/23/2021 12:00:00 PM 2.41 36.338 0.081 7.35 3.77 13.58
12/23/2021 12:15:00 PM 2.53 36.554 0.081 7.35 3.82 13.53
12/23/2021 12:30:00 PM 2.63 36.734 0.08 7.36 3.78 13.49
12/23/2021 12:45:00 PM 2.73 36.914 0.08 7.37 3.81 13.45
12/23/2021 1:00:00 PM 2.81 37.058 0.08 7.37 3.76 13.41
12/23/2021 1:15:00 PM 2.89 37.202 0.08 7.37 3.74 13.38
12/23/2021 1:30:00 PM 2.9 37.22 0.08 7.37 3.78 13.36
12/23/2021 1:45:00 PM 2.9 37.22 0.08 7.37 3.81 13.37
12/23/2021 2:00:00 PM 2.89 37.202 0.08 7.36 3.81 13.36
12/23/2021 2:15:00 PM 2.87 37.166 0.08 7.36 3.76 13.36
12/23/2021 2:30:00 PM 2.85 37.13 0.08 7.35 3.86 13.35
12/23/2021 2:45:00 PM 2.84 37.112 0.08 7.35 3.79 13.33
12/23/2021 3:00:00 PM 2.83 37.094 0.08 7.35 3.81 13.31
12/23/2021 3:15:00 PM 2.83 37.094 0.08 7.35 3.82 13.3
12/23/2021 3:30:00 PM 2.82 37.076 0.08 7.35 3.8 13.29
12/23/2021 3:45:00 PM 2.79 37.022 0.08 7.33 3.82 13.27
12/23/2021 4:00:00 PM 2.77 36.986 0.08 7.32 3.81 13.24
12/23/2021 4:15:00 PM 2.74 36.932 0.08 7.31 3.84 13.19
12/23/2021 4:30:00 PM 2.71 36.878 0.08 7.29 3.84 13.13
12/23/2021 4:45:00 PM 2.68 36.824 0.08 7.27 3.84 13.08
12/23/2021 5:00:00 PM 2.65 36.77 0.08 7.24 3.83 13.04
12/23/2021 5:15:00 PM 2.62 36.716 0.08 7.23 3.84 13.01
12/23/2021 5:30:00 PM 2.61 36.698 0.081 7.22 3.82 12.99
12/23/2021 5:45:00 PM 2.59 36.662 0.081 7.21 3.85 12.97
12/23/2021 6:00:00 PM 2.55 36.59 0.081 7.21 3.89 12.96
12/23/2021 6:15:00 PM 2.46 36.428 0.081 7.18 3.9 12.96
12/23/2021 6:30:00 PM 2.42 36.356 0.081 7.2 3.84 12.97
12/23/2021 6:45:00 PM 2.4 36.32 0.081 7.19 3.85 12.98
12/23/2021 7:00:00 PM 2.39 36.302 0.081 7.18 3.85 12.99
12/23/2021 7:15:00 PM 2.37 36.266 0.081 7.2 3.85 12.99
12/23/2021 7:30:00 PM 2.37 36.266 0.081 7.17 3.89 12.99
12/23/2021 7:45:00 PM 2.36 36.248 0.081 7.19 3.87 13
12/23/2021 8:00:00 PM 2.35 36.23 0.081 7.19 3.86 13
12/23/2021 8:15:00 PM 2.35 36.23 0.081 7.19 3.91 13
12/23/2021 8:30:00 PM 2.35 36.23 0.081 7.19 3.89 13
12/23/2021 8:45:00 PM 2.34 36.212 0.081 7.18 3.9 13
12/23/2021 9:00:00 PM 2.34 36.212 0.081 7.19 3.87 12.99
12/23/2021 9:15:00 PM 2.34 36.212 0.081 7.18 3.83 13
12/23/2021 9:30:00 PM 2.34 36.212 0.081 7.19 3.84 12.99
12/23/2021 9:45:00 PM 2.33 36.194 0.082 7.19 3.91 12.99
12/23/2021 10:00:00 PM 2.33 36.194 0.082 7.2 3.89 12.99
12/23/2021 10:15:00 PM 2.33 36.194 0.082 7.19 3.9 12.99
12/23/2021 10:30:00 PM 2.32 36.176 0.082 7.15 3.9 12.98
12/23/2021 10:45:00 PM 2.31 36.158 0.082 7.19 3.87 12.98
12/23/2021 11:00:00 PM 2.31 36.158 0.082 7.18 3.95 12.99
12/23/2021 11:15:00 PM 2.31 36.158 0.082 7.19 3.87 12.99
12/23/2021 11:30:00 PM 2.3 36.14 0.082 7.18 3.92 12.99
12/23/2021 11:45:00 PM 2.24 36.032 0.082 7.18 3.91 12.99
12/24/2021 12:00:00 AM 2.18 35.924 0.082 7.19 3.93 13
12/24/2021 12:15:00 AM 2.12 35.816 0.082 7.18 3.92 13.01
12/24/2021 12:30:00 AM 2.1 35.78 0.082 7.17 3.86 13.03
12/24/2021 12:45:00 AM 2.1 35.78 0.082 7.17 3.88 13.04
12/24/2021 1:00:00 AM 2.1 35.78 0.082 7.18 3.87 13.04
12/24/2021 1:15:00 AM 2.1 35.78 0.082 7.17 3.96 13.05
12/24/2021 1:30:00 AM 2.11 35.798 0.082 7.17 3.83 13.04
12/24/2021 1:45:00 AM 2.11 35.798 0.082 7.18 3.87 13.05
12/24/2021 2:00:00 AM 2.12 35.816 0.082 7.18 3.84 13.04
12/24/2021 2:15:00 AM 2.13 35.834 0.082 7.19 3.83 13.04
12/24/2021 2:30:00 AM 2.13 35.834 0.082 7.18 3.85 13.04
12/24/2021 2:45:00 AM 2.14 35.852 0.082 7.16 3.86 13.04
12/24/2021 3:00:00 AM 2.14 35.852 0.082 7.18 3.83 13.04
12/24/2021 3:15:00 AM 2.14 35.852 0.082 7.18 3.86 13.04
12/24/2021 3:30:00 AM 2.15 35.87 0.082 7.19 3.83 13.04
12/24/2021 3:45:00 AM 2.16 35.888 0.082 7.19 3.88 13.03
12/24/2021 4:00:00 AM 2.16 35.888 0.082 7.17 3.88 13.03
12/24/2021 4:15:00 AM 2.17 35.906 0.082 7.16 3.91 13.03
12/24/2021 4:30:00 AM 2.18 35.924 0.082 7.17 3.88 13.03
12/24/2021 4:45:00 AM 2.18 35.924 0.082 7.18 3.83 13.03
12/24/2021 5:00:00 AM 2.19 35.942 0.082 7.19 3.85 13.02
12/24/2021 5:15:00 AM 2.2 35.96 0.082 7.18 3.84 13.02
12/24/2021 5:30:00 AM 2.21 35.978 0.082 7.17 3.85 13.03
12/24/2021 5:45:00 AM 2.22 35.996 0.082 7.17 3.79 13.02
12/24/2021 6:00:00 AM 2.23 36.014 0.082 7.18 3.82 13.02
12/24/2021 6:15:00 AM 2.24 36.032 0.082 7.19 3.85 13.01
12/24/2021 6:30:00 AM 2.25 36.05 0.082 7.19 3.86 13.01
12/24/2021 6:45:00 AM 2.26 36.068 0.082 7.19 3.84 13.01
12/24/2021 7:00:00 AM 2.27 36.086 0.082 7.18 3.89 13.01
12/24/2021 7:15:00 AM 2.28 36.104 0.082 7.18 3.87 13
12/24/2021 7:30:00 AM 2.29 36.122 0.082 7.19 3.86 13
12/24/2021 7:45:00 AM 2.3 36.14 0.082 7.16 3.84 13
12/24/2021 8:00:00 AM 2.31 36.158 0.082 7.16 3.88 13.01
12/24/2021 8:15:00 AM 2.32 36.176 0.082 7.19 3.84 13.02
12/24/2021 8:30:00 AM 2.34 36.212 0.082 7.2 3.86 13.04
12/24/2021 8:45:00 AM 2.35 36.23 0.082 7.2 3.82 13.08
12/24/2021 9:00:00 AM 2.37 36.266 0.082 7.22 3.81 13.11
12/24/2021 9:15:00 AM 2.39 36.302 0.082 7.23 3.84 13.14
12/24/2021 9:30:00 AM 2.42 36.356 0.082 7.24 3.78 13.17
12/24/2021 9:45:00 AM 2.45 36.41 0.082 7.23 3.78 13.22
12/24/2021 10:00:00 AM 2.49 36.482 0.082 7.26 3.83 13.26
12/24/2021 10:15:00 AM 2.54 36.572 0.081 7.29 3.77 13.28
12/24/2021 10:30:00 AM 2.61 36.698 0.081 7.3 3.81 13.31
12/24/2021 10:45:00 AM 2.68 36.824 0.081 7.32 3.8 13.33
12/24/2021 11:00:00 AM 2.75 36.95 0.081 7.32 3.78 13.34
12/24/2021 11:15:00 AM 2.86 37.148 0.081 7.34 3.82 13.34
12/24/2021 11:30:00 AM 2.96 37.328 0.081 7.36 3.84 13.31
12/24/2021 11:45:00 AM 3.06 37.508 0.081 7.32 3.82 13.27
12/24/2021 12:00:00 PM 3.17 37.706 0.081 7.38 3.79 13.23
12/24/2021 12:15:00 PM 3.29 37.922 0.081 7.38 3.78 13.18
12/24/2021 12:30:00 PM 3.42 38.156 0.081 7.39 3.81 13.14
12/24/2021 12:45:00 PM 3.56 38.408 0.081 7.4 3.82 13.11
12/24/2021 1:00:00 PM 3.69 38.642 0.08 7.41 3.82 13.07
12/24/2021 1:15:00 PM 3.74 38.732 0.08 7.41 3.76 13.03
12/24/2021 1:30:00 PM 3.79 38.822 0.08 7.39 3.81 12.99
12/24/2021 1:45:00 PM 3.84 38.912 0.08 7.42 3.73 12.96
12/24/2021 2:00:00 PM 3.87 38.966 0.08 7.39 3.79 12.94
12/24/2021 2:15:00 PM 3.91 39.038 0.08 7.41 3.77 12.92
12/24/2021 2:30:00 PM 3.92 39.056 0.08 7.42 3.83 12.91
12/24/2021 2:45:00 PM 3.92 39.056 0.08 7.41 3.85 12.9
12/24/2021 3:00:00 PM 3.91 39.038 0.08 7.4 3.85 12.88
12/24/2021 3:15:00 PM 3.91 39.038 0.08 7.4 3.88 12.86
12/24/2021 3:30:00 PM 3.91 39.038 0.08 7.39 3.9 12.84
12/24/2021 3:45:00 PM 3.9 39.02 0.08 7.39 3.92 12.81
12/24/2021 4:00:00 PM 3.89 39.002 0.08 7.38 3.86 12.79
12/24/2021 4:15:00 PM 3.87 38.966 0.08 7.37 3.87 12.76
12/24/2021 4:30:00 PM 3.84 38.912 0.081 7.35 3.85 12.69
12/24/2021 4:45:00 PM 3.8 38.84 0.081 7.3 3.88 12.64
12/24/2021 5:00:00 PM 3.76 38.768 0.081 7.31 3.82 12.59
12/24/2021 5:15:00 PM 3.72 38.696 0.081 7.29 3.9 12.55
12/24/2021 5:30:00 PM 3.69 38.642 0.081 7.27 3.88 12.53
12/24/2021 5:45:00 PM 3.67 38.606 0.081 7.26 3.88 12.52
12/24/2021 6:00:00 PM 3.65 38.57 0.081 7.21 3.91 12.51
12/24/2021 6:15:00 PM 3.64 38.552 0.081 7.24 3.89 12.51
12/24/2021 6:30:00 PM 3.62 38.516 0.081 7.24 3.86 12.5
12/24/2021 6:45:00 PM 3.61 38.498 0.081 7.17 3.94 12.5
12/24/2021 7:00:00 PM 3.59 38.462 0.081 7.24 3.91 12.5
12/24/2021 7:15:00 PM 3.59 38.462 0.082 7.23 3.9 12.5
12/24/2021 7:30:00 PM 3.58 38.444 0.082 7.23 3.9 12.5
12/24/2021 7:45:00 PM 3.57 38.426 0.082 7.23 3.95 12.5
12/24/2021 8:00:00 PM 3.56 38.408 0.082 7.17 3.89 12.5
12/24/2021 8:15:00 PM 3.56 38.408 0.082 7.18 3.94 12.5
12/24/2021 8:30:00 PM 3.56 38.408 0.082 7.23 3.9 12.5
12/24/2021 8:45:00 PM 3.56 38.408 0.082 7.22 3.9 12.5
12/24/2021 9:00:00 PM 3.57 38.426 0.082 7.22 3.94 12.49
12/24/2021 9:15:00 PM 3.57 38.426 0.082 7.23 4.02 12.49
12/24/2021 9:30:00 PM 3.57 38.426 0.082 7.19 3.98 12.49
12/24/2021 9:45:00 PM 3.58 38.444 0.082 7.22 3.95 12.48
12/24/2021 10:00:00 PM 3.58 38.444 0.082 7.22 3.96 12.48
12/24/2021 10:15:00 PM 3.59 38.462 0.082 7.22 3.99 12.48
12/24/2021 10:30:00 PM 3.59 38.462 0.083 7.23 3.87 12.47
12/24/2021 10:45:00 PM 3.6 38.48 0.083 7.23 3.98 12.47
12/24/2021 11:00:00 PM 3.6 38.48 0.083 7.24 3.93 12.46
12/24/2021 11:15:00 PM 3.61 38.498 0.083 7.23 3.97 12.46
12/24/2021 11:30:00 PM 3.62 38.516 0.083 7.23 3.95 12.46
12/24/2021 11:45:00 PM 3.62 38.516 0.083 7.24 3.95 12.45
12/25/2021 12:00:00 AM 3.63 38.534 0.083 7.22 3.95 12.45
12/25/2021 12:15:00 AM 3.64 38.552 0.083 7.24 3.9 12.44
12/25/2021 12:30:00 AM 3.65 38.57 0.083 7.24 3.93 12.44
12/25/2021 12:45:00 AM 3.65 38.57 0.083 7.22 3.95 12.43
12/25/2021 1:00:00 AM 3.66 38.588 0.083 7.24 4 12.43
12/25/2021 1:15:00 AM 3.66 38.588 0.083 7.24 3.9 12.42
12/25/2021 1:30:00 AM 3.67 38.606 0.083 7.24 3.88 12.41
12/25/2021 1:45:00 AM 3.68 38.624 0.083 7.25 3.93 12.41
12/25/2021 2:00:00 AM 3.69 38.642 0.083 7.23 3.9 12.4
12/25/2021 2:15:00 AM 3.7 38.66 0.083 7.25 3.97 12.39
12/25/2021 2:30:00 AM 3.71 38.678 0.083 7.24 3.96 12.38
12/25/2021 2:45:00 AM 3.71 38.678 0.084 7.23 3.9 12.38
12/25/2021 3:00:00 AM 3.72 38.696 0.084 7.24 3.91 12.37
12/25/2021 3:15:00 AM 3.73 38.714 0.084 7.23 3.88 12.37
12/25/2021 3:30:00 AM 3.73 38.714 0.084 7.24 3.93 12.36
12/25/2021 3:45:00 AM 3.74 38.732 0.084 7.25 3.97 12.36
12/25/2021 4:00:00 AM 3.75 38.75 0.084 7.24 4.01 12.35
12/25/2021 4:15:00 AM 3.76 38.768 0.084 7.24 3.96 12.35
12/25/2021 4:30:00 AM 3.77 38.786 0.084 7.24 3.96 12.34
12/25/2021 4:45:00 AM 3.78 38.804 0.084 7.21 3.91 12.33
12/25/2021 5:00:00 AM 3.78 38.804 0.084 7.24 4.05 12.33
12/25/2021 5:15:00 AM 3.79 38.822 0.084 7.24 4.09 12.32
12/25/2021 5:30:00 AM 3.8 38.84 0.084 7.18 4.08 12.31
12/25/2021 5:45:00 AM 3.81 38.858 0.084 7.25 3.99 12.31
12/25/2021 6:00:00 AM 3.82 38.876 0.084 7.25 4.01 12.3
12/25/2021 6:15:00 AM 3.82 38.876 0.084 7.24 4.01 12.3
12/25/2021 6:30:00 AM 3.83 38.894 0.084 7.24 3.97 12.3
12/25/2021 6:45:00 AM 3.83 38.894 0.083 7.25 4.06 12.29
12/25/2021 7:00:00 AM 3.84 38.912 0.083 7.24 4.07 12.29
12/25/2021 7:15:00 AM 3.84 38.912 0.083 7.25 4.06 12.29
12/25/2021 7:30:00 AM 3.85 38.93 0.083 7.24 4.04 12.28
12/25/2021 7:45:00 AM 3.86 38.948 0.083 7.21 4.09 12.27
12/25/2021 8:00:00 AM 3.86 38.948 0.083 7.25 3.99 12.29
12/25/2021 8:15:00 AM 3.87 38.966 0.083 7.21 4 12.29
12/25/2021 8:30:00 AM 3.88 38.984 0.083 7.26 3.98 12.3
12/25/2021 8:45:00 AM 3.89 39.002 0.083 7.26 3.99 12.32
12/25/2021 9:00:00 AM 3.9 39.02 0.083 7.27 4.01 12.34
12/25/2021 9:15:00 AM 3.91 39.038 0.083 7.27 4.03 12.36
12/25/2021 9:30:00 AM 3.93 39.074 0.083 7.28 4 12.38
12/25/2021 9:45:00 AM 3.95 39.11 0.083 7.22 4.03 12.42
12/25/2021 10:00:00 AM 3.98 39.164 0.083 7.32 4.08 12.47
12/25/2021 10:15:00 AM 4.02 39.236 0.083 7.33 4.03 12.52
12/25/2021 10:30:00 AM 4.07 39.326 0.083 7.35 4.05 12.56
12/25/2021 10:45:00 AM 4.12 39.416 0.083 7.37 4.1 12.57
12/25/2021 11:00:00 AM 4.15 39.47 0.083 7.33 4.05 12.55
12/25/2021 11:15:00 AM 4.18 39.524 0.083 7.38 4.12 12.53
12/25/2021 11:30:00 AM 4.22 39.596 0.083 7.39 4.08 12.54
12/25/2021 11:45:00 AM 4.25 39.65 0.084 7.33 4.1 12.53
12/25/2021 12:00:00 PM 4.28 39.704 0.084 7.41 4.08 12.51
12/25/2021 12:15:00 PM 4.32 39.776 0.084 7.39 4.03 12.53
12/25/2021 12:30:00 PM 4.38 39.884 0.084 7.42 4.08 12.55
12/25/2021 12:45:00 PM 4.44 39.992 0.085 7.4 4.1 12.55
12/25/2021 1:00:00 PM 4.5 40.1 0.085 7.44 4.13 12.54
12/25/2021 1:15:00 PM 4.54 40.172 0.085 7.44 4.12 12.51
12/25/2021 1:30:00 PM 4.59 40.262 0.085 7.43 4.14 12.5
12/25/2021 1:45:00 PM 4.64 40.352 0.085 7.44 4.18 12.49
12/25/2021 2:00:00 PM 4.67 40.406 0.085 7.45 4.21 12.48
12/25/2021 2:15:00 PM 4.72 40.496 0.085 7.41 4.27 12.47
12/25/2021 2:30:00 PM 4.76 40.568 0.086 7.47 4.52 12.45
12/25/2021 2:45:00 PM 4.79 40.622 0.086 7.46 4.41 12.43
12/25/2021 3:00:00 PM 4.81 40.658 0.086 7.47 4.44 12.39
12/25/2021 3:15:00 PM 4.82 40.676 0.086 7.45 4.39 12.34
12/25/2021 3:30:00 PM 4.83 40.694 0.087 7.4 4.44 12.28
12/25/2021 3:45:00 PM 4.83 40.694 0.087 7.42 4.51 12.22
12/25/2021 4:00:00 PM 4.83 40.694 0.087 7.4 4.5 12.16
12/25/2021 4:15:00 PM 4.83 40.694 0.088 7.37 4.59 12.12
12/25/2021 4:30:00 PM 4.83 40.694 0.088 7.37 4.59 12.09
12/25/2021 4:45:00 PM 4.83 40.694 0.088 7.36 4.68 12.06
12/25/2021 5:00:00 PM 4.82 40.676 0.088 7.34 4.82 12.04
12/25/2021 5:15:00 PM 4.82 40.676 0.089 7.34 4.8 12.03
12/25/2021 5:30:00 PM 4.82 40.676 0.089 7.31 4.89 12.01
12/25/2021 5:45:00 PM 4.83 40.694 0.09 7.33 4.75 12.01
12/25/2021 6:00:00 PM 4.83 40.694 0.09 7.31 4.75 12
12/25/2021 6:15:00 PM 4.83 40.694 0.09 7.32 4.82 12
12/25/2021 6:30:00 PM 4.83 40.694 0.091 7.3 4.74 12
12/25/2021 6:45:00 PM 4.82 40.676 0.091 7.31 4.71 12
12/25/2021 7:00:00 PM 4.82 40.676 0.091 7.32 4.64 12
12/25/2021 7:15:00 PM 4.82 40.676 0.092 7.32 4.66 12
12/25/2021 7:30:00 PM 4.81 40.658 0.092 7.32 4.66 12.01
12/25/2021 7:45:00 PM 4.81 40.658 0.092 7.32 4.71 12.01
12/25/2021 8:00:00 PM 4.8 40.64 0.092 7.32 4.77 12.01
12/25/2021 8:15:00 PM 4.8 40.64 0.093 7.32 4.75 12.02
12/25/2021 8:30:00 PM 4.79 40.622 0.093 7.32 4.94 12.02
12/25/2021 8:45:00 PM 4.79 40.622 0.093 7.32 4.68 12.02
12/25/2021 9:00:00 PM 4.8 40.64 0.093 7.32 4.61 12.03
12/25/2021 9:15:00 PM 4.8 40.64 0.093 7.29 4.69 12.03
12/25/2021 9:30:00 PM 4.8 40.64 0.093 7.34 4.68 12.04
12/25/2021 9:45:00 PM 4.8 40.64 0.093 7.33 4.72 12.04
12/25/2021 10:00:00 PM 4.81 40.658 0.093 7.34 4.9 12.04
12/25/2021 10:15:00 PM 4.81 40.658 0.093 7.33 5.05 12.04
12/25/2021 10:30:00 PM 4.81 40.658 0.093 7.33 5.05 12.04
12/25/2021 10:45:00 PM 4.82 40.676 0.093 7.3 4.77 12.05
12/25/2021 11:00:00 PM 4.82 40.676 0.093 7.34 4.64 12.05
12/25/2021 11:15:00 PM 4.83 40.694 0.093 7.28 4.62 12.05
12/25/2021 11:30:00 PM 4.83 40.694 0.093 7.35 4.57 12.05
12/25/2021 11:45:00 PM 4.82 40.676 0.093 7.34 4.63 12.05
12/26/2021 12:00:00 AM 4.82 40.676 0.093 7.34 4.6 12.05
12/26/2021 12:15:00 AM 4.82 40.676 0.093 7.34 4.57 12.06
12/26/2021 12:30:00 AM 4.81 40.658 0.093 7.35 4.53 12.06
12/26/2021 12:45:00 AM 4.8 40.64 0.093 7.28 4.55 12.06
12/26/2021 1:00:00 AM 4.79 40.622 0.093 7.35 4.46 12.07
12/26/2021 1:15:00 AM 4.78 40.604 0.093 7.34 4.63 12.07
12/26/2021 1:30:00 AM 4.77 40.586 0.092 7.35 4.54 12.08
12/26/2021 1:45:00 AM 4.75 40.55 0.092 7.34 4.43 12.08
12/26/2021 2:00:00 AM 4.74 40.532 0.092 7.34 4.7 12.09
12/26/2021 2:15:00 AM 4.73 40.514 0.092 7.34 4.45 12.1
12/26/2021 2:30:00 AM 4.72 40.496 0.092 7.34 4.5 12.1
12/26/2021 2:45:00 AM 4.71 40.478 0.092 7.34 4.37 12.11
12/26/2021 3:00:00 AM 4.7 40.46 0.092 7.31 4.4 12.11
12/26/2021 3:15:00 AM 4.69 40.442 0.092 7.29 4.38 12.12
12/26/2021 3:30:00 AM 4.68 40.424 0.091 7.33 4.32 12.13
12/26/2021 3:45:00 AM 4.66 40.388 0.091 7.33 4.43 12.13
12/26/2021 4:00:00 AM 4.65 40.37 0.091 7.31 4.46 12.14
12/26/2021 4:15:00 AM 4.63 40.334 0.091 7.33 4.31 12.15
12/26/2021 4:30:00 AM 4.62 40.316 0.091 7.33 4.33 12.16
12/26/2021 4:45:00 AM 4.61 40.298 0.091 7.32 4.23 12.15
12/26/2021 5:00:00 AM 4.59 40.262 0.091 7.32 4.36 12.17
12/26/2021 5:15:00 AM 4.57 40.226 0.091 7.33 4.26 12.18
12/26/2021 5:30:00 AM 4.55 40.19 0.091 7.33 4.34 12.18
12/26/2021 5:45:00 AM 4.52 40.136 0.091 7.33 4.32 12.19
12/26/2021 6:00:00 AM 4.5 40.1 0.091 7.33 4.32 12.2
12/26/2021 6:15:00 AM 4.49 40.082 0.09 7.33 4.33 12.21
12/26/2021 6:30:00 AM 4.48 40.064 0.09 7.32 4.31 12.22
12/26/2021 6:45:00 AM 4.46 40.028 0.09 7.32 4.25 12.22
12/26/2021 7:00:00 AM 4.41 39.938 0.09 7.32 4.27 12.23
12/26/2021 7:15:00 AM 4.36 39.848 0.09 7.3 4.28 12.25
12/26/2021 7:30:00 AM 4.32 39.776 0.09 7.28 4.21 12.26
12/26/2021 7:45:00 AM 4.27 39.686 0.09 7.32 4.25 12.29
12/26/2021 8:00:00 AM 4.22 39.596 0.09 7.32 4.22 12.33
12/26/2021 8:15:00 AM 4.17 39.506 0.09 7.32 4.21 12.39
12/26/2021 8:30:00 AM 4.13 39.434 0.09 7.34 4.17 12.45
12/26/2021 8:45:00 AM 4.09 39.362 0.09 7.35 4.16 12.5
12/26/2021 9:00:00 AM 4.06 39.308 0.09 7.35 4.13 12.56
12/26/2021 9:15:00 AM 4.04 39.272 0.089 7.36 4.18 12.6
12/26/2021 9:30:00 AM 4.03 39.254 0.089 7.38 4.15 12.66
12/26/2021 9:45:00 AM 4.06 39.308 0.089 7.4 4.1 12.7
12/26/2021 10:00:00 AM 4.08 39.344 0.089 7.39 4.09 12.72
12/26/2021 10:15:00 AM 4.14 39.452 0.089 7.38 4.08 12.75
12/26/2021 10:30:00 AM 4.21 39.578 0.089 7.44 4.08 12.78
12/26/2021 10:45:00 AM 4.25 39.65 0.089 7.45 4.04 12.77
12/26/2021 11:00:00 AM 4.27 39.686 0.088 7.46 4.05 12.77
12/26/2021 11:15:00 AM 4.31 39.758 0.088 7.47 4.07 12.77
12/26/2021 11:30:00 AM 4.39 39.902 0.088 7.48 4 12.77
12/26/2021 11:45:00 AM 4.48 40.064 0.088 7.5 4.07 12.78
12/26/2021 12:00:00 PM 4.58 40.244 0.088 7.51 4.11 12.75
12/26/2021 12:15:00 PM 4.65 40.37 0.088 7.52 4.08 12.73
12/26/2021 12:30:00 PM 4.74 40.532 0.087 7.52 4.03 12.71
12/26/2021 12:45:00 PM 4.79 40.622 0.087 7.53 3.97 12.71
12/26/2021 1:00:00 PM 4.84 40.712 0.087 7.54 4 12.7
12/26/2021 1:15:00 PM 4.86 40.748 0.087 7.54 4.03 12.68
12/26/2021 1:30:00 PM 4.87 40.766 0.087 7.55 3.99 12.66
12/26/2021 1:45:00 PM 4.88 40.784 0.087 7.54 4.03 12.66
12/26/2021 2:00:00 PM 4.89 40.802 0.087 7.55 4.01 12.66
12/26/2021 2:15:00 PM 4.9 40.82 0.087 7.54 3.96 12.64
12/26/2021 2:30:00 PM 4.89 40.802 0.087 7.53 4.03 12.62
12/26/2021 2:45:00 PM 4.86 40.748 0.087 7.52 3.97 12.6
12/26/2021 3:00:00 PM 4.8 40.64 0.087 7.51 4.03 12.56
12/26/2021 3:15:00 PM 4.75 40.55 0.087 7.5 3.98 12.55
12/26/2021 3:30:00 PM 4.71 40.478 0.087 7.47 4 12.55
12/26/2021 3:45:00 PM 4.67 40.406 0.087 7.46 4.01 12.54
12/26/2021 4:00:00 PM 4.63 40.334 0.087 7.46 4.01 12.53
12/26/2021 4:15:00 PM 4.57 40.226 0.087 7.4 3.96 12.49
12/26/2021 4:30:00 PM 4.51 40.118 0.087 7.43 4.03 12.46
12/26/2021 4:45:00 PM 4.43 39.974 0.087 7.41 4.05 12.43
12/26/2021 5:00:00 PM 4.36 39.848 0.087 7.39 3.98 12.41
12/26/2021 5:15:00 PM 4.29 39.722 0.087 7.36 4.02 12.4
12/26/2021 5:30:00 PM 4.22 39.596 0.087 7.35 4.03 12.4
12/26/2021 5:45:00 PM 4.15 39.47 0.087 7.31 4.08 12.4
12/26/2021 6:00:00 PM 4.1 39.38 0.087 7.33 4.1 12.41
12/26/2021 6:15:00 PM 4.05 39.29 0.087 7.32 4.11 12.43
12/26/2021 6:30:00 PM 3.99 39.182 0.087 7.28 4.08 12.44
12/26/2021 6:45:00 PM 3.93 39.074 0.087 7.3 4.08 12.45
12/26/2021 7:00:00 PM 3.87 38.966 0.087 7.3 4.07 12.47
12/26/2021 7:15:00 PM 3.81 38.858 0.087 7.31 4.11 12.49
12/26/2021 7:30:00 PM 3.75 38.75 0.087 7.31 4.04 12.51
12/26/2021 7:45:00 PM 3.69 38.642 0.087 7.29 4.1 12.53
12/26/2021 8:00:00 PM 3.64 38.552 0.087 7.27 4.03 12.55
12/26/2021 8:15:00 PM 3.59 38.462 0.087 7.28 4.13 12.57
12/26/2021 8:30:00 PM 3.56 38.408 0.087 7.29 4.08 12.58
12/26/2021 8:45:00 PM 3.54 38.372 0.087 7.3 4.08 12.59
12/26/2021 9:00:00 PM 3.53 38.354 0.087 7.3 4.09 12.6
12/26/2021 9:15:00 PM 3.53 38.354 0.087 7.29 4.1 12.61
12/26/2021 9:30:00 PM 3.52 38.336 0.087 7.3 4.06 12.61
12/26/2021 9:45:00 PM 3.52 38.336 0.087 7.3 4.02 12.61
12/26/2021 10:00:00 PM 3.52 38.336 0.087 7.3 4.08 12.61
12/26/2021 10:15:00 PM 3.51 38.318 0.087 7.3 4.08 12.61
12/26/2021 10:30:00 PM 3.5 38.3 0.087 7.3 4.08 12.61
12/26/2021 10:45:00 PM 3.49 38.282 0.087 7.31 4.06 12.62
12/26/2021 11:00:00 PM 3.49 38.282 0.088 7.3 4.04 12.62
12/26/2021 11:15:00 PM 3.49 38.282 0.088 7.3 4.05 12.63
12/26/2021 11:30:00 PM 3.49 38.282 0.088 7.31 4.05 12.63
12/26/2021 11:45:00 PM 3.48 38.264 0.088 7.3 4.13 12.63
12/27/2021 12:00:00 AM 3.47 38.246 0.088 7.3 4.21 12.63
12/27/2021 12:15:00 AM 3.47 38.246 0.088 7.3 4.15 12.63
12/27/2021 12:30:00 AM 3.45 38.21 0.088 7.28 4.17 12.64
12/27/2021 12:45:00 AM 3.44 38.192 0.088 7.26 4.15 12.64
12/27/2021 1:00:00 AM 3.43 38.174 0.088 7.31 4.09 12.65
12/27/2021 1:15:00 AM 3.43 38.174 0.088 7.3 4.07 12.65
12/27/2021 1:30:00 AM 3.42 38.156 0.088 7.3 4.08 12.65
12/27/2021 1:45:00 AM 3.4 38.12 0.088 7.3 4.07 12.65
12/27/2021 2:00:00 AM 3.39 38.102 0.088 7.3 4.06 12.65
12/27/2021 2:15:00 AM 3.37 38.066 0.088 7.3 4.08 12.65
12/27/2021 2:30:00 AM 3.35 38.03 0.088 7.29 4.06 12.66
12/27/2021 2:45:00 AM 3.34 38.012 0.088 7.28 4.09 12.66
12/27/2021 3:00:00 AM 3.32 37.976 0.088 7.29 4.04 12.67
12/27/2021 3:15:00 AM 3.3 37.94 0.088 7.29 4.04 12.67
12/27/2021 3:30:00 AM 3.27 37.886 0.088 7.29 4.01 12.68
12/27/2021 3:45:00 AM 3.26 37.868 0.087 7.3 4.03 12.68
12/27/2021 4:00:00 AM 3.25 37.85 0.087 7.28 4.03 12.68
12/27/2021 4:15:00 AM 3.23 37.814 0.087 7.27 4.01 12.69
12/27/2021 4:30:00 AM 3.22 37.796 0.087 7.29 4.06 12.7
12/27/2021 4:45:00 AM 3.21 37.778 0.087 7.29 3.99 12.7
12/27/2021 5:00:00 AM 3.2 37.76 0.087 7.28 4.03 12.7
12/27/2021 5:15:00 AM 3.19 37.742 0.087 7.29 4.01 12.71
12/27/2021 5:30:00 AM 3.18 37.724 0.087 7.29 4 12.71
12/27/2021 5:45:00 AM 3.17 37.706 0.087 7.27 4.01 12.71
12/27/2021 6:00:00 AM 3.17 37.706 0.087 7.29 4.01 12.71
12/27/2021 6:15:00 AM 3.16 37.688 0.087 7.28 4 12.7
12/27/2021 6:30:00 AM 3.15 37.67 0.087 7.26 4.02 12.71
12/27/2021 6:45:00 AM 3.15 37.67 0.087 7.29 4.02 12.71
12/27/2021 7:00:00 AM 3.15 37.67 0.087 7.29 4.02 12.71
12/27/2021 7:15:00 AM 3.15 37.67 0.087 7.27 4.01 12.71
12/27/2021 7:30:00 AM 3.14 37.652 0.087 7.28 4.01 12.71
12/27/2021 7:45:00 AM 3.15 37.67 0.087 7.3 4.05 12.72
12/27/2021 8:00:00 AM 3.15 37.67 0.087 7.29 3.99 12.73
12/27/2021 8:15:00 AM 3.15 37.67 0.087 7.29 3.97 12.74
12/27/2021 8:30:00 AM 3.15 37.67 0.087 7.3 3.99 12.74
12/27/2021 8:45:00 AM 3.15 37.67 0.087 7.3 4.01 12.74
12/27/2021 9:00:00 AM 3.13 37.634 0.087 7.3 3.99 12.76
12/27/2021 9:15:00 AM 3.07 37.526 0.087 7.31 3.98 12.78
12/27/2021 9:30:00 AM 2.98 37.364 0.087 7.29 4.05 12.83
12/27/2021 9:45:00 AM 2.96 37.328 0.087 7.33 4.02 12.9
12/27/2021 10:00:00 AM 2.99 37.382 0.087 7.34 4.03 12.97
12/27/2021 10:15:00 AM 3.02 37.436 0.087 7.29 3.98 13.03
12/27/2021 10:30:00 AM 3.05 37.49 0.086 7.38 3.98 13.06
12/27/2021 10:45:00 AM 3.08 37.544 0.086 7.39 3.93 13.08
12/27/2021 11:00:00 AM 3.12 37.616 0.086 7.4 4.07 13.1
12/27/2021 11:15:00 AM 3.17 37.706 0.086 7.42 4.03 13.1
12/27/2021 11:30:00 AM 3.21 37.778 0.086 7.42 3.96 13.09
12/27/2021 11:45:00 AM 3.24 37.832 0.086 7.43 3.95 13.08
12/27/2021 12:00:00 PM 3.24 37.832 0.086 7.42 3.97 13.08
12/27/2021 12:15:00 PM 3.26 37.868 0.086 7.45 3.94 13.06
12/27/2021 12:30:00 PM 3.27 37.886 0.086 7.43 3.96 13
12/27/2021 12:45:00 PM 3.27 37.886 0.086 7.43 3.94 12.96
12/27/2021 1:00:00 PM 3.28 37.904 0.086 7.42 3.96 12.95
12/27/2021 1:15:00 PM 3.29 37.922 0.086 7.42 3.93 12.94
12/27/2021 1:30:00 PM 3.3 37.94 0.086 7.4 3.93 12.93
12/27/2021 1:45:00 PM 3.31 37.958 0.086 7.43 3.94 12.92
12/27/2021 2:00:00 PM 3.31 37.958 0.086 7.41 3.93 12.9
12/27/2021 2:15:00 PM 3.31 37.958 0.086 7.41 3.96 12.89
12/27/2021 2:30:00 PM 3.31 37.958 0.086 7.38 3.98 12.86
12/27/2021 2:45:00 PM 3.31 37.958 0.086 7.41 3.93 12.85
12/27/2021 3:00:00 PM 3.31 37.958 0.086 7.39 4 12.84
12/27/2021 3:15:00 PM 3.31 37.958 0.086 7.4 3.96 12.81
12/27/2021 3:30:00 PM 3.31 37.958 0.086 7.38 4.02 12.78
12/27/2021 3:45:00 PM 3.3 37.94 0.086 7.38 4 12.75
12/27/2021 4:00:00 PM 3.3 37.94 0.086 7.37 3.95 12.72
12/27/2021 4:15:00 PM 3.29 37.922 0.086 7.37 3.99 12.7
12/27/2021 4:30:00 PM 3.29 37.922 0.086 7.35 4.01 12.68
12/27/2021 4:45:00 PM 3.29 37.922 0.086 7.35 3.98 12.66
12/27/2021 5:00:00 PM 3.28 37.904 0.086 7.33 3.97 12.63
12/27/2021 5:15:00 PM 3.27 37.886 0.086 7.34 3.96 12.62
12/27/2021 5:30:00 PM 3.27 37.886 0.086 7.33 3.96 12.6
12/27/2021 5:45:00 PM 3.27 37.886 0.086 7.33 3.95 12.6
12/27/2021 6:00:00 PM 3.26 37.868 0.086 7.33 4.02 12.59
12/27/2021 6:15:00 PM 3.25 37.85 0.086 7.32 3.97 12.59
12/27/2021 6:30:00 PM 3.25 37.85 0.086 7.26 4.01 12.59
12/27/2021 6:45:00 PM 3.25 37.85 0.086 7.32 3.96 12.58
12/27/2021 7:00:00 PM 3.25 37.85 0.087 7.3 4.02 12.58
12/27/2021 7:15:00 PM 3.25 37.85 0.087 7.31 4.02 12.58
12/27/2021 7:30:00 PM 3.25 37.85 0.087 7.31 4.05 12.57
12/27/2021 7:45:00 PM 3.25 37.85 0.087 7.29 4.06 12.57
12/27/2021 8:00:00 PM 3.25 37.85 0.087 7.31 4.05 12.57
12/27/2021 8:15:00 PM 3.25 37.85 0.087 7.3 4.04 12.57
12/27/2021 8:30:00 PM 3.25 37.85 0.087 7.31 4.07 12.56
12/27/2021 8:45:00 PM 3.26 37.868 0.087 7.28 4.02 12.56
12/27/2021 9:00:00 PM 3.26 37.868 0.087 7.31 4.07 12.56
12/27/2021 9:15:00 PM 3.26 37.868 0.087 7.27 4.12 12.56
12/27/2021 9:30:00 PM 3.27 37.886 0.087 7.3 4.07 12.55
12/27/2021 9:45:00 PM 3.27 37.886 0.087 7.31 4.1 12.55
12/27/2021 10:00:00 PM 3.27 37.886 0.087 7.31 4.07 12.55
12/27/2021 10:15:00 PM 3.28 37.904 0.087 7.31 4.05 12.55
12/27/2021 10:30:00 PM 3.28 37.904 0.087 7.31 4.11 12.55
12/27/2021 10:45:00 PM 3.29 37.922 0.087 7.3 4.04 12.55
12/27/2021 11:00:00 PM 3.29 37.922 0.087 7.31 4.06 12.55
12/27/2021 11:15:00 PM 3.29 37.922 0.087 7.31 4.01 12.55
12/27/2021 11:30:00 PM 3.3 37.94 0.087 7.31 4.01 12.54
12/27/2021 11:45:00 PM 3.31 37.958 0.087 7.31 4.05 12.54
12/28/2021 12:00:00 AM 3.31 37.958 0.087 7.29 4.06 12.53
12/28/2021 12:15:00 AM 3.32 37.976 0.087 7.31 4.1 12.54
12/28/2021 12:30:00 AM 3.32 37.976 0.087 7.31 4.11 12.54
12/28/2021 12:45:00 AM 3.33 37.994 0.087 7.28 4.08 12.53
12/28/2021 1:00:00 AM 3.34 38.012 0.087 7.3 4.1 12.53
12/28/2021 1:15:00 AM 3.35 38.03 0.087 7.31 4.08 12.53
12/28/2021 1:30:00 AM 3.35 38.03 0.087 7.31 4.07 12.53
12/28/2021 1:45:00 AM 3.36 38.048 0.087 7.31 3.99 12.52
12/28/2021 2:00:00 AM 3.37 38.066 0.087 7.3 4.01 12.53
12/28/2021 2:15:00 AM 3.37 38.066 0.087 7.3 3.98 12.53
12/28/2021 2:30:00 AM 3.38 38.084 0.087 7.31 3.99 12.52
12/28/2021 2:45:00 AM 3.39 38.102 0.087 7.3 4 12.52
12/28/2021 3:00:00 AM 3.4 38.12 0.087 7.31 3.94 12.52
12/28/2021 3:15:00 AM 3.38 38.084 0.087 7.29 4.01 12.52
12/28/2021 3:30:00 AM 3.34 38.012 0.087 7.31 4.03 12.53
12/28/2021 3:45:00 AM 3.31 37.958 0.087 7.31 4.07 12.54
12/28/2021 4:00:00 AM 3.28 37.904 0.087 7.29 3.98 12.55
12/28/2021 4:15:00 AM 3.24 37.832 0.087 7.31 4 12.56
12/28/2021 4:30:00 AM 3.2 37.76 0.087 7.29 3.98 12.58
12/28/2021 4:45:00 AM 3.17 37.706 0.087 7.29 3.95 12.58
12/28/2021 5:00:00 AM 3.14 37.652 0.087 7.28 4.01 12.6
12/28/2021 5:15:00 AM 3.11 37.598 0.087 7.3 4.03 12.61
12/28/2021 5:30:00 AM 3.07 37.526 0.087 7.3 3.97 12.62
12/28/2021 5:45:00 AM 3.04 37.472 0.087 7.3 3.97 12.63
12/28/2021 6:00:00 AM 3 37.4 0.087 7.28 4.04 12.65
12/28/2021 6:15:00 AM 2.97 37.346 0.087 7.3 3.98 12.66
12/28/2021 6:30:00 AM 2.93 37.274 0.087 7.28 4.03 12.67
12/28/2021 6:45:00 AM 2.89 37.202 0.088 7.3 3.99 12.69
12/28/2021 7:00:00 AM 2.85 37.13 0.088 7.29 4.01 12.7
12/28/2021 7:15:00 AM 2.82 37.076 0.088 7.3 3.99 12.72
12/28/2021 7:30:00 AM 2.78 37.004 0.088 7.29 4.01 12.73
12/28/2021 7:45:00 AM 2.75 36.95 0.088 7.29 4 12.75
12/28/2021 8:00:00 AM 2.73 36.914 0.088 7.3 4.01 12.8
12/28/2021 8:15:00 AM 2.7 36.86 0.088 7.3 3.95 12.84
12/28/2021 8:30:00 AM 2.68 36.824 0.087 7.3 3.99 12.89
12/28/2021 8:45:00 AM 2.66 36.788 0.087 7.33 4.04 12.93
12/28/2021 9:00:00 AM 2.66 36.788 0.087 7.32 4.07 12.98
12/28/2021 9:15:00 AM 2.66 36.788 0.087 7.3 4 13.03
12/28/2021 9:30:00 AM 2.67 36.806 0.087 7.32 4.06 13.06
12/28/2021 9:45:00 AM 2.71 36.878 0.087 7.38 3.95 13.09
12/28/2021 10:00:00 AM 2.76 36.968 0.087 7.39 3.96 13.12
12/28/2021 10:15:00 AM 2.88 37.184 0.087 7.37 3.96 13.15
12/28/2021 10:30:00 AM 3.02 37.436 0.087 7.41 3.97 13.15
12/28/2021 10:45:00 AM 3.17 37.706 0.087 7.45 3.97 13.12
12/28/2021 11:00:00 AM 3.3 37.94 0.087 7.44 3.93 13.09
12/28/2021 11:15:00 AM 3.42 38.156 0.087 7.47 3.93 13.06
12/28/2021 11:30:00 AM 3.54 38.372 0.086 7.48 3.93 13.04
12/28/2021 11:45:00 AM 3.65 38.57 0.086 7.48 3.95 13
12/28/2021 12:00:00 PM 3.74 38.732 0.086 7.5 3.91 12.98
12/28/2021 12:15:00 PM 3.81 38.858 0.086 7.51 3.91 12.95
12/28/2021 12:30:00 PM 3.85 38.93 0.086 7.52 3.92 12.91
12/28/2021 12:45:00 PM 3.88 38.984 0.086 7.5 3.93 12.87
12/28/2021 1:00:00 PM 3.9 39.02 0.086 7.49 3.9 12.84
12/28/2021 1:15:00 PM 3.92 39.056 0.086 7.48 3.87 12.81
12/28/2021 1:30:00 PM 3.93 39.074 0.086 7.49 3.92 12.77
12/28/2021 1:45:00 PM 3.93 39.074 0.086 7.42 3.93 12.74
12/28/2021 2:00:00 PM 3.94 39.092 0.086 7.48 3.9 12.73
12/28/2021 2:15:00 PM 3.96 39.128 0.086 7.47 3.95 12.74
12/28/2021 2:30:00 PM 3.98 39.164 0.086 7.47 3.96 12.72
12/28/2021 2:45:00 PM 3.98 39.164 0.086 7.47 3.9 12.7
12/28/2021 3:00:00 PM 3.97 39.146 0.086 7.46 3.88 12.66
12/28/2021 3:15:00 PM 3.96 39.128 0.086 7.44 3.96 12.61
12/28/2021 3:30:00 PM 3.95 39.11 0.086 7.43 3.96 12.59
12/28/2021 3:45:00 PM 3.93 39.074 0.086 7.41 3.92 12.56
12/28/2021 4:00:00 PM 3.92 39.056 0.086 7.41 3.94 12.55
12/28/2021 4:15:00 PM 3.92 39.056 0.086 7.4 3.93 12.53
12/28/2021 4:30:00 PM 3.9 39.02 0.086 7.39 3.93 12.5
12/28/2021 4:45:00 PM 3.89 39.002 0.086 7.37 3.93 12.48
12/28/2021 5:00:00 PM 3.88 38.984 0.086 7.36 4.01 12.46
12/28/2021 5:15:00 PM 3.87 38.966 0.086 7.36 3.94 12.44
12/28/2021 5:30:00 PM 3.87 38.966 0.086 7.35 3.97 12.43
12/28/2021 5:45:00 PM 3.85 38.93 0.086 7.31 3.93 12.43
12/28/2021 6:00:00 PM 3.8 38.84 0.086 7.35 3.97 12.42
12/28/2021 6:15:00 PM 3.74 38.732 0.086 7.35 3.99 12.43
12/28/2021 6:30:00 PM 3.61 38.498 0.086 7.34 4.01 12.44
12/28/2021 6:45:00 PM 3.44 38.192 0.086 7.33 4 12.47
12/28/2021 7:00:00 PM 3.29 37.922 0.086 7.31 4 12.5
12/28/2021 7:15:00 PM 3.15 37.67 0.086 7.3 3.97 12.54
12/28/2021 7:30:00 PM 3.03 37.454 0.086 7.25 4.09 12.59
12/28/2021 7:45:00 PM 2.93 37.274 0.086 7.26 4.02 12.63
12/28/2021 8:00:00 PM 2.79 37.022 0.086 7.28 4.01 12.66
12/28/2021 8:15:00 PM 2.67 36.806 0.086 7.28 4.06 12.7
12/28/2021 8:30:00 PM 2.53 36.554 0.086 7.24 4.08 12.74
12/28/2021 8:45:00 PM 2.5 36.5 0.086 7.27 4.08 12.77
12/28/2021 9:00:00 PM 2.52 36.536 0.086 7.27 4.07 12.8
12/28/2021 9:15:00 PM 2.57 36.626 0.086 7.28 4.1 12.8
12/28/2021 9:30:00 PM 2.6 36.68 0.086 7.29 4.06 12.81
12/28/2021 9:45:00 PM 2.63 36.734 0.086 7.3 4.05 12.81
12/28/2021 10:00:00 PM 2.67 36.806 0.086 7.31 4.12 12.79
12/28/2021 10:15:00 PM 2.7 36.86 0.086 7.3 4.16 12.79
12/28/2021 10:30:00 PM 2.73 36.914 0.087 7.3 4.12 12.77
12/28/2021 10:45:00 PM 2.75 36.95 0.087 7.28 4.07 12.77
12/28/2021 11:00:00 PM 2.77 36.986 0.087 7.32 4.04 12.76
12/28/2021 11:15:00 PM 2.78 37.004 0.087 7.27 4.09 12.76
12/28/2021 11:30:00 PM 2.8 37.04 0.087 7.31 4.02 12.75
12/28/2021 11:45:00 PM 2.81 37.058 0.087 7.32 4.04 12.74
12/29/2021 12:00:00 AM 2.83 37.094 0.087 7.32 4.03 12.73
12/29/2021 12:15:00 AM 2.84 37.112 0.087 7.32 4.07 12.73
12/29/2021 12:30:00 AM 2.85 37.13 0.087 7.32 4.07 12.72
12/29/2021 12:45:00 AM 2.87 37.166 0.087 7.3 4.09 12.71
12/29/2021 1:00:00 AM 2.88 37.184 0.087 7.31 4.05 12.7
12/29/2021 1:15:00 AM 2.89 37.202 0.087 7.31 4.08 12.69
12/29/2021 1:30:00 AM 2.9 37.22 0.087 7.26 4.07 12.69
12/29/2021 1:45:00 AM 2.92 37.256 0.087 7.3 4.15 12.69
12/29/2021 2:00:00 AM 2.93 37.274 0.088 7.32 4.08 12.68
12/29/2021 2:15:00 AM 2.94 37.292 0.088 7.32 4.13 12.68
12/29/2021 2:30:00 AM 2.95 37.31 0.088 7.32 4.07 12.67
12/29/2021 2:45:00 AM 2.97 37.346 0.088 7.32 4.09 12.66
12/29/2021 3:00:00 AM 2.98 37.364 0.088 7.33 4.07 12.66
12/29/2021 3:15:00 AM 2.99 37.382 0.089 7.31 4.07 12.66
12/29/2021 3:30:00 AM 3 37.4 0.089 7.33 4.07 12.66
12/29/2021 3:45:00 AM 3.01 37.418 0.089 7.33 4.07 12.65
12/29/2021 4:00:00 AM 3.02 37.436 0.09 7.31 4.07 12.65
12/29/2021 4:15:00 AM 3.03 37.454 0.09 7.32 4.13 12.65
12/29/2021 4:30:00 AM 3.05 37.49 0.09 7.32 4.06 12.64
12/29/2021 4:45:00 AM 3.06 37.508 0.091 7.33 4.09 12.64
12/29/2021 5:00:00 AM 3.07 37.526 0.091 7.33 4.13 12.63
12/29/2021 5:15:00 AM 3.08 37.544 0.092 7.31 4.2 12.63
12/29/2021 5:30:00 AM 3.09 37.562 0.092 7.28 4.08 12.62
12/29/2021 5:45:00 AM 3.1 37.58 0.093 7.32 4.18 12.62
12/29/2021 6:00:00 AM 3.11 37.598 0.093 7.31 4.09 12.61
12/29/2021 6:15:00 AM 3.12 37.616 0.094 7.33 4.1 12.61
12/29/2021 6:30:00 AM 3.13 37.634 0.094 7.33 4.15 12.61
12/29/2021 6:45:00 AM 3.14 37.652 0.095 7.33 4.12 12.61
12/29/2021 7:00:00 AM 3.15 37.67 0.095 7.32 4.16 12.61
12/29/2021 7:15:00 AM 3.16 37.688 0.095 7.28 4.06 12.61
12/29/2021 7:30:00 AM 3.17 37.706 0.095 7.33 4.21 12.61
12/29/2021 7:45:00 AM 3.18 37.724 0.095 7.32 4.08 12.61
12/29/2021 8:00:00 AM 3.19 37.742 0.096 7.33 4.15 12.62
12/29/2021 8:15:00 AM 3.2 37.76 0.096 7.33 4.1 12.63
12/29/2021 8:30:00 AM 3.21 37.778 0.096 7.32 4.13 12.65
12/29/2021 8:45:00 AM 3.22 37.796 0.096 7.35 4.09 12.67
12/29/2021 9:00:00 AM 3.24 37.832 0.096 7.35 4.09 12.7
12/29/2021 9:15:00 AM 3.26 37.868 0.096 7.36 4.12 12.74
12/29/2021 9:30:00 AM 3.29 37.922 0.096 7.31 4.18 12.78
12/29/2021 9:45:00 AM 3.33 37.994 0.096 7.4 4.11 12.83
12/29/2021 10:00:00 AM 3.36 38.048 0.096 7.4 4.07 12.86
12/29/2021 10:15:00 AM 3.41 38.138 0.096 7.41 4.04 12.87
12/29/2021 10:30:00 AM 3.45 38.21 0.095 7.4 4.1 12.89
12/29/2021 10:45:00 AM 3.49 38.282 0.095 7.43 4.09 12.9
12/29/2021 11:00:00 AM 3.54 38.372 0.095 7.45 4.05 12.9
12/29/2021 11:15:00 AM 3.59 38.462 0.095 7.42 4.03 12.9
12/29/2021 11:30:00 AM 3.64 38.552 0.095 7.47 4.14 12.9
12/29/2021 11:45:00 AM 3.7 38.66 0.095 7.47 4.43 12.9
12/29/2021 12:00:00 PM 3.75 38.75 0.094 7.47 4.29 12.88
12/29/2021 12:15:00 PM 3.79 38.822 0.094 7.49 4.18 12.86
12/29/2021 12:30:00 PM 3.83 38.894 0.094 7.49 4.19 12.84
12/29/2021 12:45:00 PM 3.87 38.966 0.094 7.48 4.16 12.84
12/29/2021 1:00:00 PM 3.92 39.056 0.094 7.5 4.08 12.83
12/29/2021 1:15:00 PM 3.97 39.146 0.094 7.51 4.09 12.81
12/29/2021 1:30:00 PM 4.03 39.254 0.094 7.51 4.12 12.8
12/29/2021 1:45:00 PM 4.07 39.326 0.093 7.51 4.13 12.78
12/29/2021 2:00:00 PM 4.1 39.38 0.093 7.51 4.08 12.74
12/29/2021 2:15:00 PM 4.13 39.434 0.094 7.46 4.28 12.73
12/29/2021 2:30:00 PM 4.18 39.524 0.094 7.51 6.22 12.73
12/29/2021 2:45:00 PM 4.22 39.596 0.094 7.52 5.74 12.7
12/29/2021 3:00:00 PM 4.24 39.632 0.094 7.51 4.83 12.66
12/29/2021 3:15:00 PM 4.25 39.65 0.094 7.5 4.5 12.64
12/29/2021 3:30:00 PM 4.27 39.686 0.094 7.46 4.32 12.62
12/29/2021 3:45:00 PM 4.27 39.686 0.095 7.49 4.25 12.6
12/29/2021 4:00:00 PM 4.27 39.686 0.095 7.48 4.21 12.55
12/29/2021 4:15:00 PM 4.27 39.686 0.096 7.47 4.3 12.5
12/29/2021 4:30:00 PM 4.26 39.668 0.096 7.45 4.28 12.46
12/29/2021 4:45:00 PM 4.25 39.65 0.096 7.38 4.42 12.43
12/29/2021 5:00:00 PM 4.24 39.632 0.097 7.4 4.23 12.39
12/29/2021 5:15:00 PM 4.23 39.614 0.097 7.39 4.32 12.37
12/29/2021 5:30:00 PM 4.22 39.596 0.098 7.41 4.36 12.35
12/29/2021 5:45:00 PM 4.21 39.578 0.098 7.4 4.33 12.35
12/29/2021 6:00:00 PM 4.21 39.578 0.098 7.39 4.43 12.34
12/29/2021 6:15:00 PM 4.2 39.56 0.098 7.38 4.48 12.34
12/29/2021 6:30:00 PM 4.19 39.542 0.099 7.39 4.61 12.34
12/29/2021 6:45:00 PM 4.19 39.542 0.099 7.35 4.63 12.34
12/29/2021 7:00:00 PM 4.18 39.524 0.099 7.38 4.59 12.35
12/29/2021 7:15:00 PM 4.18 39.524 0.1 7.39 4.58 12.35
12/29/2021 7:30:00 PM 4.17 39.506 0.1 7.38 4.64 12.36
12/29/2021 7:45:00 PM 4.16 39.488 0.1 7.38 4.67 12.37
12/29/2021 8:00:00 PM 4.15 39.47 0.101 7.38 4.8 12.36
12/29/2021 8:15:00 PM 4.15 39.47 0.101 7.39 4.84 12.37
12/29/2021 8:30:00 PM 4.14 39.452 0.102 7.39 4.97 12.37
12/29/2021 8:45:00 PM 4.13 39.434 0.102 7.36 5.16 12.37
12/29/2021 9:00:00 PM 4.12 39.416 0.103 7.36 5.14 12.38
12/29/2021 9:15:00 PM 4.1 39.38 0.104 7.41 5.27 12.39
12/29/2021 9:30:00 PM 4.09 39.362 0.104 7.41 5.28 12.4
12/29/2021 9:45:00 PM 4.08 39.344 0.105 7.4 5.36 12.4
12/29/2021 10:00:00 PM 4.07 39.326 0.105 7.41 5.32 12.4
12/29/2021 10:15:00 PM 4.05 39.29 0.106 7.41 5.49 12.41
12/29/2021 10:30:00 PM 4.04 39.272 0.106 7.42 5.23 12.41
12/29/2021 10:45:00 PM 4.03 39.254 0.107 7.38 5.44 12.42
12/29/2021 11:00:00 PM 4.01 39.218 0.107 7.42 5.41 12.42
12/29/2021 11:15:00 PM 4 39.2 0.107 7.42 5.57 12.42
12/29/2021 11:30:00 PM 3.99 39.182 0.107 7.42 5.49 12.43
12/29/2021 11:45:00 PM 3.98 39.164 0.107 7.42 5.75 12.43
12/30/2021 12:00:00 AM 3.97 39.146 0.107 7.42 5.69 12.43
12/30/2021 12:15:00 AM 3.97 39.146 0.107 7.42 5.75 12.43
12/30/2021 12:30:00 AM 3.96 39.128 0.107 7.41 5.78 12.43
12/30/2021 12:45:00 AM 3.96 39.128 0.107 7.41 5.86 12.43
12/30/2021 1:00:00 AM 3.96 39.128 0.107 7.42 5.79 12.43
12/30/2021 1:15:00 AM 3.96 39.128 0.107 7.42 5.78 12.43
12/30/2021 1:30:00 AM 3.96 39.128 0.107 7.42 5.76 12.42
12/30/2021 1:45:00 AM 3.96 39.128 0.107 7.42 5.89 12.43
12/30/2021 2:00:00 AM 3.96 39.128 0.106 7.42 5.62 12.42
12/30/2021 2:15:00 AM 3.96 39.128 0.106 7.38 5.55 12.42
12/30/2021 2:30:00 AM 3.96 39.128 0.106 7.42 5.63 12.42
12/30/2021 2:45:00 AM 3.96 39.128 0.106 7.41 5.58 12.42
12/30/2021 3:00:00 AM 3.96 39.128 0.105 7.38 5.59 12.42
12/30/2021 3:15:00 AM 3.96 39.128 0.105 7.42 5.6 12.42
12/30/2021 3:30:00 AM 3.96 39.128 0.105 7.41 5.58 12.41
12/30/2021 3:45:00 AM 3.96 39.128 0.104 7.41 5.55 12.41
12/30/2021 4:00:00 AM 3.96 39.128 0.104 7.4 5.42 12.41
12/30/2021 4:15:00 AM 3.96 39.128 0.104 7.41 5.42 12.41
12/30/2021 4:30:00 AM 3.96 39.128 0.103 7.42 5.42 12.42
12/30/2021 4:45:00 AM 3.96 39.128 0.103 7.41 5.36 12.42
12/30/2021 5:00:00 AM 3.96 39.128 0.103 7.41 5.4 12.41
12/30/2021 5:15:00 AM 3.97 39.146 0.102 7.41 5.32 12.41
12/30/2021 5:30:00 AM 3.97 39.146 0.102 7.41 5.29 12.41
12/30/2021 5:45:00 AM 3.97 39.146 0.102 7.41 5.28 12.41
12/30/2021 6:00:00 AM 3.97 39.146 0.102 7.4 5.36 12.42
12/30/2021 6:15:00 AM 3.98 39.164 0.101 7.41 5.25 12.42
12/30/2021 6:30:00 AM 3.98 39.164 0.101 7.38 5.12 12.4
12/30/2021 6:45:00 AM 3.98 39.164 0.101 7.41 5.18 12.41
12/30/2021 7:00:00 AM 3.99 39.182 0.101 7.41 5.15 12.41
12/30/2021 7:15:00 AM 3.99 39.182 0.101 7.41 5.02 12.41
12/30/2021 7:30:00 AM 4 39.2 0.1 7.4 4.97 12.41
12/30/2021 7:45:00 AM 4 39.2 0.1 7.4 4.99 12.41
12/30/2021 8:00:00 AM 4 39.2 0.1 7.41 5 12.41
12/30/2021 8:15:00 AM 4.01 39.218 0.1 7.41 4.93 12.42
12/30/2021 8:30:00 AM 4.02 39.236 0.1 7.4 4.92 12.44
12/30/2021 8:45:00 AM 4.03 39.254 0.1 7.41 4.88 12.46
12/30/2021 9:00:00 AM 4.04 39.272 0.1 7.42 4.81 12.48
12/30/2021 9:15:00 AM 4.06 39.308 0.1 7.43 4.75 12.5
12/30/2021 9:30:00 AM 4.08 39.344 0.099 7.44 4.73 12.53
12/30/2021 9:45:00 AM 4.1 39.38 0.099 7.44 4.86 12.55
12/30/2021 10:00:00 AM 4.12 39.416 0.099 7.46 4.73 12.57
12/30/2021 10:15:00 AM 4.16 39.488 0.099 7.48 4.73 12.59
12/30/2021 10:30:00 AM 4.2 39.56 0.099 7.48 4.69 12.62
12/30/2021 10:45:00 AM 4.24 39.632 0.099 7.5 4.67 12.64
12/30/2021 11:00:00 AM 4.29 39.722 0.099 7.51 4.63 12.64
12/30/2021 11:15:00 AM 4.32 39.776 0.099 7.52 4.69 12.64
12/30/2021 11:30:00 AM 4.36 39.848 0.098 7.53 4.64 12.64
12/30/2021 11:45:00 AM 4.41 39.938 0.098 7.49 4.53 12.64
12/30/2021 12:00:00 PM 4.45 40.01 0.098 7.54 4.6 12.62
12/30/2021 12:15:00 PM 4.5 40.1 0.098 7.54 4.57 12.61
12/30/2021 12:30:00 PM 4.53 40.154 0.098 7.55 4.6 12.58
12/30/2021 12:45:00 PM 4.56 40.208 0.098 7.55 4.56 12.56
12/30/2021 1:00:00 PM 4.6 40.28 0.098 7.55 4.47 12.56
12/30/2021 1:15:00 PM 4.63 40.334 0.098 7.55 4.53 12.54
12/30/2021 1:30:00 PM 4.66 40.388 0.098 7.54 4.51 12.52
12/30/2021 1:45:00 PM 4.68 40.424 0.098 7.51 4.49 12.49
12/30/2021 2:00:00 PM 4.71 40.478 0.097 7.55 4.56 12.49
12/30/2021 2:15:00 PM 4.73 40.514 0.097 7.54 4.49 12.47
12/30/2021 2:30:00 PM 4.76 40.568 0.097 7.53 4.53 12.45
12/30/2021 2:45:00 PM 4.78 40.604 0.097 7.55 4.54 12.43
12/30/2021 3:00:00 PM 4.78 40.604 0.097 7.54 4.48 12.38
12/30/2021 3:15:00 PM 4.79 40.622 0.097 7.53 4.48 12.35
12/30/2021 3:30:00 PM 4.8 40.64 0.097 7.52 4.46 12.35
12/30/2021 3:45:00 PM 4.81 40.658 0.097 7.52 4.47 12.32
12/30/2021 4:00:00 PM 4.82 40.676 0.097 7.5 4.51 12.29
12/30/2021 4:15:00 PM 4.82 40.676 0.097 7.49 4.47 12.27
12/30/2021 4:30:00 PM 4.83 40.694 0.097 7.48 4.44 12.24
12/30/2021 4:45:00 PM 4.83 40.694 0.097 7.46 4.49 12.22
12/30/2021 5:00:00 PM 4.82 40.676 0.097 7.47 4.51 12.19
12/30/2021 5:15:00 PM 4.82 40.676 0.097 7.45 4.46 12.17
12/30/2021 5:30:00 PM 4.82 40.676 0.097 7.44 4.48 12.16
12/30/2021 5:45:00 PM 4.82 40.676 0.097 7.37 4.53 12.15
12/30/2021 6:00:00 PM 4.82 40.676 0.097 7.44 4.55 12.14
12/30/2021 6:15:00 PM 4.81 40.658 0.097 7.42 4.87 12.14
12/30/2021 6:30:00 PM 4.81 40.658 0.097 7.37 4.89 12.13
12/30/2021 6:45:00 PM 4.81 40.658 0.097 7.42 4.98 12.13
12/30/2021 7:00:00 PM 4.81 40.658 0.097 7.4 4.95 12.13
12/30/2021 7:15:00 PM 4.81 40.658 0.097 7.42 4.92 12.13
12/30/2021 7:30:00 PM 4.8 40.64 0.097 7.39 4.93 12.14
12/30/2021 7:45:00 PM 4.8 40.64 0.097 7.39 5.01 12.14
12/30/2021 8:00:00 PM 4.79 40.622 0.097 7.41 4.95 12.14
12/30/2021 8:15:00 PM 4.79 40.622 0.097 7.41 5.11 12.14
12/30/2021 8:30:00 PM 4.78 40.604 0.097 7.36 4.99 12.14
12/30/2021 8:45:00 PM 4.78 40.604 0.097 7.41 4.99 12.14
12/30/2021 9:00:00 PM 4.78 40.604 0.097 7.4 4.93 12.14
12/30/2021 9:15:00 PM 4.78 40.604 0.097 7.4 5 12.14
12/30/2021 9:30:00 PM 4.78 40.604 0.097 7.41 4.85 12.14
12/30/2021 9:45:00 PM 4.77 40.586 0.097 7.41 4.95 12.14
12/30/2021 10:00:00 PM 4.77 40.586 0.097 7.41 4.9 12.14
12/30/2021 10:15:00 PM 4.77 40.586 0.097 7.4 4.89 12.14
12/30/2021 10:30:00 PM 4.77 40.586 0.097 7.37 4.87 12.15
12/30/2021 10:45:00 PM 4.76 40.568 0.097 7.4 4.97 12.14
12/30/2021 11:00:00 PM 4.76 40.568 0.097 7.4 5.02 12.15
12/30/2021 11:15:00 PM 4.75 40.55 0.097 7.41 4.91 12.15
12/30/2021 11:30:00 PM 4.75 40.55 0.097 7.41 4.93 12.15
12/30/2021 11:45:00 PM 4.74 40.532 0.097 7.42 4.91 12.15
12/31/2021 12:00:00 AM 4.74 40.532 0.097 7.42 4.86 12.16
12/31/2021 12:15:00 AM 4.73 40.514 0.097 7.41 4.88 12.15
12/31/2021 12:30:00 AM 4.72 40.496 0.097 7.42 4.9 12.16
12/31/2021 12:45:00 AM 4.72 40.496 0.097 7.37 4.8 12.16
12/31/2021 1:00:00 AM 4.71 40.478 0.097 7.4 4.8 12.17
12/31/2021 1:15:00 AM 4.71 40.478 0.097 7.41 4.86 12.17
12/31/2021 1:30:00 AM 4.7 40.46 0.097 7.41 4.84 12.17
12/31/2021 1:45:00 AM 4.7 40.46 0.096 7.42 4.78 12.16
12/31/2021 2:00:00 AM 4.7 40.46 0.096 7.42 4.78 12.17
12/31/2021 2:15:00 AM 4.7 40.46 0.096 7.42 4.83 12.16
12/31/2021 2:30:00 AM 4.69 40.442 0.096 7.41 4.77 12.17
12/31/2021 2:45:00 AM 4.69 40.442 0.096 7.41 4.77 12.17
12/31/2021 3:00:00 AM 4.69 40.442 0.096 7.42 4.77 12.17
12/31/2021 3:15:00 AM 4.69 40.442 0.096 7.38 4.75 12.16
12/31/2021 3:30:00 AM 4.68 40.424 0.096 7.41 4.75 12.17
12/31/2021 3:45:00 AM 4.68 40.424 0.096 7.4 4.74 12.17
12/31/2021 4:00:00 AM 4.68 40.424 0.096 7.4 4.7 12.17
12/31/2021 4:15:00 AM 4.68 40.424 0.096 7.42 4.82 12.16
12/31/2021 4:30:00 AM 4.68 40.424 0.096 7.4 4.78 12.17
12/31/2021 4:45:00 AM 4.68 40.424 0.096 7.41 4.83 12.17
12/31/2021 5:00:00 AM 4.68 40.424 0.096 7.41 4.75 12.16
12/31/2021 5:15:00 AM 4.68 40.424 0.096 7.41 4.73 12.16
12/31/2021 5:30:00 AM 4.68 40.424 0.096 7.41 4.76 12.16
12/31/2021 5:45:00 AM 4.67 40.406 0.096 7.41 4.72 12.16
12/31/2021 6:00:00 AM 4.67 40.406 0.096 7.4 4.73 12.16
12/31/2021 6:15:00 AM 4.67 40.406 0.096 7.41 4.71 12.16
12/31/2021 6:30:00 AM 4.67 40.406 0.096 7.41 4.77 12.16
12/31/2021 6:45:00 AM 4.68 40.424 0.096 7.35 4.7 12.16
12/31/2021 7:00:00 AM 4.68 40.424 0.096 7.4 4.73 12.16
12/31/2021 7:15:00 AM 4.67 40.406 0.096 7.37 4.67 12.16
12/31/2021 7:30:00 AM 4.67 40.406 0.096 7.41 4.72 12.16
12/31/2021 7:45:00 AM 4.67 40.406 0.096 7.4 4.68 12.17
12/31/2021 8:00:00 AM 4.66 40.388 0.096 7.41 4.71 12.18
12/31/2021 8:15:00 AM 4.67 40.406 0.096 7.42 4.72 12.2
12/31/2021 8:30:00 AM 4.68 40.424 0.096 7.42 4.73 12.22
12/31/2021 8:45:00 AM 4.69 40.442 0.095 7.43 4.68 12.25
12/31/2021 9:00:00 AM 4.71 40.478 0.095 7.39 4.69 12.29
12/31/2021 9:15:00 AM 4.72 40.496 0.095 7.46 4.63 12.31
12/31/2021 9:30:00 AM 4.76 40.568 0.095 7.43 4.61 12.36
12/31/2021 9:45:00 AM 4.8 40.64 0.095 7.49 4.59 12.4
12/31/2021 10:00:00 AM 4.86 40.748 0.095 7.51 4.64 12.43
12/31/2021 10:15:00 AM 4.92 40.856 0.095 7.52 4.62 12.45
12/31/2021 10:30:00 AM 4.97 40.946 0.095 7.52 4.56 12.45
12/31/2021 10:45:00 AM 5.02 41.036 0.095 7.54 4.63 12.45
12/31/2021 11:00:00 AM 5.06 41.108 0.095 7.55 4.63 12.44
12/31/2021 11:15:00 AM 5.09 41.162 0.094 7.56 4.6 12.42
12/31/2021 11:30:00 AM 5.13 41.234 0.094 7.55 4.6 12.39
12/31/2021 11:45:00 AM 5.18 41.324 0.094 7.57 4.56 12.36
12/31/2021 12:00:00 PM 5.19 41.342 0.094 7.51 4.58 12.35
12/31/2021 12:15:00 PM 5.26 41.468 0.094 7.57 4.57 12.35
12/31/2021 12:30:00 PM 5.39 41.702 0.094 7.59 4.59 12.35
12/31/2021 12:45:00 PM 5.53 41.954 0.094 7.6 4.64 12.32
12/31/2021 1:00:00 PM 5.65 42.17 0.094 7.61 4.6 12.29
12/31/2021 1:15:00 PM 5.75 42.35 0.093 7.61 4.62 12.27
12/31/2021 1:30:00 PM 5.86 42.548 0.093 7.63 4.7 12.23
12/31/2021 1:45:00 PM 5.94 42.692 0.093 7.63 4.69 12.2
12/31/2021 2:00:00 PM 5.98 42.764 0.093 7.64 4.71 12.17
12/31/2021 2:15:00 PM 6.01 42.818 0.093 7.64 4.66 12.16
12/31/2021 2:30:00 PM 6.04 42.872 0.093 7.65 4.75 12.15
12/31/2021 2:45:00 PM 6.08 42.944 0.093 7.65 4.68 12.14
12/31/2021 3:00:00 PM 6.1 42.98 0.093 7.63 4.69 12.11
12/31/2021 3:15:00 PM 6.11 42.998 0.093 7.64 4.72 12.08
12/31/2021 3:30:00 PM 6.11 42.998 0.093 7.62 4.67 12.03
12/31/2021 3:45:00 PM 6.09 42.962 0.093 7.6 4.64 12
12/31/2021 4:00:00 PM 6.08 42.944 0.093 7.58 4.7 11.97
12/31/2021 4:15:00 PM 6.07 42.926 0.093 7.58 4.64 11.92
12/31/2021 4:30:00 PM 6.05 42.89 0.093 7.56 4.67 11.89
12/31/2021 4:45:00 PM 6.02 42.836 0.093 7.54 4.68 11.85
12/31/2021 5:00:00 PM 5.98 42.764 0.093 7.46 4.69 11.82
12/31/2021 5:15:00 PM 5.94 42.692 0.093 7.51 4.69 11.8
12/31/2021 5:30:00 PM 5.9 42.62 0.093 7.49 4.66 11.8
12/31/2021 5:45:00 PM 5.85 42.53 0.093 7.48 4.71 11.79
12/31/2021 6:00:00 PM 5.81 42.458 0.093 7.47 4.71 11.8
12/31/2021 6:15:00 PM 5.78 42.404 0.093 7.47 4.72 11.81
12/31/2021 6:30:00 PM 5.74 42.332 0.093 7.42 4.71 11.81
12/31/2021 6:45:00 PM 5.7 42.26 0.093 7.47 4.7 11.83
12/31/2021 7:00:00 PM 5.66 42.188 0.093 7.46 4.71 11.83
12/31/2021 7:15:00 PM 5.63 42.134 0.093 7.45 4.74 11.85
12/31/2021 7:30:00 PM 5.59 42.062 0.093 7.45 4.66 11.85
12/31/2021 7:45:00 PM 5.55 41.99 0.094 7.39 4.71 11.86
12/31/2021 8:00:00 PM 5.52 41.936 0.094 7.44 4.65 11.87
12/31/2021 8:15:00 PM 5.47 41.846 0.094 7.43 4.68 11.88
12/31/2021 8:30:00 PM 5.42 41.756 0.094 7.44 4.68 11.89
12/31/2021 8:45:00 PM 5.38 41.684 0.094 7.44 4.69 11.9
12/31/2021 9:00:00 PM 5.34 41.612 0.094 7.43 4.71 11.91
12/31/2021 9:15:00 PM 5.3 41.54 0.094 7.43 4.73 11.93
12/31/2021 9:30:00 PM 5.28 41.504 0.094 7.42 4.7 11.94
12/31/2021 9:45:00 PM 5.26 41.468 0.094 7.43 4.7 11.94
12/31/2021 10:00:00 PM 5.25 41.45 0.094 7.35 4.31 11.95
12/31/2021 10:15:00 PM 5.25 41.45 0.094 7.4 4.87 11.94
12/31/2021 10:30:00 PM 5.24 41.432 0.094 7.44 4.86 11.95
12/31/2021 10:45:00 PM 5.23 41.414 0.094 7.39 4.77 11.95
12/31/2021 11:00:00 PM 5.23 41.414 0.094 7.44 4.75 11.96
12/31/2021 11:15:00 PM 5.22 41.396 0.094 7.44 4.72 11.96
12/31/2021 11:30:00 PM 5.21 41.378 0.094 7.44 4.77 11.96
12/31/2021 11:45:00 PM 5.21 41.378 0.094 7.45 4.72 11.96
1/1/2022 12:00:00 AM 5.2 41.36 0.094 7.42 4.71 11.95
1/1/2022 12:15:00 AM 5.2 41.36 0.094 7.43 4.73 11.95
1/1/2022 12:30:00 AM 5.2 41.36 0.094 7.44 4.75 11.96
1/1/2022 12:45:00 AM 5.2 41.36 0.094 7.4 4.74 11.96
1/1/2022 1:00:00 AM 5.2 41.36 0.094 7.45 4.7 11.96
1/1/2022 1:15:00 AM 5.21 41.378 0.094 7.45 4.7 11.94
1/1/2022 1:30:00 AM 5.21 41.378 0.094 7.44 4.77 11.94
1/1/2022 1:45:00 AM 5.22 41.396 0.094 7.44 4.68 11.95
1/1/2022 2:00:00 AM 5.22 41.396 0.094 7.43 4.65 11.95
1/1/2022 2:15:00 AM 5.23 41.414 0.094 7.45 4.65 11.94
1/1/2022 2:30:00 AM 5.24 41.432 0.094 7.44 4.69 11.94
1/1/2022 2:45:00 AM 5.25 41.45 0.094 7.43 4.64 11.93
1/1/2022 3:00:00 AM 5.26 41.468 0.094 7.44 4.7 11.93
1/1/2022 3:15:00 AM 5.28 41.504 0.094 7.44 4.68 11.91
1/1/2022 3:30:00 AM 5.29 41.522 0.094 7.44 4.66 11.92
1/1/2022 3:45:00 AM 5.3 41.54 0.094 7.45 4.73 11.91
1/1/2022 4:00:00 AM 5.32 41.576 0.094 7.43 4.67 11.9
1/1/2022 4:15:00 AM 5.33 41.594 0.094 7.44 4.65 11.89
1/1/2022 4:30:00 AM 5.34 41.612 0.094 7.45 4.7 11.9
1/1/2022 4:45:00 AM 5.36 41.648 0.093 7.44 4.7 11.89
1/1/2022 5:00:00 AM 5.37 41.666 0.093 7.44 4.67 11.89
1/1/2022 5:15:00 AM 5.39 41.702 0.093 7.44 4.64 11.87
1/1/2022 5:30:00 AM 5.4 41.72 0.093 7.44 4.73 11.87
1/1/2022 5:45:00 AM 5.4 41.72 0.093 7.45 4.68 11.87
1/1/2022 6:00:00 AM 5.4 41.72 0.093 7.44 4.73 11.87
1/1/2022 6:15:00 AM 5.4 41.72 0.093 7.44 4.7 11.87
1/1/2022 6:30:00 AM 5.4 41.72 0.093 7.44 4.7 11.86
1/1/2022 6:45:00 AM 5.4 41.72 0.093 7.44 4.67 11.87
1/1/2022 7:00:00 AM 5.4 41.72 0.093 7.44 4.61 11.86
1/1/2022 7:15:00 AM 5.4 41.72 0.093 7.44 4.71 11.85
1/1/2022 7:30:00 AM 5.41 41.738 0.093 7.44 4.68 11.87
1/1/2022 7:45:00 AM 5.41 41.738 0.093 7.43 4.61 11.87
1/1/2022 8:00:00 AM 5.41 41.738 0.093 7.44 4.68 11.87
1/1/2022 8:15:00 AM 5.42 41.756 0.093 7.44 4.59 11.88
1/1/2022 8:30:00 AM 5.43 41.774 0.093 7.42 4.64 11.89
1/1/2022 8:45:00 AM 5.45 41.81 0.093 7.45 4.62 11.92
1/1/2022 9:00:00 AM 5.46 41.828 0.093 7.46 4.59 11.94
1/1/2022 9:15:00 AM 5.48 41.864 0.093 7.44 4.64 11.96
1/1/2022 9:30:00 AM 5.51 41.918 0.093 7.47 4.64 11.98
1/1/2022 9:45:00 AM 5.54 41.972 0.093 7.5 4.55 12.01
1/1/2022 10:00:00 AM 5.57 42.026 0.093 7.46 4.52 12.03
1/1/2022 10:15:00 AM 5.59 42.062 0.093 7.52 4.56 12.03
1/1/2022 10:30:00 AM 5.62 42.116 0.093 7.51 4.58 12.03
1/1/2022 10:45:00 AM 5.66 42.188 0.093 7.52 4.59 12.05
1/1/2022 11:00:00 AM 5.71 42.278 0.093 7.54 4.57 12.07
1/1/2022 11:15:00 AM 5.74 42.332 0.093 7.49 4.55 12.06
1/1/2022 11:30:00 AM 5.78 42.404 0.092 7.56 4.52 12.06
1/1/2022 11:45:00 AM 5.83 42.494 0.092 7.56 4.57 12.07
1/1/2022 12:00:00 PM 5.88 42.584 0.092 7.58 4.55 12.05
1/1/2022 12:15:00 PM 5.92 42.656 0.092 7.55 4.55 12.05
1/1/2022 12:30:00 PM 5.98 42.764 0.092 7.6 4.57 12.05
1/1/2022 12:45:00 PM 6.06 42.908 0.092 7.59 4.67 12.06
1/1/2022 1:00:00 PM 6.15 43.07 0.092 7.63 4.48 12.06
1/1/2022 1:15:00 PM 6.22 43.196 0.092 7.58 4.56 12.02
1/1/2022 1:30:00 PM 6.26 43.268 0.092 7.63 4.53 11.98
1/1/2022 1:45:00 PM 6.3 43.34 0.092 7.65 4.54 11.96
1/1/2022 2:00:00 PM 6.33 43.394 0.092 7.63 4.52 11.93
1/1/2022 2:15:00 PM 6.35 43.43 0.092 7.64 4.56 11.89
1/1/2022 2:30:00 PM 6.38 43.484 0.092 7.64 4.54 11.87
1/1/2022 2:45:00 PM 6.39 43.502 0.092 7.63 4.54 11.83
1/1/2022 3:00:00 PM 6.39 43.502 0.092 7.61 4.6 11.79
1/1/2022 3:15:00 PM 6.4 43.52 0.091 7.6 4.6 11.77
1/1/2022 3:30:00 PM 6.4 43.52 0.091 7.59 4.54 11.74
1/1/2022 3:45:00 PM 6.4 43.52 0.091 7.56 4.57 11.72
1/1/2022 4:00:00 PM 6.39 43.502 0.091 7.57 4.59 11.7
1/1/2022 4:15:00 PM 6.38 43.484 0.091 7.55 4.59 11.68
1/1/2022 4:30:00 PM 6.36 43.448 0.091 7.52 4.62 11.65
1/1/2022 4:45:00 PM 6.35 43.43 0.091 7.52 4.54 11.64
1/1/2022 5:00:00 PM 6.34 43.412 0.091 7.49 4.71 11.61
1/1/2022 5:15:00 PM 6.33 43.394 0.091 7.51 4.61 11.6
1/1/2022 5:30:00 PM 6.32 43.376 0.091 7.5 4.61 11.59
1/1/2022 5:45:00 PM 6.32 43.376 0.091 7.47 4.65 11.58
1/1/2022 6:00:00 PM 6.31 43.358 0.091 7.48 4.69 11.58
1/1/2022 6:15:00 PM 6.3 43.34 0.091 7.48 4.7 11.57
1/1/2022 6:30:00 PM 6.3 43.34 0.091 7.46 4.67 11.58
1/1/2022 6:45:00 PM 6.29 43.322 0.091 7.47 4.71 11.58
1/1/2022 7:00:00 PM 6.28 43.304 0.091 7.45 4.67 11.57
1/1/2022 7:15:00 PM 6.28 43.304 0.091 7.45 4.81 11.57
1/1/2022 7:30:00 PM 6.28 43.304 0.091 7.45 4.71 11.57
1/1/2022 7:45:00 PM 6.28 43.304 0.091 7.44 4.8 11.57
1/1/2022 8:00:00 PM 6.27 43.286 0.091 7.45 4.75 11.57
1/1/2022 8:15:00 PM 6.27 43.286 0.091 7.44 4.71 11.56
1/1/2022 8:30:00 PM 6.27 43.286 0.091 7.45 4.71 11.57
1/1/2022 8:45:00 PM 6.27 43.286 0.091 7.45 4.8 11.56
1/1/2022 9:00:00 PM 6.27 43.286 0.091 7.41 16.82 11.56
1/1/2022 9:15:00 PM 6.26 43.268 0.091 7.46 79.73 11.56
1/1/2022 9:30:00 PM 6.26 43.268 0.091 7.44 4.86 11.56
1/1/2022 9:45:00 PM 6.26 43.268 0.091 7.44 4.66 11.56
1/1/2022 10:00:00 PM 6.26 43.268 0.092 7.45 4.65 11.56
1/1/2022 10:15:00 PM 6.26 43.268 0.092 7.47 4.71 11.56
1/1/2022 10:30:00 PM 6.26 43.268 0.092 7.48 4.63 11.55
1/1/2022 10:45:00 PM 6.25 43.25 0.092 7.5 4.64 11.56
1/1/2022 11:00:00 PM 6.24 43.232 0.092 7.5 4.73 11.56
1/1/2022 11:15:00 PM 6.22 43.196 0.092 7.5 4.72 11.57
1/1/2022 11:30:00 PM 6.2 43.16 0.092 7.51 4.76 11.58
1/1/2022 11:45:00 PM 6.17 43.106 0.092 7.46 4.84 11.59
1/2/2022 12:00:00 AM 6.15 43.07 0.092 7.5 4.9 11.6
1/2/2022 12:15:00 AM 6.12 43.016 0.092 7.51 4.98 11.61
1/2/2022 12:30:00 AM 6.1 42.98 0.092 7.5 5.05 11.62
1/2/2022 12:45:00 AM 6.08 42.944 0.093 7.5 5.15 11.62
1/2/2022 1:00:00 AM 6.05 42.89 0.093 7.5 5.1 11.63
1/2/2022 1:15:00 AM 6.03 42.854 0.094 7.5 5.11 11.63
1/2/2022 1:30:00 AM 6.01 42.818 0.094 7.5 5.07 11.64
1/2/2022 1:45:00 AM 5.99 42.782 0.094 7.5 5.15 11.64
1/2/2022 2:00:00 AM 5.96 42.728 0.095 7.5 5.27 11.66
1/2/2022 2:15:00 AM 5.94 42.692 0.095 7.5 5.26 11.67
1/2/2022 2:30:00 AM 5.91 42.638 0.095 7.5 5.37 11.67
1/2/2022 2:45:00 AM 5.89 42.602 0.095 7.5 5.44 11.69
1/2/2022 3:00:00 AM 5.86 42.548 0.095 7.5 5.71 11.69
1/2/2022 3:15:00 AM 5.84 42.512 0.095 7.51 5.95 11.7
1/2/2022 3:30:00 AM 5.81 42.458 0.095 7.5 6.24 11.71
1/2/2022 3:45:00 AM 5.78 42.404 0.096 7.5 6.54 11.72
1/2/2022 4:00:00 AM 5.75 42.35 0.096 7.49 7.43 11.73
1/2/2022 4:15:00 AM 5.72 42.296 0.096 7.52 24.98 11.75
1/2/2022 4:30:00 AM 5.69 42.242 0.097 7.51 13.21 11.76
1/2/2022 4:45:00 AM 5.66 42.188 0.097 7.52 13.33 11.77
1/2/2022 5:00:00 AM 5.63 42.134 0.098 7.51 369.13 11.78
1/2/2022 5:15:00 AM 5.59 42.062 0.098 7.52 11.23 11.79
1/2/2022 5:30:00 AM 5.56 42.008 0.098 7.5 6.49 11.8
1/2/2022 5:45:00 AM 5.53 41.954 0.099 7.52 6.96 11.81
1/2/2022 6:00:00 AM 5.5 41.9 0.099 7.53 7.24 11.82
1/2/2022 6:15:00 AM 5.47 41.846 0.099 7.53 6.59 11.82
1/2/2022 6:30:00 AM 5.44 41.792 0.099 7.53 6.51 11.83
1/2/2022 6:45:00 AM 5.41 41.738 0.1 7.53 6.64 11.85
1/2/2022 7:00:00 AM 5.38 41.684 0.1 7.52 6.77 11.87
1/2/2022 7:15:00 AM 5.35 41.63 0.1 7.53 6.54 11.86
1/2/2022 7:30:00 AM 5.32 41.576 0.1 7.52 6.35 11.89
1/2/2022 7:45:00 AM 5.29 41.522 0.1 7.46 6.56 11.9
1/2/2022 8:00:00 AM 5.26 41.468 0.1 7.52 6.65 11.91
1/2/2022 8:15:00 AM 5.23 41.414 0.1 7.53 6.92 11.94
1/2/2022 8:30:00 AM 5.21 41.378 0.1 7.53 6.48 11.96
1/2/2022 8:45:00 AM 5.18 41.324 0.1 7.53 6.57 11.98
1/2/2022 9:00:00 AM 5.16 41.288 0.1 7.54 6.47 12.02
1/2/2022 9:15:00 AM 5.14 41.252 0.1 7.55 6.77 12.05
1/2/2022 9:30:00 AM 5.12 41.216 0.1 7.55 6.45 12.09
1/2/2022 9:45:00 AM 5.09 41.162 0.1 7.56 6.24 12.11
1/2/2022 10:00:00 AM 5.07 41.126 0.099 7.57 6.27 12.15
1/2/2022 10:15:00 AM 5.07 41.126 0.099 7.56 6.3 12.17
1/2/2022 10:30:00 AM 5.06 41.108 0.099 7.58 6.13 12.19
1/2/2022 10:45:00 AM 5.05 41.09 0.099 7.58 6.23 12.22
1/2/2022 11:00:00 AM 5.04 41.072 0.098 7.59 6.11 12.26
1/2/2022 11:15:00 AM 5.03 41.054 0.098 7.6 6.23 12.25
1/2/2022 11:30:00 AM 5.02 41.036 0.098 7.6 5.99 12.29
1/2/2022 11:45:00 AM 5.04 41.072 0.098 7.61 5.94 12.3
1/2/2022 12:00:00 PM 5.04 41.072 0.097 7.61 5.93 12.32
1/2/2022 12:15:00 PM 5.02 41.036 0.097 7.61 5.75 12.31
1/2/2022 12:30:00 PM 5.01 41.018 0.097 7.6 5.69 12.33
1/2/2022 12:45:00 PM 5 41 0.097 7.62 5.73 12.33
1/2/2022 1:00:00 PM 4.98 40.964 0.096 7.61 5.66 12.32
1/2/2022 1:15:00 PM 4.96 40.928 0.096 7.61 5.61 12.33
1/2/2022 1:30:00 PM 4.95 40.91 0.096 7.62 5.43 12.33
1/2/2022 1:45:00 PM 4.93 40.874 0.096 7.62 5.41 12.35
1/2/2022 2:00:00 PM 4.91 40.838 0.095 7.61 5.46 12.35
1/2/2022 2:15:00 PM 4.89 40.802 0.095 7.6 5.29 12.35
1/2/2022 2:30:00 PM 4.89 40.802 0.095 7.61 5.29 12.37
1/2/2022 2:45:00 PM 4.88 40.784 0.095 7.6 5.16 12.36
1/2/2022 3:00:00 PM 4.86 40.748 0.095 7.6 5.38 12.35
1/2/2022 3:15:00 PM 4.82 40.676 0.095 7.58 5.18 12.31
1/2/2022 3:30:00 PM 4.78 40.604 0.095 7.58 5.08 12.3
1/2/2022 3:45:00 PM 4.72 40.496 0.094 7.55 5.17 12.29
1/2/2022 4:00:00 PM 4.68 40.424 0.094 7.55 5.12 12.27
1/2/2022 4:15:00 PM 4.63 40.334 0.094 7.52 5.05 12.27
1/2/2022 4:30:00 PM 4.59 40.262 0.094 7.53 5.12 12.27
1/2/2022 4:45:00 PM 4.55 40.19 0.094 7.5 5.05 12.27
1/2/2022 5:00:00 PM 4.51 40.118 0.094 7.51 5.06 12.27
1/2/2022 5:15:00 PM 4.47 40.046 0.094 7.5 5.09 12.28
1/2/2022 5:30:00 PM 4.43 39.974 0.094 7.5 4.89 12.29
1/2/2022 5:45:00 PM 4.39 39.902 0.094 7.49 4.91 12.3
1/2/2022 6:00:00 PM 4.35 39.83 0.094 7.49 4.91 12.31
1/2/2022 6:15:00 PM 4.32 39.776 0.094 7.48 4.82 12.33
1/2/2022 6:30:00 PM 4.28 39.704 0.094 7.48 4.97 12.33
1/2/2022 6:45:00 PM 4.24 39.632 0.094 7.47 4.83 12.35
1/2/2022 7:00:00 PM 4.2 39.56 0.094 7.48 4.8 12.37
1/2/2022 7:15:00 PM 4.16 39.488 0.094 7.44 4.81 12.38
1/2/2022 7:30:00 PM 4.13 39.434 0.094 7.48 4.79 12.4
1/2/2022 7:45:00 PM 4.09 39.362 0.094 7.46 4.71 12.41
1/2/2022 8:00:00 PM 4.06 39.308 0.093 7.47 4.77 12.42
1/2/2022 8:15:00 PM 4.03 39.254 0.093 7.47 4.8 12.43
1/2/2022 8:30:00 PM 3.99 39.182 0.093 7.46 4.7 12.45
1/2/2022 8:45:00 PM 3.96 39.128 0.093 7.46 4.69 12.45
1/2/2022 9:00:00 PM 3.92 39.056 0.093 7.46 4.65 12.47
1/2/2022 9:15:00 PM 3.88 38.984 0.093 7.44 4.7 12.48
1/2/2022 9:30:00 PM 3.86 38.948 0.093 7.45 4.7 12.5
1/2/2022 9:45:00 PM 3.82 38.876 0.093 7.46 4.67 12.5
1/2/2022 10:00:00 PM 3.79 38.822 0.093 7.46 4.72 12.52
1/2/2022 10:15:00 PM 3.75 38.75 0.093 7.41 4.64 12.53
1/2/2022 10:30:00 PM 3.71 38.678 0.093 7.45 4.67 12.54
1/2/2022 10:45:00 PM 3.67 38.606 0.093 7.45 4.66 12.57
1/2/2022 11:00:00 PM 3.62 38.516 0.093 7.45 4.75 12.58
1/2/2022 11:15:00 PM 3.58 38.444 0.093 7.45 5.18 12.59
1/2/2022 11:30:00 PM 3.54 38.372 0.092 7.45 4.8 12.61
1/2/2022 11:45:00 PM 3.49 38.282 0.092 7.44 4.75 12.62
1/3/2022 12:00:00 AM 3.46 38.228 0.092 7.41 4.79 12.64
1/3/2022 12:15:00 AM 3.42 38.156 0.092 7.44 4.78 12.66
1/3/2022 12:30:00 AM 3.38 38.084 0.092 7.38 4.8 12.68
1/3/2022 12:45:00 AM 3.36 38.048 0.092 7.43 4.85 12.68
1/3/2022 1:00:00 AM 3.32 37.976 0.092 7.42 4.72 12.7
1/3/2022 1:15:00 AM 3.29 37.922 0.092 7.43 4.75 12.71
1/3/2022 1:30:00 AM 3.26 37.868 0.092 7.42 4.72 12.72
1/3/2022 1:45:00 AM 3.22 37.796 0.092 7.42 4.72 12.74
1/3/2022 2:00:00 AM 3.18 37.724 0.092 7.41 4.72 12.75
1/3/2022 2:15:00 AM 3.15 37.67 0.092 7.43 4.73 12.76
1/3/2022 2:30:00 AM 3.1 37.58 0.092 7.41 4.67 12.79
1/3/2022 2:45:00 AM 3.05 37.49 0.092 7.42 4.81 12.8
1/3/2022 3:00:00 AM 3 37.4 0.092 7.42 4.71 12.82
1/3/2022 3:15:00 AM 2.96 37.328 0.092 7.42 4.67 12.84
1/3/2022 3:30:00 AM 2.91 37.238 0.091 7.41 4.77 12.85
1/3/2022 3:45:00 AM 2.85 37.13 0.091 7.4 4.88 12.86
1/3/2022 4:00:00 AM 2.79 37.022 0.091 7.41 4.71 12.9
1/3/2022 4:15:00 AM 2.72 36.896 0.091 7.39 4.69 12.92
1/3/2022 4:30:00 AM 2.67 36.806 0.091 7.4 4.68 12.94
1/3/2022 4:45:00 AM 2.61 36.698 0.091 7.35 4.74 12.95
1/3/2022 5:00:00 AM 2.56 36.608 0.091 7.39 4.63 12.97
1/3/2022 5:15:00 AM 2.52 36.536 0.091 7.38 4.64 12.99
1/3/2022 5:30:00 AM 2.48 36.464 0.091 7.4 4.65 13.01
1/3/2022 5:45:00 AM 2.44 36.392 0.091 7.38 4.68 13.01
1/3/2022 6:00:00 AM 2.4 36.32 0.091 7.4 4.66 13.03
1/3/2022 6:15:00 AM 2.37 36.266 0.091 7.38 4.66 13.05
1/3/2022 6:30:00 AM 2.35 36.23 0.091 7.39 4.69 13.06
1/3/2022 6:45:00 AM 2.32 36.176 0.091 7.38 4.74 13.07
1/3/2022 7:00:00 AM 2.28 36.104 0.091 7.39 4.65 13.08
1/3/2022 7:15:00 AM 2.25 36.05 0.091 7.39 4.63 13.1
1/3/2022 7:30:00 AM 2.22 35.996 0.091 7.39 4.7 13.11
1/3/2022 7:45:00 AM 2.18 35.924 0.091 7.38 4.66 13.13
1/3/2022 8:00:00 AM 2.15 35.87 0.091 7.39 4.62 13.15
1/3/2022 8:15:00 AM 2.11 35.798 0.091 7.39 4.65 13.18
1/3/2022 8:30:00 AM 2.08 35.744 0.091 7.39 4.61 13.23
1/3/2022 8:45:00 AM 2.04 35.672 0.091 7.4 4.63 13.28
1/3/2022 9:00:00 AM 2.02 35.636 0.091 7.4 4.61 13.32
1/3/2022 9:15:00 AM 1.99 35.582 0.091 7.41 4.58 13.37
1/3/2022 9:30:00 AM 1.98 35.564 0.09 7.4 4.56 13.41
1/3/2022 9:45:00 AM 1.98 35.564 0.09 7.43 4.57 13.45
1/3/2022 10:00:00 AM 1.99 35.582 0.09 7.45 4.51 13.47
1/3/2022 10:15:00 AM 1.99 35.582 0.09 7.44 4.54 13.49
1/3/2022 10:30:00 AM 2 35.6 0.09 7.46 4.53 13.5
1/3/2022 10:45:00 AM 2.02 35.636 0.09 7.46 4.51 13.51
1/3/2022 11:00:00 AM 2.01 35.618 0.09 7.46 4.51 13.51
1/3/2022 11:15:00 AM 2.01 35.618 0.09 7.47 4.48 13.52
1/3/2022 11:30:00 AM 2.05 35.69 0.09 7.42 4.5 13.51
1/3/2022 11:45:00 AM 2.09 35.762 0.09 7.49 4.48 13.49
1/3/2022 12:00:00 PM 2.16 35.888 0.089 7.48 4.51 13.48
1/3/2022 12:15:00 PM 2.21 35.978 0.089 7.49 4.47 13.47
1/3/2022 12:30:00 PM 2.22 35.996 0.089 7.46 4.44 13.46
1/3/2022 12:45:00 PM 2.22 35.996 0.089 7.48 4.42 13.45
1/3/2022 1:00:00 PM 2.27 36.086 0.089 7.43 4.47 13.43
1/3/2022 1:15:00 PM 2.33 36.194 0.089 7.48 4.45 13.4
1/3/2022 1:30:00 PM 2.4 36.32 0.089 7.46 4.44 13.36
1/3/2022 1:45:00 PM 2.44 36.392 0.089 7.49 4.43 13.34
1/3/2022 2:00:00 PM 2.44 36.392 0.089 7.47 4.47 13.32
1/3/2022 2:15:00 PM 2.42 36.356 0.089 7.48 4.42 13.31
1/3/2022 2:30:00 PM 2.36 36.248 0.088 7.46 4.41 13.31
1/3/2022 2:45:00 PM 2.29 36.122 0.088 7.46 4.46 13.31
1/3/2022 3:00:00 PM 2.21 35.978 0.088 7.44 4.52 13.3
1/3/2022 3:15:00 PM 2.16 35.888 0.088 7.44 4.46 13.3
1/3/2022 3:30:00 PM 2.11 35.798 0.088 7.42 4.5 13.31
1/3/2022 3:45:00 PM 2.07 35.726 0.088 7.43 4.43 13.32
1/3/2022 4:00:00 PM 2.01 35.618 0.088 7.42 6.92 13.33
1/3/2022 4:15:00 PM 1.94 35.492 0.088 7.4 4.45 13.35
1/3/2022 4:30:00 PM 1.9 35.42 0.088 7.4 4.45 13.36
1/3/2022 4:45:00 PM 1.87 35.366 0.088 7.4 4.45 13.36
1/3/2022 5:00:00 PM 1.83 35.294 0.088 7.4 4.39 13.35
1/3/2022 5:15:00 PM 1.79 35.222 0.088 7.39 4.57 13.35
1/3/2022 5:30:00 PM 1.72 35.096 0.088 7.36 4.47 13.35
1/3/2022 5:45:00 PM 1.67 35.006 0.088 7.35 4.5 13.36
1/3/2022 6:00:00 PM 1.62 34.916 0.088 7.36 4.52 13.37
1/3/2022 6:15:00 PM 1.56 34.808 0.088 7.35 4.45 13.39
1/3/2022 6:30:00 PM 1.52 34.736 0.088 7.36 4.49 13.41
1/3/2022 6:45:00 PM 1.47 34.646 0.088 7.36 4.52 13.42
1/3/2022 7:00:00 PM 1.43 34.574 0.088 7.3 4.49 13.44
1/3/2022 7:15:00 PM 1.38 34.484 0.088 7.35 4.48 13.46
1/3/2022 7:30:00 PM 1.34 34.412 0.088 7.32 4.44 13.47
1/3/2022 7:45:00 PM 1.3 34.34 0.088 7.35 4.51 13.49
1/3/2022 8:00:00 PM 1.26 34.268 0.088 7.33 4.52 13.51
1/3/2022 8:15:00 PM 1.22 34.196 0.088 7.32 4.53 13.52
1/3/2022 8:30:00 PM 1.19 34.142 0.088 7.29 4.44 13.54
1/3/2022 8:45:00 PM 1.15 34.07 0.088 7.35 4.57 13.55
1/3/2022 9:00:00 PM 1.11 33.998 0.089 7.32 4.49 13.57
1/3/2022 9:15:00 PM 1.07 33.926 0.089 7.33 4.48 13.59
1/3/2022 9:30:00 PM 1.03 33.854 0.089 7.33 4.52 13.61
1/3/2022 9:45:00 PM 1 33.8 0.089 7.33 4.52 13.62
1/3/2022 10:00:00 PM 0.96 33.728 0.089 7.33 4.49 13.64
1/3/2022 10:15:00 PM 0.92 33.656 0.089 7.32 4.46 13.65
1/3/2022 10:30:00 PM 0.89 33.602 0.089 7.32 4.52 13.67
1/3/2022 10:45:00 PM 0.85 33.53 0.089 7.33 4.55 13.69
1/3/2022 11:00:00 PM 0.82 33.476 0.089 7.32 4.46 13.7
1/3/2022 11:15:00 PM 0.79 33.422 0.089 7.24 4.47 13.71
1/3/2022 11:30:00 PM 0.76 33.368 0.088 7.33 4.49 13.72
1/3/2022 11:45:00 PM 0.73 33.314 0.088 7.31 4.54 13.74
1/4/2022 12:00:00 AM 0.7 33.26 0.088 7.31 4.56 13.75
1/4/2022 12:15:00 AM 0.66 33.188 0.088 7.3 4.51 13.76
1/4/2022 12:30:00 AM 0.64 33.152 0.088 7.31 4.53 13.78
1/4/2022 12:45:00 AM 0.61 33.098 0.088 7.3 4.44 13.79
1/4/2022 1:00:00 AM 0.58 33.044 0.088 7.31 4.47 13.8
1/4/2022 1:15:00 AM 0.55 32.99 0.088 7.31 4.5 13.81
1/4/2022 1:30:00 AM 0.52 32.936 0.088 7.31 4.5 13.82
1/4/2022 1:45:00 AM 0.5 32.9 0.088 7.3 4.44 13.83
1/4/2022 2:00:00 AM 0.48 32.864 0.088 7.29 4.49 13.84
1/4/2022 2:15:00 AM 0.47 32.846 0.088 7.29 4.53 13.85
1/4/2022 2:30:00 AM 0.48 32.864 0.088 7.31 4.59 13.86
1/4/2022 2:45:00 AM 0.48 32.864 0.087 7.27 4.65 13.86
1/4/2022 3:00:00 AM 0.48 32.864 0.087 7.29 4.6 13.86
1/4/2022 3:15:00 AM 0.47 32.846 0.087 7.29 4.52 13.86
1/4/2022 3:30:00 AM 0.45 32.81 0.087 7.31 4.49 13.86
1/4/2022 3:45:00 AM 0.44 32.792 0.087 7.3 4.47 13.87
1/4/2022 4:00:00 AM 0.42 32.756 0.087 7.29 4.58 13.87
1/4/2022 4:15:00 AM 0.4 32.72 0.087 7.3 4.49 13.87
1/4/2022 4:30:00 AM 0.38 32.684 0.087 7.28 4.47 13.88
1/4/2022 4:45:00 AM 0.36 32.648 0.087 7.29 4.51 13.89
1/4/2022 5:00:00 AM 0.34 32.612 0.087 7.3 4.49 13.89
1/4/2022 5:15:00 AM 0.32 32.576 0.087 7.29 4.44 13.9
1/4/2022 5:30:00 AM 0.31 32.558 0.087 7.27 4.44 13.91
1/4/2022 5:45:00 AM 0.29 32.522 0.087 7.3 4.51 13.92
1/4/2022 6:00:00 AM 0.27 32.486 0.087 7.28 4.51 13.92
1/4/2022 6:15:00 AM 0.25 32.45 0.086 7.29 4.51 13.93
1/4/2022 6:30:00 AM 0.24 32.432 0.086 7.3 4.48 13.94
1/4/2022 6:45:00 AM 0.23 32.414 0.086 7.28 4.55 13.94
1/4/2022 7:00:00 AM 0.21 32.378 0.086 7.29 4.45 13.95
1/4/2022 7:15:00 AM 0.2 32.36 0.086 7.29 4.46 13.96
1/4/2022 7:30:00 AM 0.19 32.342 0.086 7.28 4.45 13.97
1/4/2022 7:45:00 AM 0.17 32.306 0.086 7.28 4.56 13.98
1/4/2022 8:00:00 AM 0.17 32.306 0.086 7.3 4.5 14
1/4/2022 8:15:00 AM 0.16 32.288 0.086 7.23 4.42 14.03
1/4/2022 8:30:00 AM 0.17 32.306 0.086 7.31 4.45 14.06
1/4/2022 8:45:00 AM 0.18 32.324 0.086 7.3 4.43 14.08
1/4/2022 9:00:00 AM 0.18 32.324 0.086 7.32 4.42 14.1
1/4/2022 9:15:00 AM 0.2 32.36 0.086 7.31 4.41 14.12
1/4/2022 9:30:00 AM 0.23 32.414 0.086 7.33 4.45 14.13
1/4/2022 9:45:00 AM 0.28 32.504 0.086 7.3 4.43 14.14
1/4/2022 10:00:00 AM 0.34 32.612 0.085 7.35 4.42 14.13
1/4/2022 10:15:00 AM 0.42 32.756 0.085 7.3 4.44 14.12
1/4/2022 10:30:00 AM 0.52 32.936 0.085 7.37 4.4 14.1
1/4/2022 10:45:00 AM 0.64 33.152 0.085 7.32 4.4 14.07
1/4/2022 11:00:00 AM 0.75 33.35 0.085 7.37 4.4 14.04
1/4/2022 11:15:00 AM 0.89 33.602 0.085 7.36 4.38 14
1/4/2022 11:30:00 AM 1.03 33.854 0.085 7.39 4.38 13.94
1/4/2022 11:45:00 AM 1.17 34.106 0.085 7.39 4.36 13.9
1/4/2022 12:00:00 PM 1.31 34.358 0.084 7.39 4.37 13.84
1/4/2022 12:15:00 PM 1.44 34.592 0.084 7.35 4.37 13.79
1/4/2022 12:30:00 PM 1.57 34.826 0.084 7.42 4.36 13.74
1/4/2022 12:45:00 PM 1.65 34.97 0.084 7.42 4.39 13.69
1/4/2022 1:00:00 PM 1.73 35.114 0.084 7.36 4.41 13.65
1/4/2022 1:15:00 PM 1.82 35.276 0.084 7.41 4.44 13.62
1/4/2022 1:30:00 PM 1.93 35.474 0.084 7.41 4.42 13.57
1/4/2022 1:45:00 PM 2.02 35.636 0.084 7.41 4.43 13.54
1/4/2022 2:00:00 PM 2.07 35.726 0.084 7.43 4.43 13.49
1/4/2022 2:15:00 PM 2.1 35.78 0.084 7.43 4.43 13.47
1/4/2022 2:30:00 PM 2.11 35.798 0.084 7.41 4.42 13.45
1/4/2022 2:45:00 PM 2.08 35.744 0.085 7.43 4.42 13.44
1/4/2022 3:00:00 PM 2.05 35.69 0.085 7.41 4.47 13.42
1/4/2022 3:15:00 PM 2.03 35.654 0.085 7.41 4.47 13.41
1/4/2022 3:30:00 PM 2.01 35.618 0.085 7.4 4.45 13.4
1/4/2022 3:45:00 PM 1.99 35.582 0.085 7.39 4.47 13.39
1/4/2022 4:00:00 PM 1.98 35.564 0.085 7.41 4.46 13.39
1/4/2022 4:15:00 PM 1.98 35.564 0.086 7.4 4.47 13.39
1/4/2022 4:30:00 PM 1.96 35.528 0.086 7.38 4.44 13.38
1/4/2022 4:45:00 PM 1.95 35.51 0.086 7.38 4.48 13.35
1/4/2022 5:00:00 PM 1.94 35.492 0.086 7.37 4.45 13.33
1/4/2022 5:15:00 PM 1.92 35.456 0.086 7.36 4.48 13.31
1/4/2022 5:30:00 PM 1.9 35.42 0.086 7.37 4.46 13.3
1/4/2022 5:45:00 PM 1.87 35.366 0.086 7.36 4.5 13.3
1/4/2022 6:00:00 PM 1.84 35.312 0.086 7.3 4.53 13.31
1/4/2022 6:15:00 PM 1.81 35.258 0.086 7.34 4.51 13.31
1/4/2022 6:30:00 PM 1.78 35.204 0.086 7.35 4.55 13.31
1/4/2022 6:45:00 PM 1.76 35.168 0.086 7.31 4.49 13.31
1/4/2022 7:00:00 PM 1.74 35.132 0.086 7.34 4.52 13.32
1/4/2022 7:15:00 PM 1.72 35.096 0.086 7.34 4.51 13.32
1/4/2022 7:30:00 PM 1.7 35.06 0.086 7.34 4.5 13.32
1/4/2022 7:45:00 PM 1.68 35.024 0.086 7.33 4.51 13.33
1/4/2022 8:00:00 PM 1.66 34.988 0.086 7.32 4.52 13.34
1/4/2022 8:15:00 PM 1.64 34.952 0.086 7.33 4.56 13.34
1/4/2022 8:30:00 PM 1.62 34.916 0.086 7.32 4.51 13.34
1/4/2022 8:45:00 PM 1.61 34.898 0.086 7.33 4.57 13.34
1/4/2022 9:00:00 PM 1.59 34.862 0.086 7.33 4.59 13.34
1/4/2022 9:15:00 PM 1.57 34.826 0.086 7.33 4.57 13.35
1/4/2022 9:30:00 PM 1.55 34.79 0.086 7.33 4.54 13.35
1/4/2022 9:45:00 PM 1.53 34.754 0.086 7.32 4.5 13.36
1/4/2022 10:00:00 PM 1.52 34.736 0.086 7.31 4.53 13.36
1/4/2022 10:15:00 PM 1.5 34.7 0.086 7.32 4.46 13.37
1/4/2022 10:30:00 PM 1.48 34.664 0.086 7.3 4.52 13.36
1/4/2022 10:45:00 PM 1.47 34.646 0.086 7.32 4.54 13.37
1/4/2022 11:00:00 PM 1.46 34.628 0.086 7.33 4.49 13.37
1/4/2022 11:15:00 PM 1.45 34.61 0.086 7.31 4.5 13.38
1/4/2022 11:30:00 PM 1.44 34.592 0.086 7.32 4.49 13.37
1/4/2022 11:45:00 PM 1.44 34.592 0.086 7.32 4.58 13.37
1/5/2022 12:00:00 AM 1.44 34.592 0.086 7.26 4.57 13.37
1/5/2022 12:15:00 AM 1.43 34.574 0.086 7.33 4.61 13.37
1/5/2022 12:30:00 AM 1.43 34.574 0.085 7.31 4.49 13.38
1/5/2022 12:45:00 AM 1.42 34.556 0.085 7.31 4.47 13.38
1/5/2022 1:00:00 AM 1.42 34.556 0.085 7.33 4.5 13.37
1/5/2022 1:15:00 AM 1.41 34.538 0.085 7.24 4.48 13.38
1/5/2022 1:30:00 AM 1.41 34.538 0.085 7.33 4.5 13.37
1/5/2022 1:45:00 AM 1.41 34.538 0.085 7.33 4.46 13.38
1/5/2022 2:00:00 AM 1.4 34.52 0.085 7.32 4.48 13.37
1/5/2022 2:15:00 AM 1.4 34.52 0.085 7.3 4.45 13.37
1/5/2022 2:30:00 AM 1.4 34.52 0.085 7.32 4.49 13.37
1/5/2022 2:45:00 AM 1.39 34.502 0.085 7.31 4.48 13.38
1/5/2022 3:00:00 AM 1.38 34.484 0.085 7.32 4.48 13.37
1/5/2022 3:15:00 AM 1.37 34.466 0.085 7.3 4.48 13.37
1/5/2022 3:30:00 AM 1.36 34.448 0.085 7.3 4.45 13.38
1/5/2022 3:45:00 AM 1.35 34.43 0.085 7.32 4.5 13.38
1/5/2022 4:00:00 AM 1.34 34.412 0.085 7.31 4.45 13.37
1/5/2022 4:15:00 AM 1.34 34.412 0.085 7.33 4.47 13.37
1/5/2022 4:30:00 AM 1.33 34.394 0.085 7.31 4.5 13.37
1/5/2022 4:45:00 AM 1.33 34.394 0.085 7.31 4.45 13.36
1/5/2022 5:00:00 AM 1.33 34.394 0.085 7.3 4.47 13.36
1/5/2022 5:15:00 AM 1.33 34.394 0.085 7.32 4.47 13.36
1/5/2022 5:30:00 AM 1.33 34.394 0.085 7.31 4.46 13.36
1/5/2022 5:45:00 AM 1.33 34.394 0.085 7.32 4.5 13.35
1/5/2022 6:00:00 AM 1.32 34.376 0.085 7.27 4.46 13.35
1/5/2022 6:15:00 AM 1.31 34.358 0.085 7.33 4.53 13.36
1/5/2022 6:30:00 AM 1.3 34.34 0.085 7.3 4.46 13.35
1/5/2022 6:45:00 AM 1.29 34.322 0.085 7.32 4.51 13.36
1/5/2022 7:00:00 AM 1.28 34.304 0.085 7.31 4.51 13.36
1/5/2022 7:15:00 AM 1.27 34.286 0.084 7.31 4.55 13.36
1/5/2022 7:30:00 AM 1.26 34.268 0.084 7.3 4.52 13.36
1/5/2022 7:45:00 AM 1.26 34.268 0.084 7.32 4.45 13.36
1/5/2022 8:00:00 AM 1.26 34.268 0.084 7.32 4.48 13.38
1/5/2022 8:15:00 AM 1.28 34.304 0.084 7.33 4.44 13.4
1/5/2022 8:30:00 AM 1.3 34.34 0.084 7.3 4.43 13.43
1/5/2022 8:45:00 AM 1.32 34.376 0.084 7.32 4.43 13.45
1/5/2022 9:00:00 AM 1.34 34.412 0.084 7.31 4.48 13.48
1/5/2022 9:15:00 AM 1.39 34.502 0.084 7.37 4.38 13.49
1/5/2022 9:30:00 AM 1.44 34.592 0.084 7.36 4.44 13.5
1/5/2022 9:45:00 AM 1.49 34.682 0.084 7.38 4.41 13.49
1/5/2022 10:00:00 AM 1.94 35.492 0.081 8.18 55.24 12.71
1/5/2022 10:15:00 AM 1.55 34.79 0.082 7.61 1.8 13.12
1/5/2022 10:30:00 AM 1.62 34.916 0.081 7.63 1.76 13.18
1/5/2022 10:45:00 AM 1.71 35.078 0.081 7.61 1.81 13.19
1/5/2022 11:00:00 AM 1.79 35.222 0.081 7.6 1.8 13.17
1/5/2022 11:15:00 AM 1.87 35.366 0.081 7.6 1.79 13.16
1/5/2022 11:30:00 AM 1.96 35.528 0.081 7.6 1.78 0
1/5/2022 11:45:00 AM 2.02 35.636 0.081 7.61 1.77 0
1/5/2022 12:00:00 PM 2.09 35.762 0.081 7.61 1.8 0
1/5/2022 12:15:00 PM 2.15 35.87 0.081 7.6 1.8 0
1/5/2022 12:30:00 PM 2.24 36.032 0.081 7.61 1.77 0
1/5/2022 12:45:00 PM 2.35 36.23 0.081 7.62 1.78 0
1/5/2022 1:00:00 PM 2.47 36.446 0.081 7.61 1.75 0
1/5/2022 1:15:00 PM 2.58 36.644 0.08 7.61 1.84 0
1/5/2022 1:30:00 PM 2.72 36.896 0.08 7.62 1.82 0
1/5/2022 1:45:00 PM 2.82 37.076 0.08 7.62 1.76 0
1/5/2022 2:00:00 PM 2.88 37.184 0.08 7.62 1.82 0
1/5/2022 2:15:00 PM 2.94 37.292 0.08 7.62 1.85 0
1/5/2022 2:30:00 PM 2.97 37.346 0.08 7.62 1.88 0
1/5/2022 2:45:00 PM 2.99 37.382 0.08 7.62 1.84 0
1/5/2022 3:00:00 PM 3 37.4 0.08 7.62 1.87 0
1/5/2022 3:15:00 PM 3.02 37.436 0.08 7.62 1.88 0
1/5/2022 3:30:00 PM 3.02 37.436 0.08 7.62 1.97 0
1/5/2022 3:45:00 PM 3.02 37.436 0.08 7.61 1.87 0
1/5/2022 4:00:00 PM 3.01 37.418 0.08 7.61 1.9 0
1/5/2022 4:15:00 PM 2.98 37.364 0.08 7.61 1.95 0
1/5/2022 4:30:00 PM 2.96 37.328 0.08 7.6 1.88 0
1/5/2022 4:45:00 PM 2.92 37.256 0.08 7.59 1.89 0
1/5/2022 5:00:00 PM 2.9 37.22 0.08 7.58 1.94 0
1/5/2022 5:15:00 PM 2.88 37.184 0.08 7.57 1.98 0
1/5/2022 5:30:00 PM 2.86 37.148 0.08 7.56 2 0
1/5/2022 5:45:00 PM 2.85 37.13 0.08 7.55 1.96 0
1/5/2022 6:00:00 PM 2.83 37.094 0.08 7.55 1.99 0
1/5/2022 6:15:00 PM 2.81 37.058 0.08 7.55 2.03 0
1/5/2022 6:30:00 PM 2.79 37.022 0.08 7.54 2.04 0
1/5/2022 6:45:00 PM 2.75 36.95 0.08 7.54 2.17 0
1/5/2022 7:00:00 PM 2.72 36.896 0.08 7.54 2.08 0
1/5/2022 7:15:00 PM 2.68 36.824 0.08 7.54 2.05 0
1/5/2022 7:30:00 PM 2.65 36.77 0.08 7.54 2.16 0
1/5/2022 7:45:00 PM 2.62 36.716 0.08 7.54 2.03 0
1/5/2022 8:00:00 PM 2.59 36.662 0.08 7.54 1.99 0
1/5/2022 8:15:00 PM 2.56 36.608 0.08 7.54 2.04 0
1/5/2022 8:30:00 PM 2.53 36.554 0.08 7.54 2.11 0
1/5/2022 8:45:00 PM 2.49 36.482 0.081 7.54 2.07 0
1/5/2022 9:00:00 PM 2.46 36.428 0.081 7.54 2.09 0
1/5/2022 9:15:00 PM 2.44 36.392 0.081 7.54 2.14 0
1/5/2022 9:30:00 PM 2.43 36.374 0.081 7.54 2.15 0
1/5/2022 9:45:00 PM 2.42 36.356 0.081 7.54 2.25 0
1/5/2022 10:00:00 PM 2.41 36.338 0.081 7.54 2.08 0
1/5/2022 10:15:00 PM 2.4 36.32 0.081 7.54 2.19 0
1/5/2022 10:30:00 PM 2.38 36.284 0.081 7.53 2.12 0
1/5/2022 10:45:00 PM 2.35 36.23 0.081 7.54 2.17 0
1/5/2022 11:00:00 PM 2.34 36.212 0.081 7.53 2.33 0
1/5/2022 11:15:00 PM 2.34 36.212 0.081 7.54 2.14 0
1/5/2022 11:30:00 PM 2.34 36.212 0.081 7.54 2.11 0
1/5/2022 11:45:00 PM 2.34 36.212 0.081 7.54 2.13 0
1/6/2022 12:00:00 AM 2.34 36.212 0.081 7.54 2.15 0
1/6/2022 12:15:00 AM 2.32 36.176 0.081 7.54 2.21 0
1/6/2022 12:30:00 AM 2.3 36.14 0.081 7.54 2.13 0
1/6/2022 12:45:00 AM 2.28 36.104 0.081 7.54 2.19 0
1/6/2022 1:00:00 AM 2.25 36.05 0.081 7.54 2.24 0
1/6/2022 1:15:00 AM 2.23 36.014 0.081 7.54 2.18 0
1/6/2022 1:30:00 AM 2.21 35.978 0.081 7.54 2.11 0
1/6/2022 1:45:00 AM 2.19 35.942 0.081 7.54 2.18 0
1/6/2022 2:00:00 AM 2.16 35.888 0.081 7.54 2.12 0
1/6/2022 2:15:00 AM 2.12 35.816 0.081 7.54 2.14 0
1/6/2022 2:30:00 AM 2.1 35.78 0.081 7.54 2.13 0
1/6/2022 2:45:00 AM 2.07 35.726 0.081 7.54 2.13 0
1/6/2022 3:00:00 AM 2.06 35.708 0.081 7.54 2.16 0
1/6/2022 3:15:00 AM 2.05 35.69 0.081 7.54 2.13 0
1/6/2022 3:30:00 AM 2.04 35.672 0.081 7.54 2.17 0
1/6/2022 3:45:00 AM 2.03 35.654 0.081 7.54 2.12 0
1/6/2022 4:00:00 AM 2.03 35.654 0.081 7.54 2.05 0
1/6/2022 4:15:00 AM 2.02 35.636 0.081 7.55 2.04 0
1/6/2022 4:30:00 AM 1.99 35.582 0.081 7.54 2.02 0
1/6/2022 4:45:00 AM 1.94 35.492 0.081 7.54 2.04 0
1/6/2022 5:00:00 AM 1.88 35.384 0.081 7.54 2.1 0
1/6/2022 5:15:00 AM 1.85 35.33 0.081 7.54 2.11 0
1/6/2022 5:30:00 AM 1.83 35.294 0.081 7.54 2.15 0
1/6/2022 5:45:00 AM 1.82 35.276 0.081 7.54 2.1 0
1/6/2022 6:00:00 AM 1.78 35.204 0.081 7.54 2.1 0
1/6/2022 6:15:00 AM 1.74 35.132 0.081 7.54 2.1 0
1/6/2022 6:30:00 AM 1.71 35.078 0.081 7.54 2.11 0
1/6/2022 6:45:00 AM 1.69 35.042 0.081 7.54 2.12 0
1/6/2022 7:00:00 AM 1.67 35.006 0.081 7.54 2.11 0
1/6/2022 7:15:00 AM 1.65 34.97 0.081 7.54 2.11 0
1/6/2022 7:30:00 AM 1.64 34.952 0.081 7.54 2.08 0
1/6/2022 7:45:00 AM 1.63 34.934 0.081 7.54 2.14 0
1/6/2022 8:00:00 AM 1.6 34.88 0.081 7.54 2.03 0
1/6/2022 8:15:00 AM 1.58 34.844 0.081 7.55 2.12 0
1/6/2022 8:30:00 AM 1.56 34.808 0.081 7.56 2.07 0
1/6/2022 8:45:00 AM 1.54 34.772 0.081 7.57 2.05 0
1/6/2022 9:00:00 AM 1.53 34.754 0.081 7.57 2.06 0
1/6/2022 9:15:00 AM 1.51 34.718 0.081 7.58 2.11 0
1/6/2022 9:30:00 AM 1.48 34.664 0.081 7.59 2.11 0
1/6/2022 9:45:00 AM 1.46 34.628 0.081 7.59 2.09 0
1/6/2022 10:00:00 AM 1.47 34.646 0.081 7.6 2.05 0
1/6/2022 10:15:00 AM 1.52 34.736 0.081 7.61 2.07 0
1/6/2022 10:30:00 AM 1.57 34.826 0.081 7.61 2.01 0
1/6/2022 10:45:00 AM 1.64 34.952 0.081 7.62 2.08 0
1/6/2022 11:00:00 AM 1.67 35.006 0.08 7.62 2 0
1/6/2022 11:15:00 AM 1.72 35.096 0.08 7.62 2.02 0
1/6/2022 11:30:00 AM 1.74 35.132 0.08 7.62 2.04 0
1/6/2022 11:45:00 AM 1.81 35.258 0.08 7.62 2.06 0
1/6/2022 12:00:00 PM 1.91 35.438 0.08 7.63 2.05 0
1/6/2022 12:15:00 PM 1.99 35.582 0.08 7.63 2.05 0
1/6/2022 12:30:00 PM 2.07 35.726 0.08 7.63 2.06 0
1/6/2022 12:45:00 PM 2.13 35.834 0.08 7.63 2.09 0
1/6/2022 1:00:00 PM 2.19 35.942 0.08 7.63 2.02 0
1/6/2022 1:15:00 PM 2.26 36.068 0.08 7.63 1.97 0
1/6/2022 1:30:00 PM 2.29 36.122 0.08 7.63 1.99 0
1/6/2022 1:45:00 PM 2.29 36.122 0.08 7.63 2.01 0
1/6/2022 2:00:00 PM 2.29 36.122 0.079 7.63 1.99 0
1/6/2022 2:15:00 PM 2.28 36.104 0.079 7.63 2.02 0
1/6/2022 2:30:00 PM 2.29 36.122 0.079 7.64 2.08 0
1/6/2022 2:45:00 PM 2.3 36.14 0.079 7.63 2.01 0
1/6/2022 3:00:00 PM 2.29 36.122 0.079 7.64 2.06 0
1/6/2022 3:15:00 PM 2.28 36.104 0.079 7.63 2.03 0
1/6/2022 3:30:00 PM 2.25 36.05 0.079 7.63 2.08 0
1/6/2022 3:45:00 PM 2.23 36.014 0.079 7.62 2.03 0
1/6/2022 4:00:00 PM 2.21 35.978 0.079 7.62 2.05 0
1/6/2022 4:15:00 PM 2.18 35.924 0.079 7.61 2.05 0
1/6/2022 4:30:00 PM 2.15 35.87 0.079 7.6 2.05 0
1/6/2022 4:45:00 PM 2.12 35.816 0.079 7.59 1.98 0
1/6/2022 5:00:00 PM 2.09 35.762 0.079 7.59 2.02 0
1/6/2022 5:15:00 PM 2.07 35.726 0.079 7.58 2.05 0
1/6/2022 5:30:00 PM 2.04 35.672 0.079 7.57 2.1 0
1/6/2022 5:45:00 PM 2.01 35.618 0.079 7.57 2.09 0
1/6/2022 6:00:00 PM 1.98 35.564 0.079 7.56 2.09 0
1/6/2022 6:15:00 PM 1.96 35.528 0.079 7.56 2.1 0
1/6/2022 6:30:00 PM 1.93 35.474 0.079 7.56 2.09 0
1/6/2022 6:45:00 PM 1.92 35.456 0.079 7.55 2.15 0
1/6/2022 7:00:00 PM 1.9 35.42 0.079 7.55 2.14 0
1/6/2022 7:15:00 PM 1.89 35.402 0.079 7.55 2.15 0
1/6/2022 7:30:00 PM 1.88 35.384 0.079 7.55 2.15 0
1/6/2022 7:45:00 PM 1.87 35.366 0.08 7.55 2.22 0
1/6/2022 8:00:00 PM 1.86 35.348 0.08 7.55 2.15 0
1/6/2022 8:15:00 PM 1.84 35.312 0.08 7.55 2.21 0
1/6/2022 8:30:00 PM 1.82 35.276 0.08 7.55 2.15 0
1/6/2022 8:45:00 PM 1.81 35.258 0.08 7.55 2.17 0
1/6/2022 9:00:00 PM 1.79 35.222 0.08 7.55 2.16 0
1/6/2022 9:15:00 PM 1.75 35.15 0.08 7.55 2.13 0
1/6/2022 9:30:00 PM 1.71 35.078 0.08 7.55 2.16 0
1/6/2022 9:45:00 PM 1.68 35.024 0.08 7.55 2.15 0
1/6/2022 10:00:00 PM 1.66 34.988 0.08 7.55 2.08 0
1/6/2022 10:15:00 PM 1.62 34.916 0.08 7.55 2.15 0
1/6/2022 10:30:00 PM 1.59 34.862 0.08 7.55 2.18 0
1/6/2022 10:45:00 PM 1.57 34.826 0.08 7.55 2.18 0
1/6/2022 11:00:00 PM 1.56 34.808 0.08 7.55 2.09 0
1/6/2022 11:15:00 PM 1.54 34.772 0.08 7.55 2.1 0
1/6/2022 11:30:00 PM 1.52 34.736 0.08 7.55 2.1 0
1/6/2022 11:45:00 PM 1.5 34.7 0.08 7.55 2.16 0
1/7/2022 12:00:00 AM 1.49 34.682 0.08 7.55 2.16 0
1/7/2022 12:15:00 AM 1.48 34.664 0.08 7.55 2.13 0
1/7/2022 12:30:00 AM 1.46 34.628 0.08 7.55 2.18 0
1/7/2022 12:45:00 AM 1.45 34.61 0.08 7.55 2.29 0
1/7/2022 1:00:00 AM 1.44 34.592 0.08 7.55 2.37 0
1/7/2022 1:15:00 AM 1.43 34.574 0.08 7.55 2.3 0
1/7/2022 1:30:00 AM 1.41 34.538 0.08 7.55 2.27 0
1/7/2022 1:45:00 AM 1.39 34.502 0.08 7.55 2.2 0
1/7/2022 2:00:00 AM 1.37 34.466 0.08 7.54 2.16 0
1/7/2022 2:15:00 AM 1.35 34.43 0.08 7.54 2.18 0
1/7/2022 2:30:00 AM 1.32 34.376 0.08 7.54 2.13 0
1/7/2022 2:45:00 AM 1.31 34.358 0.08 7.54 2.26 0
1/7/2022 3:00:00 AM 1.3 34.34 0.08 7.54 2.16 0
1/7/2022 3:15:00 AM 1.29 34.322 0.08 7.54 2.14 0
1/7/2022 3:30:00 AM 1.28 34.304 0.08 7.54 2.15 0
1/7/2022 3:45:00 AM 1.28 34.304 0.08 7.54 2.12 0
1/7/2022 4:00:00 AM 1.28 34.304 0.08 7.54 2.18 0
1/7/2022 4:15:00 AM 1.28 34.304 0.08 7.54 2.16 0
1/7/2022 4:30:00 AM 1.28 34.304 0.08 7.54 2.2 0
1/7/2022 4:45:00 AM 1.27 34.286 0.08 7.54 2.21 0
1/7/2022 5:00:00 AM 1.27 34.286 0.08 7.54 2.19 0
1/7/2022 5:15:00 AM 1.27 34.286 0.08 7.54 2.21 0
1/7/2022 5:30:00 AM 1.27 34.286 0.08 7.54 2.22 0
1/7/2022 5:45:00 AM 1.27 34.286 0.08 7.54 2.2 0
1/7/2022 6:00:00 AM 1.27 34.286 0.08 7.54 2.23 0
1/7/2022 6:15:00 AM 1.26 34.268 0.08 7.54 2.14 0
1/7/2022 6:30:00 AM 1.27 34.286 0.08 7.54 2.15 0
1/7/2022 6:45:00 AM 1.26 34.268 0.08 7.54 2.22 0
1/7/2022 7:00:00 AM 1.25 34.25 0.08 7.54 2.31 0
1/7/2022 7:15:00 AM 1.25 34.25 0.08 7.54 2.28 0
1/7/2022 7:30:00 AM 1.24 34.232 0.08 7.54 2.21 0
1/7/2022 7:45:00 AM 1.24 34.232 0.08 7.54 2.19 0
1/7/2022 8:00:00 AM 1.24 34.232 0.08 7.55 2.18 0
1/7/2022 8:15:00 AM 1.23 34.214 0.08 7.55 2.16 0
1/7/2022 8:30:00 AM 1.23 34.214 0.08 7.56 2.18 0
1/7/2022 8:45:00 AM 1.24 34.232 0.079 7.57 2.14 0
1/7/2022 9:00:00 AM 1.25 34.25 0.079 7.58 2.14 0
1/7/2022 9:15:00 AM 1.28 34.304 0.079 7.59 2.11 0
1/7/2022 9:30:00 AM 1.3 34.34 0.079 7.59 2.2 0
1/7/2022 9:45:00 AM 1.35 34.43 0.079 7.6 2.14 0
1/7/2022 10:00:00 AM 1.38 34.484 0.079 7.61 2.16 0
1/7/2022 10:15:00 AM 1.42 34.556 0.079 7.61 2.17 0
1/7/2022 10:30:00 AM 1.51 34.718 0.079 7.62 2.15 0
1/7/2022 10:45:00 AM 1.57 34.826 0.079 7.62 2.1 0
1/7/2022 11:00:00 AM 1.63 34.934 0.079 7.62 2.11 0
1/7/2022 11:15:00 AM 1.63 34.934 0.079 7.62 2.19 0
1/7/2022 11:30:00 AM 1.63 34.934 0.079 7.62 2.15 0
1/7/2022 11:45:00 AM 1.63 34.934 0.079 7.63 2.16 0
1/7/2022 12:00:00 PM 1.64 34.952 0.079 7.63 2.12 0
1/7/2022 12:15:00 PM 1.66 34.988 0.079 7.63 2.13 0
1/7/2022 12:30:00 PM 1.68 35.024 0.079 7.63 2.13 0
1/7/2022 12:45:00 PM 1.75 35.15 0.079 7.63 2.14 0
1/7/2022 1:00:00 PM 1.83 35.294 0.079 7.63 2.16 0
1/7/2022 1:15:00 PM 1.83 35.294 0.079 7.63 2.11 0
1/7/2022 1:30:00 PM 1.83 35.294 0.079 7.63 2.12 0
1/7/2022 1:45:00 PM 1.86 35.348 0.079 7.63 2.11 0
1/7/2022 2:00:00 PM 1.87 35.366 0.079 7.63 2.11 0
1/7/2022 2:15:00 PM 1.85 35.33 0.079 7.63 2.13 0
1/7/2022 2:30:00 PM 1.85 35.33 0.079 7.63 2.15 0
1/7/2022 2:45:00 PM 1.79 35.222 0.079 7.63 2.11 0
1/7/2022 3:00:00 PM 1.74 35.132 0.079 7.63 2.38 0
1/7/2022 3:15:00 PM 1.71 35.078 0.079 7.63 2.17 0
1/7/2022 3:30:00 PM 1.69 35.042 0.079 7.63 2.23 0
1/7/2022 3:45:00 PM 1.65 34.97 0.079 7.62 2.15 0
1/7/2022 4:00:00 PM 1.6 34.88 0.079 7.62 2.24 0
1/7/2022 4:15:00 PM 1.56 34.808 0.079 7.62 2.15 0
1/7/2022 4:30:00 PM 1.52 34.736 0.079 7.61 2.31 0
1/7/2022 4:45:00 PM 1.48 34.664 0.079 7.6 2.2 0
1/7/2022 5:00:00 PM 1.4 34.52 0.079 7.59 2.18 0
1/7/2022 5:15:00 PM 1.35 34.43 0.079 7.58 2.17 0
1/7/2022 5:30:00 PM 1.31 34.358 0.079 7.57 2.22 0
1/7/2022 5:45:00 PM 1.27 34.286 0.079 7.57 2.22 0
1/7/2022 6:00:00 PM 1.23 34.214 0.079 7.56 2.29 0
1/7/2022 6:15:00 PM 1.17 34.106 0.079 7.56 2.27 0
1/7/2022 6:30:00 PM 1.12 34.016 0.08 7.56 2.27 0
1/7/2022 6:45:00 PM 1.09 33.962 0.08 7.56 2.22 0
1/7/2022 7:00:00 PM 1.04 33.872 0.08 7.55 2.24 0
1/7/2022 7:15:00 PM 1.02 33.836 0.08 7.55 2.26 0
1/7/2022 7:30:00 PM 0.99 33.782 0.08 7.55 2.3 0
1/7/2022 7:45:00 PM 0.95 33.71 0.08 7.55 2.33 0
1/7/2022 8:00:00 PM 0.94 33.692 0.08 7.55 2.36 0
1/7/2022 8:15:00 PM 0.91 33.638 0.08 7.55 2.21 0
1/7/2022 8:30:00 PM 0.88 33.584 0.08 7.55 2.23 0
1/7/2022 8:45:00 PM 0.86 33.548 0.08 7.55 2.25 0
1/7/2022 9:00:00 PM 0.82 33.476 0.08 7.55 2.23 0
1/7/2022 9:15:00 PM 0.77 33.386 0.08 7.55 2.28 0
1/7/2022 9:30:00 PM 0.73 33.314 0.08 7.55 2.21 0
1/7/2022 9:45:00 PM 0.7 33.26 0.08 7.54 2.17 0
1/7/2022 10:00:00 PM 0.66 33.188 0.08 7.54 2.27 0
1/7/2022 10:15:00 PM 0.61 33.098 0.08 7.54 2.35 0
1/7/2022 10:30:00 PM 0.56 33.008 0.08 7.54 2.25 0
1/7/2022 10:45:00 PM 0.53 32.954 0.08 7.54 2.26 0
1/7/2022 11:00:00 PM 0.49 32.882 0.08 7.54 2.25 0
1/7/2022 11:15:00 PM 0.43 32.774 0.08 7.54 2.27 0
1/7/2022 11:30:00 PM 0.39 32.702 0.08 7.54 2.32 0
1/7/2022 11:45:00 PM 0.34 32.612 0.08 7.54 2.27 0
1/8/2022 12:00:00 AM 0.3 32.54 0.08 7.54 2.27 0
1/8/2022 12:15:00 AM 0.26 32.468 0.08 7.54 2.44 0
1/8/2022 12:30:00 AM 0.22 32.396 0.08 7.54 2.4 0
1/8/2022 12:45:00 AM 0.18 32.324 0.08 7.54 2.44 0
1/8/2022 1:00:00 AM 0.14 32.252 0.08 7.54 2.44 0
1/8/2022 1:15:00 AM 0.1 32.18 0.08 7.54 2.54 0
1/8/2022 1:30:00 AM 0.06 32.108 0.08 7.54 2.52 0
1/8/2022 1:45:00 AM 0.03 32.054 0.08 7.54 2.47 0
1/8/2022 2:00:00 AM -0.02 31.964 0.08 7.54 2.42 0
1/8/2022 2:15:00 AM -0.05 31.91 0.08 7.53 2.43 0
1/8/2022 2:30:00 AM -0.09 31.838 0.08 7.53 2.41 0
1/8/2022 2:45:00 AM -0.12 31.784 0.08 7.53 2.4 0
1/8/2022 3:00:00 AM -0.15 31.73 0.08 7.53 2.38 0
1/8/2022 3:15:00 AM -0.14 31.748 0.08 7.53 2.52 0
1/8/2022 3:30:00 AM -0.13 31.766 0.08 7.53 2.59 0
1/8/2022 3:45:00 AM -0.13 31.766 0.08 7.53 2.84 0
1/8/2022 4:00:00 AM -0.13 31.766 0.08 7.52 2.56 0
1/8/2022 4:15:00 AM -0.13 31.766 0.079 7.52 2.59 0
1/8/2022 4:30:00 AM -0.13 31.766 0.079 7.52 2.66 0
1/8/2022 4:45:00 AM -0.13 31.766 0.079 7.52 2.66 0
1/8/2022 5:00:00 AM -0.13 31.766 0.079 7.52 2.65 0
1/8/2022 5:15:00 AM -0.13 31.766 0.079 7.51 2.6 0
1/8/2022 5:30:00 AM -0.13 31.766 0.079 7.51 2.6 0
1/8/2022 5:45:00 AM -0.13 31.766 0.079 7.51 2.62 0
1/8/2022 6:00:00 AM -0.13 31.766 0.079 7.51 2.56 0
1/8/2022 6:15:00 AM -0.13 31.766 0.079 7.51 2.58 0
1/8/2022 6:30:00 AM -0.13 31.766 0.079 7.51 2.52 0
1/8/2022 6:45:00 AM -0.13 31.766 0.079 7.51 2.52 0
1/8/2022 7:00:00 AM -0.13 31.766 0.079 7.51 2.52 0
1/8/2022 7:15:00 AM -0.13 31.766 0.079 7.51 2.5 0
1/8/2022 7:30:00 AM -0.13 31.766 0.079 7.51 2.47 0
1/8/2022 7:45:00 AM -0.13 31.766 0.079 7.51 2.48 0
1/8/2022 8:00:00 AM -0.13 31.766 0.079 7.51 2.49 0
1/8/2022 8:15:00 AM -0.13 31.766 0.08 7.52 2.38 0
1/8/2022 8:30:00 AM -0.13 31.766 0.079 7.52 2.34 0
1/8/2022 8:45:00 AM -0.13 31.766 0.079 7.53 2.32 0
1/8/2022 9:00:00 AM -0.13 31.766 0.079 7.53 2.33 0
1/8/2022 9:15:00 AM -0.13 31.766 0.079 7.54 2.37 0
1/8/2022 9:30:00 AM -0.12 31.784 0.079 7.54 2.26 0
1/8/2022 9:45:00 AM -0.12 31.784 0.079 7.54 2.4 0
1/8/2022 10:00:00 AM -0.12 31.784 0.079 7.55 2.47 0
1/8/2022 10:15:00 AM -0.12 31.784 0.079 7.55 2.53 0
1/8/2022 10:30:00 AM -0.12 31.784 0.079 7.55 2.6 0
1/8/2022 10:45:00 AM -0.12 31.784 0.079 7.56 2.75 0
1/8/2022 11:00:00 AM -0.12 31.784 0.079 7.56 2.74 0
1/8/2022 11:15:00 AM -0.11 31.802 0.078 7.57 2.82 0
1/8/2022 11:30:00 AM -0.11 31.802 0.078 7.57 2.9 0
1/8/2022 11:45:00 AM -0.11 31.802 0.078 7.57 3.15 0
1/8/2022 12:00:00 PM -0.09 31.838 0.078 7.58 3.14 0
1/8/2022 12:15:00 PM -0.01 31.982 0.079 7.58 3.37 0
1/8/2022 12:30:00 PM 0.15 32.27 0.079 7.59 3.35 0
1/8/2022 12:45:00 PM 0.33 32.594 0.079 7.59 3.29 0
1/8/2022 1:00:00 PM 0.51 32.918 0.08 7.6 2.96 0
1/8/2022 1:15:00 PM 0.61 33.098 0.08 7.6 2.99 0
1/8/2022 1:30:00 PM 0.72 33.296 0.079 7.6 2.99 0
1/8/2022 1:45:00 PM 0.8 33.44 0.079 7.6 2.81 0
1/8/2022 2:00:00 PM 0.87 33.566 0.079 7.6 2.78 0
1/8/2022 2:15:00 PM 0.91 33.638 0.079 7.6 2.73 0
1/8/2022 2:30:00 PM 0.93 33.674 0.078 7.6 2.74 0
1/8/2022 2:45:00 PM 0.89 33.602 0.078 7.59 2.78 0
1/8/2022 3:00:00 PM 0.83 33.494 0.079 7.59 2.76 0
1/8/2022 3:15:00 PM 0.76 33.368 0.079 7.59 2.79 0
1/8/2022 3:30:00 PM 0.72 33.296 0.078 7.59 2.83 0
1/8/2022 3:45:00 PM 0.67 33.206 0.078 7.58 2.8 0
1/8/2022 4:00:00 PM 0.63 33.134 0.078 7.58 2.8 0
1/8/2022 4:15:00 PM 0.59 33.062 0.078 7.58 2.71 0
1/8/2022 4:30:00 PM 0.54 32.972 0.078 7.57 2.73 0
1/8/2022 4:45:00 PM 0.5 32.9 0.078 7.57 2.64 0
1/8/2022 5:00:00 PM 0.47 32.846 0.078 7.57 2.6 0
1/8/2022 5:15:00 PM 0.45 32.81 0.079 7.56 2.63 0
1/8/2022 5:30:00 PM 0.43 32.774 0.079 7.56 2.66 0
1/8/2022 5:45:00 PM 0.42 32.756 0.079 7.55 2.61 0
1/8/2022 6:00:00 PM 0.4 32.72 0.079 7.55 2.65 0
1/8/2022 6:15:00 PM 0.39 32.702 0.08 7.55 2.67 0
1/8/2022 6:30:00 PM 0.37 32.666 0.08 7.55 2.64 0
1/8/2022 6:45:00 PM 0.36 32.648 0.08 7.55 2.76 0
1/8/2022 7:00:00 PM 0.35 32.63 0.08 7.55 2.68 0
1/8/2022 7:15:00 PM 0.33 32.594 0.08 7.55 2.77 0
1/8/2022 7:30:00 PM 0.32 32.576 0.08 7.55 2.69 0
1/8/2022 7:45:00 PM 0.31 32.558 0.08 7.54 2.76 0
1/8/2022 8:00:00 PM 0.29 32.522 0.08 7.55 2.74 0
1/8/2022 8:15:00 PM 0.27 32.486 0.08 7.54 2.92 0
1/8/2022 8:30:00 PM 0.25 32.45 0.08 7.54 2.7 0
1/8/2022 8:45:00 PM 0.24 32.432 0.08 7.55 2.68 0
1/8/2022 9:00:00 PM 0.22 32.396 0.08 7.54 2.61 0
1/8/2022 9:15:00 PM 0.21 32.378 0.08 7.54 2.6 0
1/8/2022 9:30:00 PM 0.2 32.36 0.08 7.54 2.72 0
1/8/2022 9:45:00 PM 0.18 32.324 0.08 7.55 2.78 0
1/8/2022 10:00:00 PM 0.19 32.342 0.08 7.54 2.77 0
1/8/2022 10:15:00 PM 0.19 32.342 0.08 7.55 2.76 0
1/8/2022 10:30:00 PM 0.19 32.342 0.08 7.54 2.86 0
1/8/2022 10:45:00 PM 0.2 32.36 0.081 7.55 2.85 0
1/8/2022 11:00:00 PM 0.21 32.378 0.081 7.55 2.82 0
1/8/2022 11:15:00 PM 0.23 32.414 0.081 7.55 2.85 0
1/8/2022 11:30:00 PM 0.24 32.432 0.081 7.55 2.72 0
1/8/2022 11:45:00 PM 0.27 32.486 0.081 7.55 2.78 0
1/9/2022 12:00:00 AM 0.3 32.54 0.081 7.55 3.67 0
1/9/2022 12:15:00 AM 0.32 32.576 0.081 7.55 2.66 0
1/9/2022 12:30:00 AM 0.35 32.63 0.081 7.55 2.57 0
1/9/2022 12:45:00 AM 0.36 32.648 0.081 7.55 2.59 0
1/9/2022 1:00:00 AM 0.38 32.684 0.081 7.55 2.57 0
1/9/2022 1:15:00 AM 0.4 32.72 0.081 7.55 2.64 0
1/9/2022 1:30:00 AM 0.41 32.738 0.081 7.55 2.63 0
1/9/2022 1:45:00 AM 0.43 32.774 0.081 7.55 2.64 0
1/9/2022 2:00:00 AM 0.45 32.81 0.081 7.55 2.56 0
1/9/2022 2:15:00 AM 0.46 32.828 0.081 7.55 2.65 0
1/9/2022 2:30:00 AM 0.48 32.864 0.081 7.55 2.59 0
1/9/2022 2:45:00 AM 0.5 32.9 0.081 7.55 2.61 0
1/9/2022 3:00:00 AM 0.52 32.936 0.081 7.55 2.59 0
1/9/2022 3:15:00 AM 0.54 32.972 0.081 7.55 2.56 0
1/9/2022 3:30:00 AM 0.54 32.972 0.08 7.55 2.65 0
1/9/2022 3:45:00 AM 0.56 33.008 0.08 7.55 2.66 0
1/9/2022 4:00:00 AM 0.58 33.044 0.08 7.55 2.65 0
1/9/2022 4:15:00 AM 0.6 33.08 0.08 7.55 2.6 0
1/9/2022 4:30:00 AM 0.62 33.116 0.08 7.55 2.59 0
1/9/2022 4:45:00 AM 0.62 33.116 0.08 7.55 2.62 0
1/9/2022 5:00:00 AM 0.58 33.044 0.08 7.55 2.72 0
1/9/2022 5:15:00 AM 0.52 32.936 0.08 7.55 2.67 0
1/9/2022 5:30:00 AM 0.54 32.972 0.08 7.55 2.66 0
1/9/2022 5:45:00 AM 0.56 33.008 0.08 7.55 2.64 0
1/9/2022 6:00:00 AM 0.59 33.062 0.08 7.55 2.66 0
1/9/2022 6:15:00 AM 0.62 33.116 0.08 7.55 2.82 0
1/9/2022 6:30:00 AM 0.66 33.188 0.08 7.55 2.76 0
1/9/2022 6:45:00 AM 0.68 33.224 0.08 7.55 2.66 0
1/9/2022 7:00:00 AM 0.72 33.296 0.08 7.55 2.68 0
1/9/2022 7:15:00 AM 0.75 33.35 0.08 7.55 2.53 0
1/9/2022 7:30:00 AM 0.78 33.404 0.08 7.55 2.51 0
1/9/2022 7:45:00 AM 0.8 33.44 0.08 7.55 2.67 0
1/9/2022 8:00:00 AM 0.82 33.476 0.08 7.55 2.68 0
1/9/2022 8:15:00 AM 0.85 33.53 0.08 7.56 2.75 0
1/9/2022 8:30:00 AM 0.89 33.602 0.08 7.56 2.58 0
1/9/2022 8:45:00 AM 0.92 33.656 0.08 7.56 2.64 0
1/9/2022 9:00:00 AM 0.97 33.746 0.079 7.57 2.61 0
1/9/2022 9:15:00 AM 1.01 33.818 0.079 7.57 2.61 0
1/9/2022 9:30:00 AM 1.06 33.908 0.079 7.58 2.59 0
1/9/2022 9:45:00 AM 1.11 33.998 0.079 7.58 2.58 0
1/9/2022 10:00:00 AM 1.16 34.088 0.079 7.59 2.53 0
1/9/2022 10:15:00 AM 1.2 34.16 0.079 7.59 2.38 0
1/9/2022 10:30:00 AM 1.26 34.268 0.079 7.59 2.51 0
1/9/2022 10:45:00 AM 1.31 34.358 0.079 7.6 2.53 0
1/9/2022 11:00:00 AM 1.37 34.466 0.079 7.6 2.56 0
1/9/2022 11:15:00 AM 1.42 34.556 0.079 7.61 2.53 0
1/9/2022 11:30:00 AM 1.47 34.646 0.079 7.61 2.5 0
1/9/2022 11:45:00 AM 1.52 34.736 0.079 7.61 2.45 0
1/9/2022 12:00:00 PM 1.56 34.808 0.079 7.61 2.44 0
1/9/2022 12:15:00 PM 1.6 34.88 0.079 7.61 2.41 0
1/9/2022 12:30:00 PM 1.65 34.97 0.079 7.61 2.44 0
1/9/2022 12:45:00 PM 1.69 35.042 0.079 7.61 2.45 0
1/9/2022 1:00:00 PM 1.74 35.132 0.079 7.62 2.47 0
1/9/2022 1:15:00 PM 1.79 35.222 0.08 7.62 2.55 0
1/9/2022 1:30:00 PM 1.84 35.312 0.08 7.62 2.51 0
1/9/2022 1:45:00 PM 1.87 35.366 0.081 7.62 2.51 0
1/9/2022 2:00:00 PM 1.91 35.438 0.081 7.62 2.58 0
1/9/2022 2:15:00 PM 1.94 35.492 0.082 7.62 2.55 0
1/9/2022 2:30:00 PM 1.98 35.564 0.083 7.62 2.49 0
1/9/2022 2:45:00 PM 2.01 35.618 0.084 7.62 2.57 0
1/9/2022 3:00:00 PM 2.06 35.708 0.084 7.62 2.52 0
1/9/2022 3:15:00 PM 2.1 35.78 0.085 7.62 2.55 0
1/9/2022 3:30:00 PM 2.12 35.816 0.086 7.62 2.52 0
1/9/2022 3:45:00 PM 2.15 35.87 0.087 7.62 3.02 0
1/9/2022 4:00:00 PM 2.18 35.924 0.088 7.61 3.03 0
1/9/2022 4:15:00 PM 2.2 35.96 0.088 7.61 2.99 0
1/9/2022 4:30:00 PM 2.21 35.978 0.088 7.6 3.01 0
1/9/2022 4:45:00 PM 2.23 36.014 0.088 7.6 3.08 0
1/9/2022 5:00:00 PM 2.24 36.032 0.088 7.59 3.15 0
1/9/2022 5:15:00 PM 2.24 36.032 0.089 7.59 3.12 0
1/9/2022 5:30:00 PM 2.23 36.014 0.089 7.58 3.2 0
1/9/2022 5:45:00 PM 2.23 36.014 0.089 7.58 3.14 0
1/9/2022 6:00:00 PM 2.24 36.032 0.089 7.58 3.1 0
1/9/2022 6:15:00 PM 2.23 36.014 0.09 7.58 3.13 0
1/9/2022 6:30:00 PM 2.22 35.996 0.09 7.58 3.14 0
1/9/2022 6:45:00 PM 2.22 35.996 0.09 7.58 3.19 0
1/9/2022 7:00:00 PM 2.21 35.978 0.09 7.58 3.11 0
1/9/2022 7:15:00 PM 2.2 35.96 0.09 7.58 3.09 0
1/9/2022 7:30:00 PM 2.19 35.942 0.09 7.58 3.2 0
1/9/2022 7:45:00 PM 2.18 35.924 0.09 7.58 3.19 0
1/9/2022 8:00:00 PM 2.17 35.906 0.09 7.58 3.18 0
1/9/2022 8:15:00 PM 2.16 35.888 0.09 7.58 3.14 0
1/9/2022 8:30:00 PM 2.15 35.87 0.089 7.58 3.15 0
1/9/2022 8:45:00 PM 2.14 35.852 0.089 7.58 3.24 0
1/9/2022 9:00:00 PM 2.13 35.834 0.089 7.58 3.14 0
1/9/2022 9:15:00 PM 2.11 35.798 0.089 7.58 3.26 0
1/9/2022 9:30:00 PM 2.08 35.744 0.089 7.58 3.25 0
1/9/2022 9:45:00 PM 2.06 35.708 0.088 7.58 3.23 0
1/9/2022 10:00:00 PM 2.04 35.672 0.088 7.58 3.23 0
1/9/2022 10:15:00 PM 2.02 35.636 0.088 7.58 3.32 0
1/9/2022 10:30:00 PM 1.98 35.564 0.088 7.59 3.16 0
1/9/2022 10:45:00 PM 1.95 35.51 0.088 7.59 3.25 0
1/9/2022 11:00:00 PM 1.91 35.438 0.088 7.59 3.29 0
1/9/2022 11:15:00 PM 1.85 35.33 0.088 7.59 3.25 0
1/9/2022 11:30:00 PM 1.84 35.312 0.088 7.59 3.26 0
1/9/2022 11:45:00 PM 1.81 35.258 0.088 7.59 3.32 0
1/10/2022 12:00:00 AM 1.78 35.204 0.088 7.59 3.36 0
1/10/2022 12:15:00 AM 1.73 35.114 0.088 7.59 3.31 0
1/10/2022 12:30:00 AM 1.66 34.988 0.088 7.59 3.42 0
1/10/2022 12:45:00 AM 1.59 34.862 0.088 7.59 3.45 0
1/10/2022 1:00:00 AM 1.53 34.754 0.088 7.59 3.29 0
1/10/2022 1:15:00 AM 1.48 34.664 0.088 7.59 3.31 0
1/10/2022 1:30:00 AM 1.43 34.574 0.089 7.59 3.36 0
1/10/2022 1:45:00 AM 1.38 34.484 0.089 7.59 3.37 0
1/10/2022 2:00:00 AM 1.34 34.412 0.089 7.59 3.27 0
1/10/2022 2:15:00 AM 1.3 34.34 0.089 7.59 3.37 0
1/10/2022 2:30:00 AM 1.28 34.304 0.089 7.59 3.36 0
1/10/2022 2:45:00 AM 1.25 34.25 0.089 7.59 3.36 0
1/10/2022 3:00:00 AM 1.21 34.178 0.089 7.59 3.41 0
1/10/2022 3:15:00 AM 1.18 34.124 0.089 7.59 3.39 0
1/10/2022 3:30:00 AM 1.14 34.052 0.089 7.59 3.38 0
1/10/2022 3:45:00 AM 1.1 33.98 0.089 7.59 3.25 0
1/10/2022 4:00:00 AM 1.09 33.962 0.089 7.59 3.36 0
1/10/2022 4:15:00 AM 1.06 33.908 0.089 7.59 3.35 0
1/10/2022 4:30:00 AM 1.03 33.854 0.09 7.59 3.36 0
1/10/2022 4:45:00 AM 1 33.8 0.09 7.59 3.33 0
1/10/2022 5:00:00 AM 0.97 33.746 0.09 7.59 3.32 0
1/10/2022 5:15:00 AM 0.91 33.638 0.09 7.59 3.32 0
1/10/2022 5:30:00 AM 0.86 33.548 0.09 7.59 3.32 0
1/10/2022 5:45:00 AM 0.8 33.44 0.09 7.59 3.49 0
1/10/2022 6:00:00 AM 0.74 33.332 0.09 7.59 3.48 0
1/10/2022 6:15:00 AM 0.67 33.206 0.09 7.58 3.39 0
1/10/2022 6:30:00 AM 0.61 33.098 0.09 7.58 3.41 0
1/10/2022 6:45:00 AM 0.58 33.044 0.09 7.58 3.56 0
1/10/2022 7:00:00 AM 0.54 32.972 0.09 7.58 3.34 0
1/10/2022 7:15:00 AM 0.5 32.9 0.09 7.58 3.43 0
1/10/2022 7:30:00 AM 0.45 32.81 0.09 7.58 3.29 0
1/10/2022 7:45:00 AM 0.42 32.756 0.09 7.58 3.29 0
1/10/2022 8:00:00 AM 0.4 32.72 0.09 7.58 3.32 0
1/10/2022 8:15:00 AM 0.38 32.684 0.09 7.59 3.25 0
1/10/2022 8:30:00 AM 0.36 32.648 0.09 7.59 3.28 0
1/10/2022 8:45:00 AM 0.36 32.648 0.09 7.6 3.35 0
1/10/2022 9:00:00 AM 0.36 32.648 0.09 7.61 3.22 0
1/10/2022 9:15:00 AM 0.36 32.648 0.089 7.61 3.22 0
1/10/2022 9:30:00 AM 0.37 32.666 0.089 7.62 3.28 0
1/10/2022 9:45:00 AM 0.38 32.684 0.089 7.62 3.3 0
1/10/2022 10:00:00 AM 0.43 32.774 0.089 7.63 3.21 0
1/10/2022 10:15:00 AM 0.48 32.864 0.088 7.63 3.2 0
1/10/2022 10:30:00 AM 0.54 32.972 0.088 7.63 3.19 0
1/10/2022 10:45:00 AM 0.61 33.098 0.088 7.64 3.14 0
1/10/2022 11:00:00 AM 0.67 33.206 0.088 7.64 3.17 0
1/10/2022 11:15:00 AM 0.7 33.26 0.088 7.64 3.29 0
1/10/2022 11:30:00 AM 0.74 33.332 0.087 7.64 3.15 0
1/10/2022 11:45:00 AM 0.74 33.332 0.087 7.64 3.17 0
1/10/2022 12:00:00 PM 0.76 33.368 0.087 7.64 3.16 0
1/10/2022 12:15:00 PM 0.79 33.422 0.087 7.64 3.23 0
1/10/2022 12:30:00 PM 0.87 33.566 0.087 7.64 3.15 0
1/10/2022 12:45:00 PM 0.92 33.656 0.086 7.64 3.15 0
1/10/2022 1:00:00 PM 0.96 33.728 0.086 7.64 3.17 0
1/10/2022 1:15:00 PM 1.05 33.89 0.086 7.64 3.18 0
1/10/2022 1:30:00 PM 1.11 33.998 0.086 7.65 3.2 0
1/10/2022 1:45:00 PM 1.13 34.034 0.086 7.65 3.15 0
1/10/2022 2:00:00 PM 1.13 34.034 0.086 7.65 3.15 0
1/10/2022 2:15:00 PM 1.09 33.962 0.086 7.64 3.17 0
1/10/2022 2:30:00 PM 1.05 33.89 0.085 7.64 3.14 0
1/10/2022 2:45:00 PM 1 33.8 0.085 7.64 3.17 0
1/10/2022 3:00:00 PM 0.97 33.746 0.085 7.64 3.16 0
1/10/2022 3:15:00 PM 0.93 33.674 0.085 7.64 3.25 0
1/10/2022 3:30:00 PM 0.89 33.602 0.085 7.64 3.18 0
1/10/2022 3:45:00 PM 0.85 33.53 0.085 7.63 3.18 0
1/10/2022 4:00:00 PM 0.84 33.512 0.085 7.63 3.16 0
1/10/2022 4:15:00 PM 0.81 33.458 0.085 7.63 3.19 0
1/10/2022 4:30:00 PM 0.78 33.404 0.085 7.62 3.16 0
1/10/2022 4:45:00 PM 0.74 33.332 0.085 7.62 3.15 0
1/10/2022 5:00:00 PM 0.69 33.242 0.085 7.61 3.18 0
1/10/2022 5:15:00 PM 0.65 33.17 0.085 7.6 3.21 0
1/10/2022 5:30:00 PM 0.62 33.116 0.085 7.6 3.19 0
1/10/2022 5:45:00 PM 0.6 33.08 0.085 7.59 3.18 0
1/10/2022 6:00:00 PM 0.57 33.026 0.085 7.59 3.25 0
1/10/2022 6:15:00 PM 0.55 32.99 0.085 7.58 3.2 0
1/10/2022 6:30:00 PM 0.52 32.936 0.085 7.58 3.17 0
1/10/2022 6:45:00 PM 0.47 32.846 0.085 7.58 3.19 0
1/10/2022 7:00:00 PM 0.43 32.774 0.085 7.58 3.21 0
1/10/2022 7:15:00 PM 0.4 32.72 0.085 7.57 3.19 0
1/10/2022 7:30:00 PM 0.36 32.648 0.085 7.57 3.22 0
1/10/2022 7:45:00 PM 0.31 32.558 0.085 7.57 3.26 0
1/10/2022 8:00:00 PM 0.27 32.486 0.085 7.57 3.23 0
1/10/2022 8:15:00 PM 0.23 32.414 0.085 7.57 3.23 0
1/10/2022 8:30:00 PM 0.19 32.342 0.085 7.57 3.3 0
1/10/2022 8:45:00 PM -0.01 31.982 0.085 7.57 3.25 0
1/10/2022 9:00:00 PM -0.09 31.838 0.085 7.57 3.34 0
1/10/2022 9:15:00 PM -0.12 31.784 0.085 7.57 3.25 0
1/10/2022 9:30:00 PM -0.13 31.766 0.085 7.57 3.43 0
1/10/2022 9:45:00 PM -0.13 31.766 0.085 7.56 3.32 0
1/10/2022 10:00:00 PM -0.12 31.784 0.085 7.56 3.32 0
1/10/2022 10:15:00 PM -0.12 31.784 0.085 7.56 3.39 0
1/10/2022 10:30:00 PM -0.13 31.766 0.085 7.56 3.39 0
1/10/2022 10:45:00 PM -0.13 31.766 0.085 7.56 3.35 0
1/10/2022 11:00:00 PM -0.13 31.766 0.085 7.56 3.32 0
1/10/2022 11:15:00 PM -0.13 31.766 0.085 7.56 3.33 0
1/10/2022 11:30:00 PM -0.13 31.766 0.085 7.56 3.19 0
1/10/2022 11:45:00 PM -0.13 31.766 0.085 7.56 3.18 0
1/11/2022 12:00:00 AM -0.13 31.766 0.085 7.56 3.17 0
1/11/2022 12:15:00 AM -0.13 31.766 0.085 7.56 3.21 0
1/11/2022 12:30:00 AM -0.13 31.766 0.085 7.56 3.24 0
1/11/2022 12:45:00 AM -0.13 31.766 0.085 7.56 3.23 0
1/11/2022 1:00:00 AM -0.13 31.766 0.085 7.56 3.24 0
1/11/2022 1:15:00 AM -0.13 31.766 0.085 7.56 3.2 0
1/11/2022 1:30:00 AM -0.13 31.766 0.085 7.55 3.24 0
1/11/2022 1:45:00 AM -0.13 31.766 0.085 7.55 3.23 0
1/11/2022 2:00:00 AM -0.13 31.766 0.085 7.55 3.17 0
1/11/2022 2:15:00 AM -0.13 31.766 0.085 7.55 3.22 0
1/11/2022 2:30:00 AM -0.13 31.766 0.085 7.55 3.16 0
1/11/2022 2:45:00 AM -0.13 31.766 0.085 7.55 3.21 0
1/11/2022 3:00:00 AM -0.13 31.766 0.085 7.55 3.21 0
1/11/2022 3:15:00 AM -0.13 31.766 0.085 7.54 3.26 0
1/11/2022 3:30:00 AM -0.13 31.766 0.085 7.54 3.29 0
1/11/2022 3:45:00 AM -0.13 31.766 0.085 7.54 3.18 0
1/11/2022 4:00:00 AM -0.13 31.766 0.085 7.54 3.23 0
1/11/2022 4:15:00 AM -0.12 31.784 0.085 7.54 3.19 0
1/11/2022 4:30:00 AM -0.12 31.784 0.085 7.54 3.19 0
1/11/2022 4:45:00 AM -0.13 31.766 0.085 7.54 3.17 0
1/11/2022 5:00:00 AM -0.13 31.766 0.085 7.54 3.14 0
1/11/2022 5:15:00 AM -0.12 31.784 0.085 7.53 3.13 0
1/11/2022 5:30:00 AM -0.12 31.784 0.084 7.53 3.86 0
1/11/2022 5:45:00 AM -0.12 31.784 0.084 7.53 3.1 0
1/11/2022 6:00:00 AM -0.12 31.784 0.084 7.53 3.14 0
1/11/2022 6:15:00 AM -0.12 31.784 0.084 7.53 3.12 0
1/11/2022 6:30:00 AM -0.12 31.784 0.084 7.53 3.08 0
1/11/2022 6:45:00 AM -0.13 31.766 0.084 7.53 3.1 0
1/11/2022 7:00:00 AM -0.13 31.766 0.084 7.53 3.09 0
1/11/2022 7:15:00 AM -0.13 31.766 0.084 7.52 3.15 0
1/11/2022 7:30:00 AM -0.13 31.766 0.084 7.52 3.18 0
1/11/2022 7:45:00 AM -0.12 31.784 0.085 7.53 3.2 0
1/11/2022 8:00:00 AM -0.12 31.784 0.085 7.53 3.14 0
1/11/2022 8:15:00 AM -0.12 31.784 0.085 7.53 3.13 0
1/11/2022 8:30:00 AM -0.12 31.784 0.084 7.54 3.17 0
1/11/2022 8:45:00 AM -0.12 31.784 0.084 7.54 3.14 0
1/11/2022 9:00:00 AM -0.12 31.784 0.084 7.55 3.13 0
1/11/2022 9:15:00 AM -0.12 31.784 0.084 7.55 3.12 0
1/11/2022 9:30:00 AM -0.12 31.784 0.084 7.56 3.16 0
1/11/2022 9:45:00 AM -0.12 31.784 0.084 7.56 3.1 0
1/11/2022 10:00:00 AM -0.12 31.784 0.084 7.57 3.13 0
1/11/2022 10:15:00 AM -0.11 31.802 0.084 7.57 3.21 0
1/11/2022 10:30:00 AM -0.11 31.802 0.084 7.58 3.27 0
1/11/2022 10:45:00 AM -0.11 31.802 0.084 7.58 3.33 0
1/11/2022 11:00:00 AM -0.12 31.784 0.083 7.58 3.38 0
1/11/2022 11:15:00 AM -0.12 31.784 0.083 7.59 3.45 0
1/11/2022 11:30:00 AM -0.12 31.784 0.083 7.59 3.45 0
1/11/2022 11:45:00 AM -0.11 31.802 0.083 7.59 3.55 0
1/11/2022 12:00:00 PM -0.11 31.802 0.083 7.6 3.47 0
1/11/2022 12:15:00 PM -0.11 31.802 0.084 7.6 3.57 0
1/11/2022 12:30:00 PM -0.11 31.802 0.084 7.6 3.71 0
1/11/2022 12:45:00 PM -0.12 31.784 0.084 7.6 3.82 0
1/11/2022 1:00:00 PM -0.12 31.784 0.084 7.6 3.67 0
1/11/2022 1:15:00 PM -0.12 31.784 0.084 7.61 3.74 0
1/11/2022 1:30:00 PM -0.12 31.784 0.084 7.6 3.76 0
1/11/2022 1:45:00 PM -0.11 31.802 0.084 7.6 3.78 0
1/11/2022 2:00:00 PM -0.11 31.802 0.084 7.6 3.73 0
1/11/2022 2:15:00 PM -0.11 31.802 0.084 7.6 3.63 0
1/11/2022 2:30:00 PM -0.11 31.802 0.084 7.6 3.62 0
1/11/2022 2:45:00 PM -0.11 31.802 0.084 7.6 3.5 0
1/11/2022 3:00:00 PM -0.11 31.802 0.084 7.6 3.5 0
1/11/2022 3:15:00 PM -0.11 31.802 0.084 7.6 3.45 0
1/11/2022 3:30:00 PM -0.11 31.802 0.084 7.6 3.61 0
1/11/2022 3:45:00 PM -0.12 31.784 0.085 7.6 3.45 0
1/11/2022 4:00:00 PM -0.11 31.802 0.085 7.6 3.44 0
1/11/2022 4:15:00 PM -0.12 31.784 0.085 7.6 3.4 0
1/11/2022 4:30:00 PM -0.12 31.784 0.085 7.59 3.33 0
1/11/2022 4:45:00 PM -0.12 31.784 0.085 7.59 3.35 0
1/11/2022 5:00:00 PM -0.13 31.766 0.085 7.59 3.29 0
1/11/2022 5:15:00 PM -0.13 31.766 0.085 7.58 3.34 0
1/11/2022 5:30:00 PM -0.13 31.766 0.085 7.57 3.35 0
1/11/2022 5:45:00 PM -0.13 31.766 0.085 7.57 3.37 0
1/11/2022 6:00:00 PM -0.12 31.784 0.085 7.56 3.34 0
1/11/2022 6:15:00 PM -0.12 31.784 0.085 7.56 3.33 0
1/11/2022 6:30:00 PM -0.13 31.766 0.085 7.56 3.35 0
1/11/2022 6:45:00 PM -0.13 31.766 0.085 7.55 3.31 0
1/11/2022 7:00:00 PM -0.13 31.766 0.085 7.55 3.33 0
1/11/2022 7:15:00 PM -0.13 31.766 0.085 7.55 3.35 0
1/11/2022 7:30:00 PM -0.12 31.784 0.085 7.55 3.58 0
1/11/2022 7:45:00 PM -0.12 31.784 0.085 7.55 3.34 0
1/11/2022 8:00:00 PM -0.13 31.766 0.085 7.55 3.6 0
1/11/2022 8:15:00 PM -0.13 31.766 0.085 7.54 3.34 0
1/11/2022 8:30:00 PM -0.12 31.784 0.085 7.54 3.33 0
1/11/2022 8:45:00 PM -0.13 31.766 0.085 7.54 3.33 0
1/11/2022 9:00:00 PM -0.13 31.766 0.085 7.54 3.28 0
1/11/2022 9:15:00 PM -0.13 31.766 0.085 7.54 3.33 0
1/11/2022 9:30:00 PM -0.12 31.784 0.085 7.54 3.3 0
1/11/2022 9:45:00 PM -0.12 31.784 0.085 7.54 3.33 0
1/11/2022 10:00:00 PM -0.12 31.784 0.085 7.54 3.31 0
1/11/2022 10:15:00 PM -0.12 31.784 0.085 7.54 3.34 0
1/11/2022 10:30:00 PM -0.12 31.784 0.085 7.54 3.35 0
1/11/2022 10:45:00 PM -0.12 31.784 0.085 7.53 3.32 0
1/11/2022 11:00:00 PM -0.12 31.784 0.085 7.53 3.34 0
1/11/2022 11:15:00 PM -0.12 31.784 0.085 7.53 3.3 0
1/11/2022 11:30:00 PM -0.12 31.784 0.085 7.53 3.37 0
1/11/2022 11:45:00 PM -0.12 31.784 0.085 7.53 3.3 0
1/12/2022 12:00:00 AM -0.12 31.784 0.085 7.53 3.33 0
1/12/2022 12:15:00 AM -0.12 31.784 0.085 7.53 3.37 0
1/12/2022 12:30:00 AM -0.12 31.784 0.084 7.53 3.32 0
1/12/2022 12:45:00 AM -0.12 31.784 0.084 7.53 3.33 0
1/12/2022 1:00:00 AM -0.12 31.784 0.084 7.53 3.37 0
1/12/2022 1:15:00 AM -0.12 31.784 0.084 7.53 3.35 0
1/12/2022 1:30:00 AM -0.12 31.784 0.084 7.53 3.34 0
1/12/2022 1:45:00 AM -0.12 31.784 0.084 7.53 3.37 0
1/12/2022 2:00:00 AM -0.12 31.784 0.084 7.53 3.35 0
1/12/2022 2:15:00 AM -0.12 31.784 0.084 7.52 3.34 0
1/12/2022 2:30:00 AM -0.12 31.784 0.084 7.52 3.36 0
1/12/2022 2:45:00 AM -0.12 31.784 0.084 7.52 3.36 0
1/12/2022 3:00:00 AM -0.12 31.784 0.084 7.52 3.33 0
1/12/2022 3:15:00 AM -0.12 31.784 0.084 7.52 3.33 0
1/12/2022 3:30:00 AM -0.12 31.784 0.084 7.52 3.36 0
1/12/2022 3:45:00 AM -0.12 31.784 0.084 7.52 3.39 0
1/12/2022 4:00:00 AM -0.12 31.784 0.084 7.52 3.36 0
1/12/2022 4:15:00 AM -0.12 31.784 0.084 7.52 3.34 0
1/12/2022 4:30:00 AM -0.12 31.784 0.084 7.52 3.36 0
1/12/2022 4:45:00 AM -0.12 31.784 0.084 7.52 3.5 0
1/12/2022 5:00:00 AM -0.12 31.784 0.084 7.52 3.37 0
1/12/2022 5:15:00 AM -0.12 31.784 0.084 7.52 3.36 0
1/12/2022 5:30:00 AM -0.12 31.784 0.084 7.52 3.39 0
1/12/2022 5:45:00 AM -0.12 31.784 0.084 7.52 3.3 0
1/12/2022 6:00:00 AM -0.12 31.784 0.084 7.52 3.4 0
1/12/2022 6:15:00 AM -0.12 31.784 0.084 7.52 3.38 13.33
1/12/2022 6:30:00 AM -0.12 31.784 0.084 7.51 3.34 13.19
1/12/2022 6:45:00 AM -0.12 31.784 0.084 7.51 3.42 13.24
1/12/2022 7:00:00 AM -0.12 31.784 0.084 7.51 3.36 13.21
1/12/2022 7:15:00 AM -0.12 31.784 0.084 7.51 3.39 13.2
1/12/2022 7:30:00 AM -0.12 31.784 0.084 7.51 3.43 13.19
1/12/2022 7:45:00 AM -0.12 31.784 0.084 7.51 3.38 13.21
1/12/2022 8:00:00 AM -0.12 31.784 0.084 7.52 3.37 0
1/12/2022 8:15:00 AM -0.12 31.784 0.084 7.52 3.37 0
1/12/2022 8:30:00 AM -0.11 31.802 0.084 7.52 3.43 0
1/12/2022 8:45:00 AM -0.11 31.802 0.084 7.53 3.44 0
1/12/2022 9:00:00 AM -0.11 31.802 0.084 7.54 3.42 0
1/12/2022 9:15:00 AM -0.11 31.802 0.084 7.54 3.41 0
1/12/2022 9:30:00 AM -0.11 31.802 0.084 7.54 3.46 0
1/12/2022 9:45:00 AM -0.1 31.82 0.084 7.55 3.59 0
1/12/2022 10:00:00 AM -0.1 31.82 0.083 7.55 3.47 0
1/12/2022 10:15:00 AM -0.1 31.82 0.083 7.56 3.5 0
1/12/2022 10:30:00 AM -0.09 31.838 0.083 7.56 3.59 0
1/12/2022 10:45:00 AM -0.09 31.838 0.083 7.57 3.51 0
1/12/2022 11:00:00 AM -0.08 31.856 0.083 7.57 3.66 0
1/12/2022 11:15:00 AM -0.08 31.856 0.083 7.58 4.17 0
1/12/2022 11:30:00 AM -0.08 31.856 0.083 7.58 4.08 0
1/12/2022 11:45:00 AM -0.08 31.856 0.082 7.59 4.19 0
1/12/2022 12:00:00 PM -0.08 31.856 0.082 7.59 4.13 0
1/12/2022 12:15:00 PM -0.08 31.856 0.083 7.59 4.46 0
1/12/2022 12:30:00 PM -0.07 31.874 0.083 7.59 4.83 0
1/12/2022 12:45:00 PM -0.04 31.928 0.083 7.6 4.5 0
1/12/2022 1:00:00 PM 0 32 0.083 7.6 4.56 0
1/12/2022 1:15:00 PM 0.03 32.054 0.083 7.6 4.93 0
1/12/2022 1:30:00 PM 0.08 32.144 0.083 7.6 4.54 0
1/12/2022 1:45:00 PM 0.12 32.216 0.082 7.6 4.39 0
1/12/2022 2:00:00 PM 0.15 32.27 0.082 7.6 4.09 0
1/12/2022 2:15:00 PM 0.2 32.36 0.082 7.61 4.7 0
1/12/2022 2:30:00 PM 0.24 32.432 0.082 7.6 5.66 0
1/12/2022 2:45:00 PM 0.27 32.486 0.081 7.6 5.12 0
1/12/2022 3:00:00 PM 0.27 32.486 0.081 7.6 4.89 0
1/12/2022 3:15:00 PM 0.28 32.504 0.081 7.6 5.15 0
1/12/2022 3:30:00 PM 0.3 32.54 0.081 7.6 4.85 0
1/12/2022 3:45:00 PM 0.34 32.612 0.081 7.6 5.04 0
1/12/2022 4:00:00 PM 0.39 32.702 0.081 7.6 4.76 0
1/12/2022 4:15:00 PM 0.42 32.756 0.081 7.6 4.71 0
1/12/2022 4:30:00 PM 0.44 32.792 0.081 7.6 4.58 0
1/12/2022 4:45:00 PM 0.45 32.81 0.081 7.59 4.51 0
1/12/2022 5:00:00 PM 0.45 32.81 0.081 7.59 4.74 0
1/12/2022 5:15:00 PM 0.45 32.81 0.081 7.58 4.4 0
1/12/2022 5:30:00 PM 0.47 32.846 0.081 7.57 4.43 0
1/12/2022 5:45:00 PM 0.48 32.864 0.081 7.57 4.74 0
1/12/2022 6:00:00 PM 0.49 32.882 0.081 7.56 4.67 0
1/12/2022 6:15:00 PM 0.5 32.9 0.081 7.55 4.6 0
1/12/2022 6:30:00 PM 0.51 32.918 0.081 7.55 4.61 0
1/12/2022 6:45:00 PM 0.52 32.936 0.081 7.55 4.51 0
1/12/2022 7:00:00 PM 0.52 32.936 0.081 7.55 4.91 0
1/12/2022 7:15:00 PM 0.53 32.954 0.081 7.55 4.6 0
1/12/2022 7:30:00 PM 0.53 32.954 0.081 7.55 4.61 0
1/12/2022 7:45:00 PM 0.54 32.972 0.081 7.55 4.62 0
1/12/2022 8:00:00 PM 0.54 32.972 0.081 7.55 4.45 0
1/12/2022 8:15:00 PM 0.55 32.99 0.081 7.55 4.76 0
1/12/2022 8:30:00 PM 0.55 32.99 0.081 7.55 4.63 0
1/12/2022 8:45:00 PM 0.55 32.99 0.081 7.55 4.71 0
1/12/2022 9:00:00 PM 0.55 32.99 0.081 7.55 4.54 0
1/12/2022 9:15:00 PM 0.57 33.026 0.081 7.55 4.5 0
1/12/2022 9:30:00 PM 0.59 33.062 0.081 7.54 4.56 0
1/12/2022 9:45:00 PM 0.61 33.098 0.081 7.54 4.47 0
1/12/2022 10:00:00 PM 0.62 33.116 0.081 7.54 4.49 0
1/12/2022 10:15:00 PM 0.63 33.134 0.081 7.55 4.46 0
1/12/2022 10:30:00 PM 0.64 33.152 0.081 7.54 4.51 0
1/12/2022 10:45:00 PM 0.65 33.17 0.081 7.54 4.42 0
1/12/2022 11:00:00 PM 0.66 33.188 0.081 7.54 4.63 0
1/12/2022 11:15:00 PM 0.67 33.206 0.081 7.54 4.49 0
1/12/2022 11:30:00 PM 0.68 33.224 0.081 7.54 4.43 0
1/12/2022 11:45:00 PM 0.69 33.242 0.081 7.54 4.41 0
1/13/2022 12:00:00 AM 0.71 33.278 0.081 7.54 4.43 0
1/13/2022 12:15:00 AM 0.72 33.296 0.081 7.54 4.46 0
1/13/2022 12:30:00 AM 0.74 33.332 0.081 7.55 4.67 0
1/13/2022 12:45:00 AM 0.75 33.35 0.081 7.55 4.41 0
1/13/2022 1:00:00 AM 0.77 33.386 0.081 7.55 4.5 0
1/13/2022 1:15:00 AM 0.78 33.404 0.081 7.55 4.65 0
1/13/2022 1:30:00 AM 0.8 33.44 0.081 7.55 4.65 0
1/13/2022 1:45:00 AM 0.82 33.476 0.081 7.55 4.44 0
1/13/2022 2:00:00 AM 0.83 33.494 0.082 7.55 4.63 0
1/13/2022 2:15:00 AM 0.85 33.53 0.082 7.55 4.68 0
1/13/2022 2:30:00 AM 0.86 33.548 0.082 7.55 4.67 0
1/13/2022 2:45:00 AM 0.87 33.566 0.082 7.55 4.79 0
1/13/2022 3:00:00 AM 0.89 33.602 0.082 7.55 4.62 0
1/13/2022 3:15:00 AM 0.9 33.62 0.082 7.55 4.61 0
1/13/2022 3:30:00 AM 0.92 33.656 0.082 7.55 4.71 0
1/13/2022 3:45:00 AM 0.93 33.674 0.082 7.55 4.56 0
1/13/2022 4:00:00 AM 0.95 33.71 0.082 7.55 4.54 0
1/13/2022 4:15:00 AM 0.97 33.746 0.082 7.55 4.46 0
1/13/2022 4:30:00 AM 0.98 33.764 0.082 7.55 4.37 0
1/13/2022 4:45:00 AM 0.99 33.782 0.082 7.55 4.2 0
1/13/2022 5:00:00 AM 1 33.8 0.082 7.55 4.3 0
1/13/2022 5:15:00 AM 1.01 33.818 0.082 7.55 4.25 0
1/13/2022 5:30:00 AM 1.02 33.836 0.082 7.56 4.22 0
1/13/2022 5:45:00 AM 1.03 33.854 0.082 7.55 4.32 0
1/13/2022 6:00:00 AM 1.04 33.872 0.082 7.55 4.25 0
1/13/2022 6:15:00 AM 1.05 33.89 0.082 7.56 4.11 0
1/13/2022 6:30:00 AM 1.06 33.908 0.082 7.55 4.09 0
1/13/2022 6:45:00 AM 1.06 33.908 0.082 7.56 4.28 0
1/13/2022 7:00:00 AM 1.08 33.944 0.082 7.56 4.34 0
1/13/2022 7:15:00 AM 1.09 33.962 0.082 7.56 4.23 0
1/13/2022 7:30:00 AM 1.09 33.962 0.082 7.56 4.27 0
1/13/2022 7:45:00 AM 1.11 33.998 0.082 7.56 4.27 0
1/13/2022 8:00:00 AM 1.11 33.998 0.082 7.56 4.28 0
1/13/2022 8:15:00 AM 1.1 33.98 0.082 7.56 4.32 0
1/13/2022 8:30:00 AM 1.12 34.016 0.082 7.57 4.26 0
1/13/2022 8:45:00 AM 1.16 34.088 0.082 7.58 4.25 0
1/13/2022 9:00:00 AM 1.2 34.16 0.082 7.58 4.19 0
1/13/2022 9:15:00 AM 1.24 34.232 0.082 7.59 4.2 0
1/13/2022 9:30:00 AM 1.27 34.286 0.082 7.6 4.23 0
1/13/2022 9:45:00 AM 1.3 34.34 0.082 7.61 4.22 0
1/13/2022 10:00:00 AM 1.36 34.448 0.082 7.61 4.19 0
1/13/2022 10:15:00 AM 1.44 34.592 0.082 7.62 4.07 0
1/13/2022 10:30:00 AM 1.53 34.754 0.082 7.63 4.07 0
1/13/2022 10:45:00 AM 1.61 34.898 0.082 7.63 4.13 0
1/13/2022 11:00:00 AM 1.71 35.078 0.082 7.64 4.18 0
1/13/2022 11:15:00 AM 1.81 35.258 0.082 7.64 4.09 0
1/13/2022 11:30:00 AM 1.91 35.438 0.082 7.65 4.11 0
1/13/2022 11:45:00 AM 2.02 35.636 0.082 7.65 4.09 0
1/13/2022 12:00:00 PM 2.14 35.852 0.082 7.65 4.14 0
1/13/2022 12:15:00 PM 2.27 36.086 0.082 7.65 4.21 0
1/13/2022 12:30:00 PM 2.5 36.5 0.084 7.63 2.1 13.12
1/13/2022 12:45:00 PM 2.6 36.68 0.079 7.39 3.38 13.06
1/13/2022 1:00:00 PM 2.66 36.788 0.083 7.43 1.95 13.02
1/13/2022 1:15:00 PM 2.72 36.896 0.083 7.44 2 12.99
1/13/2022 1:30:00 PM 2.8 37.04 0.083 7.45 1.95 12.96
1/13/2022 1:45:00 PM 2.82 37.076 0.083 7.42 2 12.95
1/13/2022 2:00:00 PM 2.85 37.13 0.081 7.39 3.42 12.93
1/13/2022 2:15:00 PM 2.85 37.13 0.083 7.41 2.01 12.92
1/13/2022 2:30:00 PM 2.86 37.148 0.083 7.39 2 12.91
1/13/2022 2:45:00 PM 2.89 37.202 0.083 7.37 2.04 12.9
1/13/2022 3:00:00 PM 2.89 37.202 0.083 7.36 1.99 12.88
1/13/2022 3:15:00 PM 2.88 37.184 0.083 7.34 2.02 12.86
1/13/2022 3:30:00 PM 2.87 37.166 0.083 7.35 2.12 12.85
1/13/2022 3:45:00 PM 2.87 37.166 0.083 7.33 2.14 12.85
1/13/2022 4:00:00 PM 2.86 37.148 0.083 7.29 2.15 12.84
1/13/2022 4:15:00 PM 2.84 37.112 0.082 7.3 3.46 12.84
1/13/2022 4:30:00 PM 2.81 37.058 0.083 7.3 2.12 12.81
1/13/2022 4:45:00 PM 2.78 37.004 0.084 7.29 2.12 12.79
1/13/2022 5:00:00 PM 2.74 36.932 0.084 7.28 2.16 12.77
1/13/2022 5:15:00 PM 2.7 36.86 0.084 7.26 2.11 12.76
1/13/2022 5:30:00 PM 2.66 36.788 0.084 7.25 2.21 12.75
1/13/2022 5:45:00 PM 2.63 36.734 0.084 7.22 2.08 12.74
1/13/2022 6:00:00 PM 2.6 36.68 0.084 7.23 2.09 12.74
1/13/2022 6:15:00 PM 2.56 36.608 0.084 7.22 2.16 12.75
1/13/2022 6:30:00 PM 2.53 36.554 0.084 7.19 2.14 12.75
1/13/2022 6:45:00 PM 2.49 36.482 0.084 7.21 2.18 12.76
1/13/2022 7:00:00 PM 2.47 36.446 0.084 7.18 2.16 12.76
1/13/2022 7:15:00 PM 2.45 36.41 0.084 7.2 2.16 12.77
1/13/2022 7:30:00 PM 2.43 36.374 0.084 7.19 2.12 12.78
1/13/2022 7:45:00 PM 2.41 36.338 0.084 7.19 2.3 12.78
1/13/2022 8:00:00 PM 2.38 36.284 0.085 7.17 2.18 12.79
1/13/2022 8:15:00 PM 2.35 36.23 0.085 7.17 2.14 12.8
1/13/2022 8:30:00 PM 2.33 36.194 0.085 7.18 2.14 12.81
1/13/2022 8:45:00 PM 2.31 36.158 0.085 7.18 2.21 12.82
1/13/2022 9:00:00 PM 2.29 36.122 0.085 7.18 2.09 12.83
1/13/2022 9:15:00 PM 2.28 36.104 0.085 7.18 2.14 12.83
1/13/2022 9:30:00 PM 2.28 36.104 0.085 7.16 2.12 12.84
1/13/2022 9:45:00 PM 2.27 36.086 0.085 7.19 2.14 12.84
1/13/2022 10:00:00 PM 2.26 36.068 0.085 7.17 2.16 12.83
1/13/2022 10:15:00 PM 2.25 36.05 0.084 7.17 3.61 12.84
1/13/2022 10:30:00 PM 2.25 36.05 0.086 7.17 2.15 12.85
1/13/2022 10:45:00 PM 2.24 36.032 0.086 7.18 2.15 12.86
1/13/2022 11:00:00 PM 2.24 36.032 0.086 7.17 2.22 12.85
1/13/2022 11:15:00 PM 2.24 36.032 0.086 7.2 2.19 12.86
1/13/2022 11:30:00 PM 2.23 36.014 0.086 7.19 2.14 12.85
1/13/2022 11:45:00 PM 2.23 36.014 0.086 7.19 2.21 12.85
1/14/2022 12:00:00 AM 2.22 35.996 0.087 7.2 2.08 12.85
1/14/2022 12:15:00 AM 2.21 35.978 0.087 7.2 2.09 12.85
1/14/2022 12:30:00 AM 2.21 35.978 0.087 7.2 2.1 12.86
1/14/2022 12:45:00 AM 2.21 35.978 0.087 7.2 2.18 12.86
1/14/2022 1:00:00 AM 2.21 35.978 0.082 7.16 3.46 12.86
1/14/2022 1:15:00 AM 2.21 35.978 0.087 7.18 2.18 12.86
1/14/2022 1:30:00 AM 2.21 35.978 0.087 7.18 2.17 12.86
1/14/2022 1:45:00 AM 2.2 35.96 0.087 7.19 2.11 12.86
1/14/2022 2:00:00 AM 2.2 35.96 0.087 7.21 2.11 12.86
1/14/2022 2:15:00 AM 2.2 35.96 0.087 7.21 2.2 12.86
1/14/2022 2:30:00 AM 2.21 35.978 0.088 7.18 2.15 12.86
1/14/2022 2:45:00 AM 2.2 35.96 0.088 7.21 2.1 12.86
1/14/2022 3:00:00 AM 2.21 35.978 0.083 7.18 3.4 12.86
1/14/2022 3:15:00 AM 2.2 35.96 0.088 7.17 2.07 12.87
1/14/2022 3:30:00 AM 2.21 35.978 0.088 7.21 2.08 12.86
1/14/2022 3:45:00 AM 2.22 35.996 0.086 7.2 3.23 12.85
1/14/2022 4:00:00 AM 2.22 35.996 0.083 7.2 3.48 12.86
1/14/2022 4:15:00 AM 2.22 35.996 0.088 7.22 2.12 12.85
1/14/2022 4:30:00 AM 2.22 35.996 0.088 7.24 2.11 12.85
1/14/2022 4:45:00 AM 2.22 35.996 0.088 7.24 2.33 12.86
1/14/2022 5:00:00 AM 2.22 35.996 0.088 7.22 2.09 12.85
1/14/2022 5:15:00 AM 2.22 35.996 0.088 7.23 2.1 12.86
1/14/2022 5:30:00 AM 2.22 35.996 0.086 7.21 3.43 12.87
1/14/2022 5:45:00 AM 2.22 35.996 0.088 7.23 2.08 12.86
1/14/2022 6:00:00 AM 2.22 35.996 0.088 7.23 2.14 12.87
1/14/2022 6:15:00 AM 2.22 35.996 0.083 7.2 3.6 12.87
1/14/2022 6:30:00 AM 2.21 35.978 0.088 7.2 2.05 12.87
1/14/2022 6:45:00 AM 2.2 35.96 0.088 7.22 2.1 12.88
1/14/2022 7:00:00 AM 2.19 35.942 0.088 7.24 2.06 12.88
1/14/2022 7:15:00 AM 2.17 35.906 0.088 7.2 2.1 12.88
1/14/2022 7:30:00 AM 2.15 35.87 0.088 7.21 2.09 12.89
1/14/2022 7:45:00 AM 2.14 35.852 0.083 7.23 3.45 12.9
1/14/2022 8:00:00 AM 2.12 35.816 0.088 7.25 2.09 12.91
1/14/2022 8:15:00 AM 2.11 35.798 0.086 7.22 3.51 12.92
1/14/2022 8:30:00 AM 2.09 35.762 0.088 7.24 2.01 12.94
1/14/2022 8:45:00 AM 2.08 35.744 0.088 7.24 2.05 12.96
1/14/2022 9:00:00 AM 2.07 35.726 0.088 7.24 2.1 12.98
1/14/2022 9:15:00 AM 2.07 35.726 0.088 7.26 2.09 13
1/14/2022 9:30:00 AM 2.07 35.726 0.088 7.26 2 13.01
1/14/2022 9:45:00 AM 2.06 35.708 0.088 7.24 2.07 13.02
1/14/2022 10:00:00 AM 2.06 35.708 0.088 7.27 2 13.05
1/14/2022 10:15:00 AM 2.08 35.744 0.088 7.28 2.01 13.08
1/14/2022 10:30:00 AM 2.1 35.78 0.088 7.28 2.05 13.11
1/14/2022 10:45:00 AM 2.11 35.798 0.083 7.28 3.29 13.12
1/14/2022 11:00:00 AM 2.11 35.798 0.087 7.29 2.03 13.13
1/14/2022 11:15:00 AM 2.1 35.78 0.087 7.31 2.01 13.13
1/14/2022 11:30:00 AM 2.09 35.762 0.087 7.31 2 13.14
1/14/2022 11:45:00 AM 2.08 35.744 0.087 7.3 2.02 13.14
1/14/2022 12:00:00 PM 2.06 35.708 0.087 7.31 2.04 13.14
1/14/2022 12:15:00 PM 2.05 35.69 0.087 7.29 2 13.14
1/14/2022 12:30:00 PM 2.04 35.672 0.087 7.31 2.01 13.13
1/14/2022 12:45:00 PM 2.02 35.636 0.087 7.28 2.01 13.14
1/14/2022 1:00:00 PM 2.01 35.618 0.087 7.31 2 13.15
1/14/2022 1:15:00 PM 1.99 35.582 0.087 7.31 1.96 13.17
1/14/2022 1:30:00 PM 1.99 35.582 0.085 7.29 3.38 13.18
1/14/2022 1:45:00 PM 1.98 35.564 0.082 7.29 3.41 13.19
1/14/2022 2:00:00 PM 1.97 35.546 0.087 7.29 1.95 13.2
1/14/2022 2:15:00 PM 1.97 35.546 0.087 7.32 2.08 13.21
1/14/2022 2:30:00 PM 1.96 35.528 0.087 7.32 1.98 13.22
1/14/2022 2:45:00 PM 1.96 35.528 0.087 7.31 2.02 13.21
1/14/2022 3:00:00 PM 1.95 35.51 0.087 7.32 2.06 13.22
1/14/2022 3:15:00 PM 1.93 35.474 0.087 7.31 2.02 13.23
1/14/2022 3:30:00 PM 1.91 35.438 0.087 7.32 2 13.23
1/14/2022 3:45:00 PM 1.88 35.384 0.087 7.3 2.06 13.24
1/14/2022 4:00:00 PM 1.86 35.348 0.087 7.3 2.04 13.24
1/14/2022 4:15:00 PM 1.8 35.24 0.087 7.31 2.05 13.24
1/14/2022 4:30:00 PM 1.74 35.132 0.087 7.29 2.03 13.24
1/14/2022 4:45:00 PM 1.69 35.042 0.085 7.29 3.44 13.24
1/14/2022 5:00:00 PM 1.61 34.898 0.087 7.29 2.04 13.23
1/14/2022 5:15:00 PM 1.53 34.754 0.085 7.26 3.33 13.23
1/14/2022 5:30:00 PM 1.45 34.61 0.087 7.26 2.05 13.23
1/14/2022 5:45:00 PM 1.35 34.43 0.087 7.27 2.09 13.25
1/14/2022 6:00:00 PM 1.26 34.268 0.087 7.26 2.12 13.27
1/14/2022 6:15:00 PM 1.17 34.106 0.088 7.25 2.1 13.3
1/14/2022 6:30:00 PM 1.09 33.962 0.088 7.23 2.09 13.32
1/14/2022 6:45:00 PM 1.02 33.836 0.088 7.25 2.06 13.35
1/14/2022 7:00:00 PM 0.95 33.71 0.088 7.24 2.05 13.37
1/14/2022 7:15:00 PM 0.88 33.584 0.088 7.24 2.07 13.39
1/14/2022 7:30:00 PM 0.82 33.476 0.088 7.24 2.08 13.42
1/14/2022 7:45:00 PM 0.74 33.332 0.088 7.22 2.09 13.45
1/14/2022 8:00:00 PM 0.66 33.188 0.088 7.24 2.02 13.48
1/14/2022 8:15:00 PM 0.6 33.08 0.086 7.22 3.38 13.5
1/14/2022 8:30:00 PM 0.52 32.936 0.088 7.23 2.06 13.54
1/14/2022 8:45:00 PM 0.43 32.774 0.085 7.21 3.38 13.57
1/14/2022 9:00:00 PM 0.34 32.612 0.083 7.21 3.4 13.6
1/14/2022 9:15:00 PM 0.28 32.504 0.083 7.2 3.42 13.64
1/14/2022 9:30:00 PM 0.2 32.36 0.083 7.2 3.64 13.67
1/14/2022 9:45:00 PM 0.13 32.234 0.088 7.22 1.99 13.7
1/14/2022 10:00:00 PM 0.06 32.108 0.086 7.21 3.41 13.72
1/14/2022 10:15:00 PM 0.01 32.018 0.086 7.22 3.44 13.75
1/14/2022 10:30:00 PM -0.03 31.946 0.088 7.22 2.02 13.78
1/14/2022 10:45:00 PM -0.06 31.892 0.086 7.21 3.5 13.79
1/14/2022 11:00:00 PM -0.07 31.874 0.086 7.22 3.5 13.81
1/14/2022 11:15:00 PM -0.06 31.892 0.086 7.22 3.47 13.83
1/14/2022 11:30:00 PM -0.07 31.874 0.088 7.2 2.08 13.83
1/14/2022 11:45:00 PM -0.07 31.874 0.088 7.19 2.08 13.84
1/15/2022 12:00:00 AM -0.07 31.874 0.086 7.16 3.53 13.85
1/15/2022 12:15:00 AM -0.07 31.874 0.086 7.18 3.49 13.86
1/15/2022 12:30:00 AM -0.07 31.874 0.086 7.18 3.76 13.87
1/15/2022 12:45:00 AM -0.07 31.874 0.086 7.17 3.45 13.86
1/15/2022 1:00:00 AM -0.07 31.874 0.088 7.19 2.08 13.88
1/15/2022 1:15:00 AM -0.07 31.874 0.086 7.17 3.46 13.88
1/15/2022 1:30:00 AM -0.07 31.874 0.088 7.21 2.05 13.88
1/15/2022 1:45:00 AM -0.06 31.892 0.086 7.19 3.43 13.88
1/15/2022 2:00:00 AM -0.07 31.874 0.086 7.19 3.53 13.88
1/15/2022 2:15:00 AM -0.07 31.874 0.086 7.18 3.51 13.88
1/15/2022 2:30:00 AM -0.07 31.874 0.086 7.2 3.4 13.89
1/15/2022 2:45:00 AM -0.07 31.874 0.088 7.21 2.18 13.88
1/15/2022 3:00:00 AM -0.07 31.874 0.088 7.2 2.09 13.88
1/15/2022 3:15:00 AM -0.07 31.874 0.086 7.18 3.37 13.89
1/15/2022 3:30:00 AM -0.07 31.874 0.088 7.2 2.05 13.88
1/15/2022 3:45:00 AM -0.07 31.874 0.088 7.22 2.04 13.88
1/15/2022 4:00:00 AM -0.06 31.892 0.086 7.19 3.47 13.88
1/15/2022 4:15:00 AM -0.07 31.874 0.083 7.2 3.49 13.89
1/15/2022 4:30:00 AM -0.07 31.874 0.084 7.21 3.46 13.89
1/15/2022 4:45:00 AM -0.07 31.874 0.087 7.2 3.42 13.88
1/15/2022 5:00:00 AM -0.07 31.874 0.086 7.19 3.43 13.87
1/15/2022 5:15:00 AM -0.06 31.892 0.084 7.21 3.4 13.88
1/15/2022 5:30:00 AM -0.06 31.892 0.089 7.22 2 13.87
1/15/2022 5:45:00 AM -0.07 31.874 0.089 7.2 1.99 13.87
1/15/2022 6:00:00 AM -0.06 31.892 0.089 7.22 2.02 13.88
1/15/2022 6:15:00 AM -0.07 31.874 0.087 7.19 3.47 13.87
1/15/2022 6:30:00 AM -0.06 31.892 0.084 7.18 3.43 13.87
1/15/2022 6:45:00 AM -0.06 31.892 0.087 7.19 3.4 13.87
1/15/2022 7:00:00 AM -0.06 31.892 0.084 7.17 3.39 13.86
1/15/2022 7:15:00 AM -0.06 31.892 0.084 7.17 3.37 13.87
1/15/2022 7:30:00 AM -0.06 31.892 0.087 7.17 3.44 13.86
1/15/2022 7:45:00 AM -0.06 31.892 0.089 7.18 1.98 13.87
1/15/2022 8:00:00 AM -0.06 31.892 0.089 7.19 1.98 13.88
1/15/2022 8:15:00 AM -0.06 31.892 0.088 7.2 1.97 13.9
1/15/2022 8:30:00 AM -0.06 31.892 0.088 7.17 2 13.92
1/15/2022 8:45:00 AM -0.06 31.892 0.083 7.19 3.4 13.96
1/15/2022 9:00:00 AM -0.06 31.892 0.086 7.2 3.41 13.99
1/15/2022 9:15:00 AM -0.06 31.892 0.086 7.2 3.42 14.01
1/15/2022 9:30:00 AM -0.06 31.892 0.086 7.2 3.34 14.05
1/15/2022 9:45:00 AM -0.06 31.892 0.086 7.22 3.35 14.06
1/15/2022 10:00:00 AM -0.06 31.892 0.088 7.21 2.05 14.07
1/15/2022 10:15:00 AM -0.05 31.91 0.088 7.24 2.03 14.1
1/15/2022 10:30:00 AM -0.05 31.91 0.086 7.21 3.38 14.1
1/15/2022 10:45:00 AM -0.05 31.91 0.083 7.21 3.54 14.1
1/15/2022 11:00:00 AM -0.05 31.91 0.088 7.24 2.19 14.11
1/15/2022 11:15:00 AM -0.05 31.91 0.083 7.22 3.51 14.1
1/15/2022 11:30:00 AM -0.05 31.91 0.088 7.25 2.11 14.1
1/15/2022 11:45:00 AM -0.05 31.91 0.086 7.22 3.64 14.1
1/15/2022 12:00:00 PM -0.05 31.91 0.083 7.24 3.49 14.1
1/15/2022 12:15:00 PM -0.05 31.91 0.088 7.28 2.2 14.1
1/15/2022 12:30:00 PM -0.05 31.91 0.086 7.25 3.8 14.1
1/15/2022 12:45:00 PM -0.05 31.91 0.084 7.26 3.56 14.09
1/15/2022 1:00:00 PM -0.05 31.91 0.084 7.27 3.56 14.09
1/15/2022 1:15:00 PM -0.05 31.91 0.089 7.28 2.3 14.08
1/15/2022 1:30:00 PM -0.05 31.91 0.089 7.27 2.27 14.09
1/15/2022 1:45:00 PM -0.05 31.91 0.089 7.27 2.43 14.08
1/15/2022 2:00:00 PM -0.05 31.91 0.089 7.27 2.42 14.08
1/15/2022 2:15:00 PM -0.05 31.91 0.089 7.26 2.38 14.06
1/15/2022 2:30:00 PM -0.05 31.91 0.089 7.24 2.36 14.07
1/15/2022 2:45:00 PM -0.05 31.91 0.089 7.26 2.33 14.07
1/15/2022 3:00:00 PM -0.05 31.91 0.089 7.26 2.39 14.06
1/15/2022 3:15:00 PM -0.05 31.91 0.089 7.25 2.31 14.06
1/15/2022 3:30:00 PM -0.05 31.91 0.088 7.24 3.64 14.05
1/15/2022 3:45:00 PM -0.05 31.91 0.087 7.25 3.69 14.05
1/15/2022 4:00:00 PM -0.06 31.892 0.09 7.25 2.24 14.06
1/15/2022 4:15:00 PM -0.06 31.892 0.09 7.24 2.34 14.05
1/15/2022 4:30:00 PM -0.05 31.91 0.088 7.23 3.57 14.03
1/15/2022 4:45:00 PM -0.06 31.892 0.085 7.24 3.59 14.03
1/15/2022 5:00:00 PM -0.05 31.91 0.088 7.23 3.26 14.01
1/15/2022 5:15:00 PM -0.06 31.892 0.09 7.24 2.18 14
1/15/2022 5:30:00 PM -0.06 31.892 0.09 7.23 2.17 13.97
1/15/2022 5:45:00 PM -0.06 31.892 0.09 7.23 2.17 13.96
1/15/2022 6:00:00 PM -0.06 31.892 0.09 7.2 2.16 13.94
1/15/2022 6:15:00 PM -0.06 31.892 0.09 7.21 2.15 13.93
1/15/2022 6:30:00 PM -0.06 31.892 0.091 7.22 2.13 13.92
1/15/2022 6:45:00 PM -0.06 31.892 0.091 7.21 2.12 13.92
1/15/2022 7:00:00 PM -0.06 31.892 0.091 7.21 2.14 13.91
1/15/2022 7:15:00 PM -0.06 31.892 0.089 7.18 3.5 13.92
1/15/2022 7:30:00 PM -0.06 31.892 0.086 7.18 3.55 13.9
1/15/2022 7:45:00 PM -0.06 31.892 0.091 7.2 2.1 13.91
1/15/2022 8:00:00 PM -0.06 31.892 0.089 7.19 3.46 13.91
1/15/2022 8:15:00 PM -0.06 31.892 0.086 7.19 3.38 13.9
1/15/2022 8:30:00 PM -0.06 31.892 0.091 7.19 2.03 13.9
1/15/2022 8:45:00 PM -0.06 31.892 0.086 7.17 3.43 13.9
1/15/2022 9:00:00 PM -0.06 31.892 0.091 7.18 2.15 13.9
1/15/2022 9:15:00 PM -0.06 31.892 0.091 7.19 2.09 13.9
1/15/2022 9:30:00 PM -0.06 31.892 0.091 7.19 2.15 13.9
1/15/2022 9:45:00 PM -0.06 31.892 0.091 7.19 2.07 13.89
1/15/2022 10:00:00 PM -0.06 31.892 0.091 7.18 2.06 13.9
1/15/2022 10:15:00 PM -0.06 31.892 0.091 7.18 2.15 13.89
1/15/2022 10:30:00 PM -0.06 31.892 0.091 7.17 2.31 13.89
1/15/2022 10:45:00 PM -0.06 31.892 0.089 7.17 3.46 13.89
1/15/2022 11:00:00 PM -0.06 31.892 0.091 7.17 2.09 13.89
1/15/2022 11:15:00 PM -0.06 31.892 0.092 7.18 2.09 13.88
1/15/2022 11:30:00 PM -0.06 31.892 0.092 7.18 2.16 13.89
1/15/2022 11:45:00 PM -0.06 31.892 0.092 7.16 2.09 13.88
1/16/2022 12:00:00 AM -0.05 31.91 0.089 7.17 3.46 13.87
1/16/2022 12:15:00 AM -0.06 31.892 0.087 7.16 3.42 13.87
1/16/2022 12:30:00 AM -0.05 31.91 0.09 7.16 3.51 13.86
1/16/2022 12:45:00 AM -0.06 31.892 0.087 7.15 3.43 13.87
1/16/2022 1:00:00 AM -0.06 31.892 0.092 7.15 2.05 13.86
1/16/2022 1:15:00 AM -0.06 31.892 0.092 7.17 2.12 13.85
1/16/2022 1:30:00 AM -0.06 31.892 0.09 7.15 3.41 13.85
1/16/2022 1:45:00 AM -0.06 31.892 0.092 7.16 2.05 13.84
1/16/2022 2:00:00 AM -0.06 31.892 0.093 7.17 2.07 13.84
1/16/2022 2:15:00 AM -0.06 31.892 0.087 7.14 3.36 13.84
1/16/2022 2:30:00 AM -0.05 31.91 0.087 7.14 3.51 13.83
1/16/2022 2:45:00 AM -0.06 31.892 0.088 7.14 3.44 13.84
1/16/2022 3:00:00 AM -0.05 31.91 0.091 7.14 3.44 13.82
1/16/2022 3:15:00 AM -0.06 31.892 0.091 7.13 3.35 13.83
1/16/2022 3:30:00 AM -0.05 31.91 0.091 7.14 3.38 13.81
1/16/2022 3:45:00 AM -0.06 31.892 0.093 7.14 1.99 13.81
1/16/2022 4:00:00 AM -0.06 31.892 0.093 7.16 2 13.81
1/16/2022 4:15:00 AM -0.06 31.892 0.093 7.15 1.99 13.82
1/16/2022 4:30:00 AM -0.06 31.892 0.091 7.15 3.34 13.8
1/16/2022 4:45:00 AM -0.06 31.892 0.093 7.14 2.02 13.81
1/16/2022 5:00:00 AM -0.06 31.892 0.093 7.16 2.05 13.81
1/16/2022 5:15:00 AM -0.06 31.892 0.091 7.15 3.42 13.79
1/16/2022 5:30:00 AM -0.06 31.892 0.091 7.14 3.34 13.8
1/16/2022 5:45:00 AM -0.06 31.892 0.093 7.15 2.08 13.79
1/16/2022 6:00:00 AM -0.05 31.91 0.091 7.14 3.47 13.79
1/16/2022 6:15:00 AM -0.05 31.91 0.088 7.14 3.56 13.78
1/16/2022 6:30:00 AM -0.06 31.892 0.093 7.13 2.25 13.79
1/16/2022 6:45:00 AM -0.05 31.91 0.088 7.14 3.43 13.78
1/16/2022 7:00:00 AM -0.06 31.892 0.093 7.14 2.16 13.77
1/16/2022 7:15:00 AM -0.06 31.892 0.093 7.14 2.18 13.77
1/16/2022 7:30:00 AM -0.05 31.91 0.091 7.13 3.48 13.76
1/16/2022 7:45:00 AM -0.05 31.91 0.093 7.14 2.17 13.77
1/16/2022 8:00:00 AM -0.05 31.91 0.093 7.14 2.1 13.78
1/16/2022 8:15:00 AM -0.05 31.91 0.091 7.13 3.46 13.78
1/16/2022 8:30:00 AM -0.05 31.91 0.093 7.13 2.16 13.8
1/16/2022 8:45:00 AM -0.04 31.928 0.088 7.14 3.5 13.82
1/16/2022 9:00:00 AM -0.04 31.928 0.088 7.14 3.47 13.84
1/16/2022 9:15:00 AM -0.04 31.928 0.091 7.14 3.36 13.85
1/16/2022 9:30:00 AM -0.04 31.928 0.091 7.15 3.59 13.88
1/16/2022 9:45:00 AM -0.04 31.928 0.093 7.16 2.18 13.89
1/16/2022 10:00:00 AM -0.03 31.946 0.091 7.16 3.6 13.91
1/16/2022 10:15:00 AM -0.03 31.946 0.088 7.16 3.73 13.94
1/16/2022 10:30:00 AM -0.03 31.946 0.092 7.19 2.26 13.93
1/16/2022 10:45:00 AM -0.03 31.946 0.092 7.19 2.35 13.93
1/16/2022 11:00:00 AM -0.04 31.928 0.092 7.17 2.48 13.94
1/16/2022 11:15:00 AM -0.04 31.928 0.092 7.2 2.52 13.93
1/16/2022 11:30:00 AM -0.03 31.946 0.089 7.19 4.07 13.93
1/16/2022 11:45:00 AM -0.04 31.928 0.086 7.19 3.7 13.93
1/16/2022 12:00:00 PM -0.04 31.928 0.089